<?xml version="1.0" encoding="UTF-8" standalone="no" ?>
<gpx xmlns="http://www.topografix.com/GPX/1/1" xmlns:xsi="http://www.w3.org/2001/XMLSchema-instance" xsi:schemaLocation="http://www.topografix.com/GPX/1/1 http://www.topografix.com/GPX/1/1/gpx.xsd" version="1.1" creator="VisuGPX - https://www.visugpx.com">
  <metadata>
    <name>GR34 : de Dahouët au pont Rolland</name>
    <desc><![CDATA[sur le GR34 le 28/09/2013]]></desc>
  </metadata>
  <trk>
    <name><![CDATA[GR34 : de Dahouët au pont Rolland_1]]></name>
    <trkseg>
      <trkpt lat="48.57654" lon="-2.56629">
        <ele>26.923915</ele>
        <time>2013-09-28T08:06:48Z</time>
      </trkpt>
      <trkpt lat="48.57654" lon="-2.56629">
        <ele>26.867935</ele>
        <time>2013-09-28T08:06:49Z</time>
      </trkpt>
      <trkpt lat="48.57665" lon="-2.56648">
        <ele>17.1</ele>
        <time>2013-09-28T08:07:03Z</time>
      </trkpt>
      <trkpt lat="48.57672" lon="-2.56655">
        <ele>16.5</ele>
        <time>2013-09-28T08:07:10Z</time>
      </trkpt>
      <trkpt lat="48.57679" lon="-2.56662">
        <ele>16.1</ele>
        <time>2013-09-28T08:07:17Z</time>
      </trkpt>
      <trkpt lat="48.57686" lon="-2.56668">
        <ele>15.9</ele>
        <time>2013-09-28T08:07:23Z</time>
      </trkpt>
      <trkpt lat="48.57691" lon="-2.56678">
        <ele>15.6</ele>
        <time>2013-09-28T08:07:30Z</time>
      </trkpt>
      <trkpt lat="48.57693" lon="-2.56691">
        <ele>14.8</ele>
        <time>2013-09-28T08:07:48Z</time>
      </trkpt>
      <trkpt lat="48.57687" lon="-2.567">
        <ele>14.4</ele>
        <time>2013-09-28T08:07:55Z</time>
      </trkpt>
      <trkpt lat="48.57686" lon="-2.567">
        <ele>14.4</ele>
        <time>2013-09-28T08:07:56Z</time>
      </trkpt>
      <trkpt lat="48.57672" lon="-2.56706">
        <ele>14.1</ele>
        <time>2013-09-28T08:08:05Z</time>
      </trkpt>
      <trkpt lat="48.57664" lon="-2.56711">
        <ele>14.1</ele>
        <time>2013-09-28T08:08:10Z</time>
      </trkpt>
      <trkpt lat="48.57657" lon="-2.5672">
        <ele>14.1</ele>
        <time>2013-09-28T08:08:16Z</time>
      </trkpt>
      <trkpt lat="48.57652" lon="-2.5673">
        <ele>14</ele>
        <time>2013-09-28T08:08:22Z</time>
      </trkpt>
      <trkpt lat="48.57648" lon="-2.56741">
        <ele>14</ele>
        <time>2013-09-28T08:08:29Z</time>
      </trkpt>
      <trkpt lat="48.57642" lon="-2.56751">
        <ele>13.9</ele>
        <time>2013-09-28T08:08:36Z</time>
      </trkpt>
      <trkpt lat="48.57636" lon="-2.5676">
        <ele>13.8</ele>
        <time>2013-09-28T08:08:43Z</time>
      </trkpt>
      <trkpt lat="48.5763" lon="-2.56768">
        <ele>13.8</ele>
        <time>2013-09-28T08:08:50Z</time>
      </trkpt>
      <trkpt lat="48.57637" lon="-2.56773">
        <ele>14</ele>
        <time>2013-09-28T08:09:03Z</time>
      </trkpt>
      <trkpt lat="48.57638" lon="-2.56773">
        <ele>14.1</ele>
        <time>2013-09-28T08:09:04Z</time>
      </trkpt>
      <trkpt lat="48.57653" lon="-2.56783">
        <ele>14.9</ele>
        <time>2013-09-28T08:09:18Z</time>
      </trkpt>
      <trkpt lat="48.57659" lon="-2.56792">
        <ele>15.3</ele>
        <time>2013-09-28T08:09:24Z</time>
      </trkpt>
      <trkpt lat="48.57664" lon="-2.56801">
        <ele>15.4</ele>
        <time>2013-09-28T08:09:30Z</time>
      </trkpt>
      <trkpt lat="48.5767" lon="-2.56809">
        <ele>15.4</ele>
        <time>2013-09-28T08:09:36Z</time>
      </trkpt>
      <trkpt lat="48.57676" lon="-2.56817">
        <ele>15.4</ele>
        <time>2013-09-28T08:09:42Z</time>
      </trkpt>
      <trkpt lat="48.57683" lon="-2.56825">
        <ele>15.3</ele>
        <time>2013-09-28T08:09:49Z</time>
      </trkpt>
      <trkpt lat="48.57689" lon="-2.56833">
        <ele>15</ele>
        <time>2013-09-28T08:09:56Z</time>
      </trkpt>
      <trkpt lat="48.57698" lon="-2.56835">
        <ele>14.7</ele>
        <time>2013-09-28T08:10:06Z</time>
      </trkpt>
      <trkpt lat="48.57699" lon="-2.56834">
        <ele>14.7</ele>
        <time>2013-09-28T08:10:07Z</time>
      </trkpt>
      <trkpt lat="48.57712" lon="-2.56822">
        <ele>15.2</ele>
        <time>2013-09-28T08:10:20Z</time>
      </trkpt>
      <trkpt lat="48.57719" lon="-2.56816">
        <ele>15.4</ele>
        <time>2013-09-28T08:10:27Z</time>
      </trkpt>
      <trkpt lat="48.57727" lon="-2.56809">
        <ele>15.8</ele>
        <time>2013-09-28T08:10:34Z</time>
      </trkpt>
      <trkpt lat="48.57735" lon="-2.56813">
        <ele>16.5</ele>
        <time>2013-09-28T08:10:42Z</time>
      </trkpt>
      <trkpt lat="48.57744" lon="-2.56816">
        <ele>17.4</ele>
        <time>2013-09-28T08:10:51Z</time>
      </trkpt>
      <trkpt lat="48.57753" lon="-2.56817">
        <ele>18.3</ele>
        <time>2013-09-28T08:10:59Z</time>
      </trkpt>
      <trkpt lat="48.57758" lon="-2.56824">
        <ele>19</ele>
        <time>2013-09-28T08:11:04Z</time>
      </trkpt>
      <trkpt lat="48.57764" lon="-2.56834">
        <ele>19.7</ele>
        <time>2013-09-28T08:11:10Z</time>
      </trkpt>
      <trkpt lat="48.57765" lon="-2.56835">
        <ele>19.9</ele>
        <time>2013-09-28T08:11:11Z</time>
      </trkpt>
      <trkpt lat="48.57774" lon="-2.56855">
        <ele>20.9</ele>
        <time>2013-09-28T08:11:24Z</time>
      </trkpt>
      <trkpt lat="48.57778" lon="-2.56867">
        <ele>21.1</ele>
        <time>2013-09-28T08:11:31Z</time>
      </trkpt>
      <trkpt lat="48.57776" lon="-2.56879">
        <ele>21.3</ele>
        <time>2013-09-28T08:11:38Z</time>
      </trkpt>
      <trkpt lat="48.57772" lon="-2.5689">
        <ele>21.5</ele>
        <time>2013-09-28T08:11:45Z</time>
      </trkpt>
      <trkpt lat="48.5777" lon="-2.56903">
        <ele>21.8</ele>
        <time>2013-09-28T08:11:53Z</time>
      </trkpt>
      <trkpt lat="48.57768" lon="-2.56916">
        <ele>21.9</ele>
        <time>2013-09-28T08:12:01Z</time>
      </trkpt>
      <trkpt lat="48.57768" lon="-2.56928">
        <ele>20.3</ele>
        <time>2013-09-28T08:12:34Z</time>
      </trkpt>
      <trkpt lat="48.57767" lon="-2.5693">
        <ele>20.2</ele>
        <time>2013-09-28T08:12:35Z</time>
      </trkpt>
      <trkpt lat="48.5776" lon="-2.56952">
        <ele>19.6</ele>
        <time>2013-09-28T08:12:49Z</time>
      </trkpt>
      <trkpt lat="48.57756" lon="-2.5696">
        <ele>19.5</ele>
        <time>2013-09-28T08:12:52Z</time>
      </trkpt>
      <trkpt lat="48.57752" lon="-2.56971">
        <ele>19.2</ele>
        <time>2013-09-28T08:12:56Z</time>
      </trkpt>
      <trkpt lat="48.57747" lon="-2.56982">
        <ele>18.7</ele>
        <time>2013-09-28T08:13:02Z</time>
      </trkpt>
      <trkpt lat="48.57749" lon="-2.56994">
        <ele>18.2</ele>
        <time>2013-09-28T08:13:12Z</time>
      </trkpt>
      <trkpt lat="48.57754" lon="-2.57004">
        <ele>18.4</ele>
        <time>2013-09-28T08:13:20Z</time>
      </trkpt>
      <trkpt lat="48.57758" lon="-2.57016">
        <ele>18.7</ele>
        <time>2013-09-28T08:13:28Z</time>
      </trkpt>
      <trkpt lat="48.57764" lon="-2.57024">
        <ele>19</ele>
        <time>2013-09-28T08:13:36Z</time>
      </trkpt>
      <trkpt lat="48.57765" lon="-2.57025">
        <ele>19</ele>
        <time>2013-09-28T08:13:37Z</time>
      </trkpt>
      <trkpt lat="48.57774" lon="-2.57045">
        <ele>19.8</ele>
        <time>2013-09-28T08:13:51Z</time>
      </trkpt>
      <trkpt lat="48.57781" lon="-2.57052">
        <ele>20.5</ele>
        <time>2013-09-28T08:13:58Z</time>
      </trkpt>
      <trkpt lat="48.57787" lon="-2.5706">
        <ele>21.2</ele>
        <time>2013-09-28T08:14:05Z</time>
      </trkpt>
      <trkpt lat="48.57795" lon="-2.57063">
        <ele>22.1</ele>
        <time>2013-09-28T08:14:13Z</time>
      </trkpt>
      <trkpt lat="48.57804" lon="-2.57064">
        <ele>22.7</ele>
        <time>2013-09-28T08:14:22Z</time>
      </trkpt>
      <trkpt lat="48.57812" lon="-2.5706">
        <ele>20.8</ele>
        <time>2013-09-28T08:14:30Z</time>
      </trkpt>
      <trkpt lat="48.57819" lon="-2.57052">
        <ele>16.5</ele>
        <time>2013-09-28T08:14:38Z</time>
      </trkpt>
      <trkpt lat="48.5782" lon="-2.57052">
        <ele>16.4</ele>
        <time>2013-09-28T08:14:39Z</time>
      </trkpt>
      <trkpt lat="48.57833" lon="-2.57058">
        <ele>15.2</ele>
        <time>2013-09-28T08:14:54Z</time>
      </trkpt>
      <trkpt lat="48.57831" lon="-2.5707">
        <ele>17.6</ele>
        <time>2013-09-28T08:15:02Z</time>
      </trkpt>
      <trkpt lat="48.57827" lon="-2.57082">
        <ele>19.5</ele>
        <time>2013-09-28T08:15:12Z</time>
      </trkpt>
      <trkpt lat="48.57829" lon="-2.57094">
        <ele>20.4</ele>
        <time>2013-09-28T08:15:24Z</time>
      </trkpt>
      <trkpt lat="48.57837" lon="-2.57099">
        <ele>19.6</ele>
        <time>2013-09-28T08:15:37Z</time>
      </trkpt>
      <trkpt lat="48.57845" lon="-2.571">
        <ele>16.8</ele>
        <time>2013-09-28T08:15:49Z</time>
      </trkpt>
      <trkpt lat="48.57846" lon="-2.571">
        <ele>16.8</ele>
        <time>2013-09-28T08:15:50Z</time>
      </trkpt>
      <trkpt lat="48.57858" lon="-2.57118">
        <ele>15.8</ele>
        <time>2013-09-28T08:16:03Z</time>
      </trkpt>
      <trkpt lat="48.57865" lon="-2.57123">
        <ele>15.7</ele>
        <time>2013-09-28T08:16:09Z</time>
      </trkpt>
      <trkpt lat="48.57872" lon="-2.57131">
        <ele>15.4</ele>
        <time>2013-09-28T08:16:15Z</time>
      </trkpt>
      <trkpt lat="48.57875" lon="-2.57142">
        <ele>14</ele>
        <time>2013-09-28T08:16:20Z</time>
      </trkpt>
      <trkpt lat="48.57873" lon="-2.57155">
        <ele>13.8</ele>
        <time>2013-09-28T08:16:25Z</time>
      </trkpt>
      <trkpt lat="48.57867" lon="-2.57165">
        <ele>14.8</ele>
        <time>2013-09-28T08:16:32Z</time>
      </trkpt>
      <trkpt lat="48.57861" lon="-2.57174">
        <ele>15.4</ele>
        <time>2013-09-28T08:16:40Z</time>
      </trkpt>
      <trkpt lat="48.57852" lon="-2.57174">
        <ele>17.6</ele>
        <time>2013-09-28T08:16:52Z</time>
      </trkpt>
      <trkpt lat="48.57852" lon="-2.57174">
        <ele>17.8</ele>
        <time>2013-09-28T08:16:53Z</time>
      </trkpt>
      <trkpt lat="48.57838" lon="-2.57185">
        <ele>18.8</ele>
        <time>2013-09-28T08:17:08Z</time>
      </trkpt>
      <trkpt lat="48.57831" lon="-2.57192">
        <ele>18.7</ele>
        <time>2013-09-28T08:17:16Z</time>
      </trkpt>
      <trkpt lat="48.57822" lon="-2.57195">
        <ele>19.7</ele>
        <time>2013-09-28T08:17:24Z</time>
      </trkpt>
      <trkpt lat="48.57815" lon="-2.57202">
        <ele>21.4</ele>
        <time>2013-09-28T08:17:33Z</time>
      </trkpt>
      <trkpt lat="48.57809" lon="-2.5721">
        <ele>21</ele>
        <time>2013-09-28T08:17:40Z</time>
      </trkpt>
      <trkpt lat="48.57801" lon="-2.57216">
        <ele>21.7</ele>
        <time>2013-09-28T08:17:49Z</time>
      </trkpt>
      <trkpt lat="48.57796" lon="-2.57227">
        <ele>21.6</ele>
        <time>2013-09-28T08:17:56Z</time>
      </trkpt>
      <trkpt lat="48.57795" lon="-2.57229">
        <ele>21.4</ele>
        <time>2013-09-28T08:17:57Z</time>
      </trkpt>
      <trkpt lat="48.57788" lon="-2.57249">
        <ele>21.4</ele>
        <time>2013-09-28T08:18:09Z</time>
      </trkpt>
      <trkpt lat="48.57782" lon="-2.57259">
        <ele>21.3</ele>
        <time>2013-09-28T08:18:17Z</time>
      </trkpt>
      <trkpt lat="48.57776" lon="-2.57269">
        <ele>22.4</ele>
        <time>2013-09-28T08:18:25Z</time>
      </trkpt>
      <trkpt lat="48.57772" lon="-2.57281">
        <ele>21</ele>
        <time>2013-09-28T08:18:33Z</time>
      </trkpt>
      <trkpt lat="48.57767" lon="-2.57291">
        <ele>20.3</ele>
        <time>2013-09-28T08:18:41Z</time>
      </trkpt>
      <trkpt lat="48.57761" lon="-2.573">
        <ele>20.4</ele>
        <time>2013-09-28T08:18:50Z</time>
      </trkpt>
      <trkpt lat="48.57754" lon="-2.57309">
        <ele>19.2</ele>
        <time>2013-09-28T08:18:58Z</time>
      </trkpt>
      <trkpt lat="48.57753" lon="-2.57309">
        <ele>18.6</ele>
        <time>2013-09-28T08:18:59Z</time>
      </trkpt>
      <trkpt lat="48.57739" lon="-2.57304">
        <ele>19</ele>
        <time>2013-09-28T08:19:14Z</time>
      </trkpt>
      <trkpt lat="48.57737" lon="-2.57291">
        <ele>21.8</ele>
        <time>2013-09-28T08:19:31Z</time>
      </trkpt>
      <trkpt lat="48.57729" lon="-2.57288">
        <ele>23</ele>
        <time>2013-09-28T08:19:49Z</time>
      </trkpt>
      <trkpt lat="48.57721" lon="-2.57287">
        <ele>22.4</ele>
        <time>2013-09-28T08:19:56Z</time>
      </trkpt>
      <trkpt lat="48.57712" lon="-2.57289">
        <ele>22.2</ele>
        <time>2013-09-28T08:20:03Z</time>
      </trkpt>
      <trkpt lat="48.57711" lon="-2.57289">
        <ele>22.3</ele>
        <time>2013-09-28T08:20:04Z</time>
      </trkpt>
      <trkpt lat="48.57697" lon="-2.57302">
        <ele>18.1</ele>
        <time>2013-09-28T08:20:23Z</time>
      </trkpt>
      <trkpt lat="48.5769" lon="-2.57307">
        <ele>17.7</ele>
        <time>2013-09-28T08:20:29Z</time>
      </trkpt>
      <trkpt lat="48.57683" lon="-2.57312">
        <ele>17.6</ele>
        <time>2013-09-28T08:20:35Z</time>
      </trkpt>
      <trkpt lat="48.57675" lon="-2.57316">
        <ele>18</ele>
        <time>2013-09-28T08:20:41Z</time>
      </trkpt>
      <trkpt lat="48.57668" lon="-2.57322">
        <ele>18.3</ele>
        <time>2013-09-28T08:20:48Z</time>
      </trkpt>
      <trkpt lat="48.5766" lon="-2.57327">
        <ele>18.2</ele>
        <time>2013-09-28T08:20:55Z</time>
      </trkpt>
      <trkpt lat="48.57652" lon="-2.57331">
        <ele>18.7</ele>
        <time>2013-09-28T08:21:02Z</time>
      </trkpt>
      <trkpt lat="48.57643" lon="-2.57335">
        <ele>20.2</ele>
        <time>2013-09-28T08:21:10Z</time>
      </trkpt>
      <trkpt lat="48.57642" lon="-2.57335">
        <ele>20.3</ele>
        <time>2013-09-28T08:21:11Z</time>
      </trkpt>
      <trkpt lat="48.57627" lon="-2.5734">
        <ele>21.6</ele>
        <time>2013-09-28T08:21:27Z</time>
      </trkpt>
      <trkpt lat="48.57619" lon="-2.57344">
        <ele>22.4</ele>
        <time>2013-09-28T08:21:36Z</time>
      </trkpt>
      <trkpt lat="48.57611" lon="-2.57348">
        <ele>23</ele>
        <time>2013-09-28T08:21:45Z</time>
      </trkpt>
      <trkpt lat="48.57603" lon="-2.5735">
        <ele>24</ele>
        <time>2013-09-28T08:21:52Z</time>
      </trkpt>
      <trkpt lat="48.57595" lon="-2.57355">
        <ele>25.2</ele>
        <time>2013-09-28T08:21:59Z</time>
      </trkpt>
      <trkpt lat="48.57587" lon="-2.57359">
        <ele>25.9</ele>
        <time>2013-09-28T08:22:06Z</time>
      </trkpt>
      <trkpt lat="48.57579" lon="-2.57365">
        <ele>26.4</ele>
        <time>2013-09-28T08:22:13Z</time>
      </trkpt>
      <trkpt lat="48.57578" lon="-2.57366">
        <ele>26.5</ele>
        <time>2013-09-28T08:22:14Z</time>
      </trkpt>
      <trkpt lat="48.57564" lon="-2.57377">
        <ele>25.8</ele>
        <time>2013-09-28T08:22:25Z</time>
      </trkpt>
      <trkpt lat="48.57557" lon="-2.57384">
        <ele>25.9</ele>
        <time>2013-09-28T08:22:33Z</time>
      </trkpt>
      <trkpt lat="48.57549" lon="-2.57389">
        <ele>24.1</ele>
        <time>2013-09-28T08:22:42Z</time>
      </trkpt>
      <trkpt lat="48.57542" lon="-2.57395">
        <ele>22.6</ele>
        <time>2013-09-28T08:22:50Z</time>
      </trkpt>
      <trkpt lat="48.57539" lon="-2.57406">
        <ele>22</ele>
        <time>2013-09-28T08:22:58Z</time>
      </trkpt>
      <trkpt lat="48.57544" lon="-2.57417">
        <ele>18.9</ele>
        <time>2013-09-28T08:23:06Z</time>
      </trkpt>
      <trkpt lat="48.5755" lon="-2.57427">
        <ele>18.9</ele>
        <time>2013-09-28T08:23:14Z</time>
      </trkpt>
      <trkpt lat="48.5755" lon="-2.57428">
        <ele>18.8</ele>
        <time>2013-09-28T08:23:15Z</time>
      </trkpt>
      <trkpt lat="48.57562" lon="-2.57445">
        <ele>15.2</ele>
        <time>2013-09-28T08:23:31Z</time>
      </trkpt>
      <trkpt lat="48.57567" lon="-2.57456">
        <ele>13.7</ele>
        <time>2013-09-28T08:23:39Z</time>
      </trkpt>
      <trkpt lat="48.57571" lon="-2.57467">
        <ele>12.5</ele>
        <time>2013-09-28T08:23:47Z</time>
      </trkpt>
      <trkpt lat="48.57577" lon="-2.57476">
        <ele>9.7</ele>
        <time>2013-09-28T08:23:55Z</time>
      </trkpt>
      <trkpt lat="48.57582" lon="-2.57486">
        <ele>9.3</ele>
        <time>2013-09-28T08:24:02Z</time>
      </trkpt>
      <trkpt lat="48.57586" lon="-2.57496">
        <ele>8.1</ele>
        <time>2013-09-28T08:24:09Z</time>
      </trkpt>
      <trkpt lat="48.57582" lon="-2.57507">
        <ele>8.2</ele>
        <time>2013-09-28T08:24:22Z</time>
      </trkpt>
      <trkpt lat="48.57581" lon="-2.57507">
        <ele>8.4</ele>
        <time>2013-09-28T08:24:23Z</time>
      </trkpt>
      <trkpt lat="48.57564" lon="-2.57508">
        <ele>11.3</ele>
        <time>2013-09-28T08:24:41Z</time>
      </trkpt>
      <trkpt lat="48.57556" lon="-2.57511">
        <ele>12</ele>
        <time>2013-09-28T08:24:49Z</time>
      </trkpt>
      <trkpt lat="48.57548" lon="-2.57511">
        <ele>11.7</ele>
        <time>2013-09-28T08:24:56Z</time>
      </trkpt>
      <trkpt lat="48.57539" lon="-2.57511">
        <ele>11.4</ele>
        <time>2013-09-28T08:25:04Z</time>
      </trkpt>
      <trkpt lat="48.57531" lon="-2.57513">
        <ele>12</ele>
        <time>2013-09-28T08:25:13Z</time>
      </trkpt>
      <trkpt lat="48.57522" lon="-2.57514">
        <ele>13.1</ele>
        <time>2013-09-28T08:25:22Z</time>
      </trkpt>
      <trkpt lat="48.57514" lon="-2.57515">
        <ele>14.3</ele>
        <time>2013-09-28T08:25:30Z</time>
      </trkpt>
      <trkpt lat="48.57513" lon="-2.57515">
        <ele>14.4</ele>
        <time>2013-09-28T08:25:31Z</time>
      </trkpt>
      <trkpt lat="48.57497" lon="-2.57521">
        <ele>17.1</ele>
        <time>2013-09-28T08:25:47Z</time>
      </trkpt>
      <trkpt lat="48.5749" lon="-2.57528">
        <ele>17.7</ele>
        <time>2013-09-28T08:25:56Z</time>
      </trkpt>
      <trkpt lat="48.57488" lon="-2.57539">
        <ele>18.6</ele>
        <time>2013-09-28T08:26:03Z</time>
      </trkpt>
      <trkpt lat="48.57486" lon="-2.57552">
        <ele>19.4</ele>
        <time>2013-09-28T08:26:10Z</time>
      </trkpt>
      <trkpt lat="48.5748" lon="-2.57562">
        <ele>19.6</ele>
        <time>2013-09-28T08:26:17Z</time>
      </trkpt>
      <trkpt lat="48.57473" lon="-2.57566">
        <ele>19.8</ele>
        <time>2013-09-28T08:26:25Z</time>
      </trkpt>
      <trkpt lat="48.57465" lon="-2.5757">
        <ele>20.9</ele>
        <time>2013-09-28T08:26:32Z</time>
      </trkpt>
      <trkpt lat="48.57464" lon="-2.5757">
        <ele>21.1</ele>
        <time>2013-09-28T08:26:33Z</time>
      </trkpt>
      <trkpt lat="48.5745" lon="-2.5758">
        <ele>22.5</ele>
        <time>2013-09-28T08:26:46Z</time>
      </trkpt>
      <trkpt lat="48.57442" lon="-2.57587">
        <ele>22.7</ele>
        <time>2013-09-28T08:26:53Z</time>
      </trkpt>
      <trkpt lat="48.57436" lon="-2.57593">
        <ele>22.8</ele>
        <time>2013-09-28T08:26:59Z</time>
      </trkpt>
      <trkpt lat="48.57429" lon="-2.576">
        <ele>23.4</ele>
        <time>2013-09-28T08:27:05Z</time>
      </trkpt>
      <trkpt lat="48.57422" lon="-2.57605">
        <ele>23.8</ele>
        <time>2013-09-28T08:27:12Z</time>
      </trkpt>
      <trkpt lat="48.57414" lon="-2.57609">
        <ele>24.9</ele>
        <time>2013-09-28T08:27:19Z</time>
      </trkpt>
      <trkpt lat="48.57406" lon="-2.57613">
        <ele>25.4</ele>
        <time>2013-09-28T08:27:26Z</time>
      </trkpt>
      <trkpt lat="48.57398" lon="-2.57616">
        <ele>22.1</ele>
        <time>2013-09-28T08:27:33Z</time>
      </trkpt>
      <trkpt lat="48.57397" lon="-2.57617">
        <ele>22.9</ele>
        <time>2013-09-28T08:27:34Z</time>
      </trkpt>
      <trkpt lat="48.57385" lon="-2.57632">
        <ele>25.5</ele>
        <time>2013-09-28T08:27:48Z</time>
      </trkpt>
      <trkpt lat="48.5738" lon="-2.57642">
        <ele>25.4</ele>
        <time>2013-09-28T08:27:55Z</time>
      </trkpt>
      <trkpt lat="48.57377" lon="-2.57654">
        <ele>25.7</ele>
        <time>2013-09-28T08:28:02Z</time>
      </trkpt>
      <trkpt lat="48.57379" lon="-2.57667">
        <ele>25.9</ele>
        <time>2013-09-28T08:28:09Z</time>
      </trkpt>
      <trkpt lat="48.57382" lon="-2.57678">
        <ele>26.6</ele>
        <time>2013-09-28T08:28:16Z</time>
      </trkpt>
      <trkpt lat="48.5738" lon="-2.57691">
        <ele>26.3</ele>
        <time>2013-09-28T08:28:23Z</time>
      </trkpt>
      <trkpt lat="48.57373" lon="-2.57699">
        <ele>25.6</ele>
        <time>2013-09-28T08:28:30Z</time>
      </trkpt>
      <trkpt lat="48.57366" lon="-2.57702">
        <ele>27.1</ele>
        <time>2013-09-28T08:28:37Z</time>
      </trkpt>
      <trkpt lat="48.57365" lon="-2.57703">
        <ele>27</ele>
        <time>2013-09-28T08:28:38Z</time>
      </trkpt>
      <trkpt lat="48.57351" lon="-2.57711">
        <ele>27.6</ele>
        <time>2013-09-28T08:28:49Z</time>
      </trkpt>
      <trkpt lat="48.57344" lon="-2.57717">
        <ele>27.3</ele>
        <time>2013-09-28T08:28:55Z</time>
      </trkpt>
      <trkpt lat="48.57337" lon="-2.57724">
        <ele>27.6</ele>
        <time>2013-09-28T08:29:01Z</time>
      </trkpt>
      <trkpt lat="48.5733" lon="-2.5773">
        <ele>26.9</ele>
        <time>2013-09-28T08:29:07Z</time>
      </trkpt>
      <trkpt lat="48.57324" lon="-2.57738">
        <ele>27.2</ele>
        <time>2013-09-28T08:29:14Z</time>
      </trkpt>
      <trkpt lat="48.57318" lon="-2.57748">
        <ele>25.2</ele>
        <time>2013-09-28T08:29:21Z</time>
      </trkpt>
      <trkpt lat="48.57318" lon="-2.57761">
        <ele>28.4</ele>
        <time>2013-09-28T08:29:29Z</time>
      </trkpt>
      <trkpt lat="48.57315" lon="-2.57773">
        <ele>27.1</ele>
        <time>2013-09-28T08:29:36Z</time>
      </trkpt>
      <trkpt lat="48.57311" lon="-2.57784">
        <ele>26.5</ele>
        <time>2013-09-28T08:29:43Z</time>
      </trkpt>
      <trkpt lat="48.5731" lon="-2.57786">
        <ele>26.8</ele>
        <time>2013-09-28T08:29:44Z</time>
      </trkpt>
      <trkpt lat="48.573" lon="-2.57804">
        <ele>29.9</ele>
        <time>2013-09-28T08:30:01Z</time>
      </trkpt>
      <trkpt lat="48.57296" lon="-2.57816">
        <ele>31.7</ele>
        <time>2013-09-28T08:30:12Z</time>
      </trkpt>
      <trkpt lat="48.57293" lon="-2.57828">
        <ele>32.5</ele>
        <time>2013-09-28T08:30:22Z</time>
      </trkpt>
      <trkpt lat="48.57288" lon="-2.57839">
        <ele>32.6</ele>
        <time>2013-09-28T08:30:30Z</time>
      </trkpt>
      <trkpt lat="48.57281" lon="-2.57846">
        <ele>32.5</ele>
        <time>2013-09-28T08:30:38Z</time>
      </trkpt>
      <trkpt lat="48.57274" lon="-2.57854">
        <ele>31.2</ele>
        <time>2013-09-28T08:30:46Z</time>
      </trkpt>
      <trkpt lat="48.57274" lon="-2.57856">
        <ele>31.1</ele>
        <time>2013-09-28T08:30:47Z</time>
      </trkpt>
      <trkpt lat="48.57267" lon="-2.57875">
        <ele>30.2</ele>
        <time>2013-09-28T08:30:59Z</time>
      </trkpt>
      <trkpt lat="48.57263" lon="-2.57887">
        <ele>29.8</ele>
        <time>2013-09-28T08:31:06Z</time>
      </trkpt>
      <trkpt lat="48.57261" lon="-2.57899">
        <ele>30.1</ele>
        <time>2013-09-28T08:31:14Z</time>
      </trkpt>
      <trkpt lat="48.57258" lon="-2.5791">
        <ele>31.3</ele>
        <time>2013-09-28T08:31:22Z</time>
      </trkpt>
      <trkpt lat="48.57254" lon="-2.57922">
        <ele>32.9</ele>
        <time>2013-09-28T08:31:31Z</time>
      </trkpt>
      <trkpt lat="48.57248" lon="-2.57932">
        <ele>35.1</ele>
        <time>2013-09-28T08:31:44Z</time>
      </trkpt>
      <trkpt lat="48.57242" lon="-2.57941">
        <ele>36.5</ele>
        <time>2013-09-28T08:31:53Z</time>
      </trkpt>
      <trkpt lat="48.57241" lon="-2.57942">
        <ele>36.4</ele>
        <time>2013-09-28T08:31:54Z</time>
      </trkpt>
      <trkpt lat="48.57226" lon="-2.57952">
        <ele>36.9</ele>
        <time>2013-09-28T08:32:08Z</time>
      </trkpt>
      <trkpt lat="48.5722" lon="-2.5796">
        <ele>36.4</ele>
        <time>2013-09-28T08:32:15Z</time>
      </trkpt>
      <trkpt lat="48.57215" lon="-2.57971">
        <ele>35.9</ele>
        <time>2013-09-28T08:32:22Z</time>
      </trkpt>
      <trkpt lat="48.57212" lon="-2.57982">
        <ele>35.4</ele>
        <time>2013-09-28T08:32:28Z</time>
      </trkpt>
      <trkpt lat="48.57208" lon="-2.57993">
        <ele>35.7</ele>
        <time>2013-09-28T08:32:35Z</time>
      </trkpt>
      <trkpt lat="48.57202" lon="-2.58002">
        <ele>35.6</ele>
        <time>2013-09-28T08:32:43Z</time>
      </trkpt>
      <trkpt lat="48.57196" lon="-2.58011">
        <ele>35.3</ele>
        <time>2013-09-28T08:32:52Z</time>
      </trkpt>
      <trkpt lat="48.5719" lon="-2.58021">
        <ele>34.6</ele>
        <time>2013-09-28T08:33:03Z</time>
      </trkpt>
      <trkpt lat="48.5719" lon="-2.58022">
        <ele>34.4</ele>
        <time>2013-09-28T08:33:04Z</time>
      </trkpt>
      <trkpt lat="48.57175" lon="-2.58033">
        <ele>29.6</ele>
        <time>2013-09-28T08:33:28Z</time>
      </trkpt>
      <trkpt lat="48.57167" lon="-2.58028">
        <ele>27.5</ele>
        <time>2013-09-28T08:33:38Z</time>
      </trkpt>
      <trkpt lat="48.5716" lon="-2.58021">
        <ele>26.2</ele>
        <time>2013-09-28T08:33:47Z</time>
      </trkpt>
      <trkpt lat="48.57152" lon="-2.58014">
        <ele>24.7</ele>
        <time>2013-09-28T08:33:56Z</time>
      </trkpt>
      <trkpt lat="48.57146" lon="-2.58005">
        <ele>22.8</ele>
        <time>2013-09-28T08:34:05Z</time>
      </trkpt>
      <trkpt lat="48.57145" lon="-2.58004">
        <ele>22.7</ele>
        <time>2013-09-28T08:34:06Z</time>
      </trkpt>
      <trkpt lat="48.57131" lon="-2.57991">
        <ele>20.5</ele>
        <time>2013-09-28T08:34:25Z</time>
      </trkpt>
      <trkpt lat="48.57124" lon="-2.57982">
        <ele>19</ele>
        <time>2013-09-28T08:34:34Z</time>
      </trkpt>
      <trkpt lat="48.57118" lon="-2.57974">
        <ele>16.3</ele>
        <time>2013-09-28T08:34:43Z</time>
      </trkpt>
      <trkpt lat="48.57112" lon="-2.57965">
        <ele>13.4</ele>
        <time>2013-09-28T08:34:52Z</time>
      </trkpt>
      <trkpt lat="48.57106" lon="-2.57955">
        <ele>11.5</ele>
        <time>2013-09-28T08:35:03Z</time>
      </trkpt>
      <trkpt lat="48.57099" lon="-2.57949">
        <ele>9.8</ele>
        <time>2013-09-28T08:35:12Z</time>
      </trkpt>
      <trkpt lat="48.57098" lon="-2.57949">
        <ele>9.6</ele>
        <time>2013-09-28T08:35:13Z</time>
      </trkpt>
      <trkpt lat="48.57084" lon="-2.57936">
        <ele>6.3</ele>
        <time>2013-09-28T08:35:31Z</time>
      </trkpt>
      <trkpt lat="48.57076" lon="-2.57931">
        <ele>4.4</ele>
        <time>2013-09-28T08:35:40Z</time>
      </trkpt>
      <trkpt lat="48.57069" lon="-2.57925">
        <ele>3.9</ele>
        <time>2013-09-28T08:35:50Z</time>
      </trkpt>
      <trkpt lat="48.57062" lon="-2.57916">
        <ele>4.4</ele>
        <time>2013-09-28T08:35:58Z</time>
      </trkpt>
      <trkpt lat="48.57056" lon="-2.57907">
        <ele>4.3</ele>
        <time>2013-09-28T08:36:05Z</time>
      </trkpt>
      <trkpt lat="48.57048" lon="-2.5791">
        <ele>6.4</ele>
        <time>2013-09-28T08:36:19Z</time>
      </trkpt>
      <trkpt lat="48.57047" lon="-2.57911">
        <ele>6.5</ele>
        <time>2013-09-28T08:36:20Z</time>
      </trkpt>
      <trkpt lat="48.57038" lon="-2.5793">
        <ele>9.3</ele>
        <time>2013-09-28T08:36:46Z</time>
      </trkpt>
      <trkpt lat="48.57029" lon="-2.57934">
        <ele>10.3</ele>
        <time>2013-09-28T08:36:53Z</time>
      </trkpt>
      <trkpt lat="48.57021" lon="-2.57938">
        <ele>10.6</ele>
        <time>2013-09-28T08:37:00Z</time>
      </trkpt>
      <trkpt lat="48.57013" lon="-2.5794">
        <ele>11</ele>
        <time>2013-09-28T08:37:06Z</time>
      </trkpt>
      <trkpt lat="48.57005" lon="-2.57943">
        <ele>12.1</ele>
        <time>2013-09-28T08:37:12Z</time>
      </trkpt>
      <trkpt lat="48.56997" lon="-2.57947">
        <ele>12.4</ele>
        <time>2013-09-28T08:37:19Z</time>
      </trkpt>
      <trkpt lat="48.56989" lon="-2.5795">
        <ele>12.2</ele>
        <time>2013-09-28T08:37:25Z</time>
      </trkpt>
      <trkpt lat="48.56988" lon="-2.5795">
        <ele>12.3</ele>
        <time>2013-09-28T08:37:26Z</time>
      </trkpt>
      <trkpt lat="48.56973" lon="-2.57958">
        <ele>14.1</ele>
        <time>2013-09-28T08:37:41Z</time>
      </trkpt>
      <trkpt lat="48.56966" lon="-2.57963">
        <ele>15.1</ele>
        <time>2013-09-28T08:37:49Z</time>
      </trkpt>
      <trkpt lat="48.56958" lon="-2.57968">
        <ele>16.1</ele>
        <time>2013-09-28T08:37:57Z</time>
      </trkpt>
      <trkpt lat="48.5695" lon="-2.57968">
        <ele>18.6</ele>
        <time>2013-09-28T08:38:13Z</time>
      </trkpt>
      <trkpt lat="48.56941" lon="-2.57967">
        <ele>19</ele>
        <time>2013-09-28T08:38:22Z</time>
      </trkpt>
      <trkpt lat="48.56933" lon="-2.57968">
        <ele>20.6</ele>
        <time>2013-09-28T08:38:30Z</time>
      </trkpt>
      <trkpt lat="48.56932" lon="-2.57968">
        <ele>20.6</ele>
        <time>2013-09-28T08:38:31Z</time>
      </trkpt>
      <trkpt lat="48.56916" lon="-2.57969">
        <ele>22.8</ele>
        <time>2013-09-28T08:38:43Z</time>
      </trkpt>
      <trkpt lat="48.56908" lon="-2.57969">
        <ele>23.6</ele>
        <time>2013-09-28T08:38:50Z</time>
      </trkpt>
      <trkpt lat="48.569" lon="-2.57969">
        <ele>24.8</ele>
        <time>2013-09-28T08:38:56Z</time>
      </trkpt>
      <trkpt lat="48.56891" lon="-2.5797">
        <ele>25</ele>
        <time>2013-09-28T08:39:01Z</time>
      </trkpt>
      <trkpt lat="48.56882" lon="-2.57971">
        <ele>25.3</ele>
        <time>2013-09-28T08:39:06Z</time>
      </trkpt>
      <trkpt lat="48.56873" lon="-2.57972">
        <ele>25.1</ele>
        <time>2013-09-28T08:39:12Z</time>
      </trkpt>
      <trkpt lat="48.56865" lon="-2.57973">
        <ele>25.8</ele>
        <time>2013-09-28T08:39:18Z</time>
      </trkpt>
      <trkpt lat="48.56857" lon="-2.57974">
        <ele>26.3</ele>
        <time>2013-09-28T08:39:24Z</time>
      </trkpt>
      <trkpt lat="48.56848" lon="-2.57975">
        <ele>26.2</ele>
        <time>2013-09-28T08:39:31Z</time>
      </trkpt>
      <trkpt lat="48.56847" lon="-2.57975">
        <ele>26.6</ele>
        <time>2013-09-28T08:39:32Z</time>
      </trkpt>
      <trkpt lat="48.56832" lon="-2.57974">
        <ele>28.5</ele>
        <time>2013-09-28T08:39:43Z</time>
      </trkpt>
      <trkpt lat="48.56823" lon="-2.57976">
        <ele>28.5</ele>
        <time>2013-09-28T08:39:50Z</time>
      </trkpt>
      <trkpt lat="48.56819" lon="-2.57987">
        <ele>28.7</ele>
        <time>2013-09-28T08:39:59Z</time>
      </trkpt>
      <trkpt lat="48.56817" lon="-2.57999">
        <ele>28.8</ele>
        <time>2013-09-28T08:40:07Z</time>
      </trkpt>
      <trkpt lat="48.56814" lon="-2.58011">
        <ele>28.4</ele>
        <time>2013-09-28T08:40:14Z</time>
      </trkpt>
      <trkpt lat="48.56811" lon="-2.58023">
        <ele>27.8</ele>
        <time>2013-09-28T08:40:21Z</time>
      </trkpt>
      <trkpt lat="48.56809" lon="-2.58036">
        <ele>26.9</ele>
        <time>2013-09-28T08:40:28Z</time>
      </trkpt>
      <trkpt lat="48.56808" lon="-2.58048">
        <ele>26.8</ele>
        <time>2013-09-28T08:40:35Z</time>
      </trkpt>
      <trkpt lat="48.56808" lon="-2.5805">
        <ele>26.8</ele>
        <time>2013-09-28T08:40:36Z</time>
      </trkpt>
      <trkpt lat="48.56809" lon="-2.58074">
        <ele>24.7</ele>
        <time>2013-09-28T08:41:26Z</time>
      </trkpt>
      <trkpt lat="48.56809" lon="-2.58086">
        <ele>23.9</ele>
        <time>2013-09-28T08:41:33Z</time>
      </trkpt>
      <trkpt lat="48.56809" lon="-2.58099">
        <ele>22.8</ele>
        <time>2013-09-28T08:41:40Z</time>
      </trkpt>
      <trkpt lat="48.56808" lon="-2.58101">
        <ele>22.5</ele>
        <time>2013-09-28T08:41:41Z</time>
      </trkpt>
      <trkpt lat="48.56807" lon="-2.58123">
        <ele>21.8</ele>
        <time>2013-09-28T08:41:54Z</time>
      </trkpt>
      <trkpt lat="48.56806" lon="-2.58135">
        <ele>21.5</ele>
        <time>2013-09-28T08:42:00Z</time>
      </trkpt>
      <trkpt lat="48.56805" lon="-2.58148">
        <ele>21.4</ele>
        <time>2013-09-28T08:42:06Z</time>
      </trkpt>
      <trkpt lat="48.56804" lon="-2.5816">
        <ele>21.1</ele>
        <time>2013-09-28T08:42:12Z</time>
      </trkpt>
      <trkpt lat="48.56802" lon="-2.58172">
        <ele>21</ele>
        <time>2013-09-28T08:42:18Z</time>
      </trkpt>
      <trkpt lat="48.56799" lon="-2.58185">
        <ele>20.9</ele>
        <time>2013-09-28T08:42:25Z</time>
      </trkpt>
      <trkpt lat="48.56808" lon="-2.58187">
        <ele>21.4</ele>
        <time>2013-09-28T08:42:42Z</time>
      </trkpt>
      <trkpt lat="48.56809" lon="-2.58187">
        <ele>21.5</ele>
        <time>2013-09-28T08:42:43Z</time>
      </trkpt>
      <trkpt lat="48.56825" lon="-2.58186">
        <ele>21.1</ele>
        <time>2013-09-28T08:42:56Z</time>
      </trkpt>
      <trkpt lat="48.56833" lon="-2.58192">
        <ele>22.6</ele>
        <time>2013-09-28T08:43:04Z</time>
      </trkpt>
      <trkpt lat="48.5684" lon="-2.58186">
        <ele>23.2</ele>
        <time>2013-09-28T08:43:15Z</time>
      </trkpt>
      <trkpt lat="48.56847" lon="-2.58178">
        <ele>25.2</ele>
        <time>2013-09-28T08:43:25Z</time>
      </trkpt>
      <trkpt lat="48.56854" lon="-2.5817">
        <ele>27.8</ele>
        <time>2013-09-28T08:43:33Z</time>
      </trkpt>
      <trkpt lat="48.56861" lon="-2.58163">
        <ele>27.4</ele>
        <time>2013-09-28T08:43:40Z</time>
      </trkpt>
      <trkpt lat="48.5687" lon="-2.5816">
        <ele>27</ele>
        <time>2013-09-28T08:43:47Z</time>
      </trkpt>
      <trkpt lat="48.56871" lon="-2.58159">
        <ele>26.9</ele>
        <time>2013-09-28T08:43:48Z</time>
      </trkpt>
      <trkpt lat="48.56886" lon="-2.58161">
        <ele>26.1</ele>
        <time>2013-09-28T08:44:00Z</time>
      </trkpt>
      <trkpt lat="48.56895" lon="-2.58162">
        <ele>26.2</ele>
        <time>2013-09-28T08:44:07Z</time>
      </trkpt>
      <trkpt lat="48.56903" lon="-2.58164">
        <ele>25</ele>
        <time>2013-09-28T08:44:13Z</time>
      </trkpt>
      <trkpt lat="48.5691" lon="-2.58171">
        <ele>25.8</ele>
        <time>2013-09-28T08:44:21Z</time>
      </trkpt>
      <trkpt lat="48.56913" lon="-2.58184">
        <ele>25.4</ele>
        <time>2013-09-28T08:44:29Z</time>
      </trkpt>
      <trkpt lat="48.56918" lon="-2.58193">
        <ele>24.2</ele>
        <time>2013-09-28T08:44:37Z</time>
      </trkpt>
      <trkpt lat="48.56921" lon="-2.58205">
        <ele>23.5</ele>
        <time>2013-09-28T08:44:43Z</time>
      </trkpt>
      <trkpt lat="48.5692" lon="-2.58217">
        <ele>23.1</ele>
        <time>2013-09-28T08:44:49Z</time>
      </trkpt>
      <trkpt lat="48.5692" lon="-2.58218">
        <ele>23.4</ele>
        <time>2013-09-28T08:44:50Z</time>
      </trkpt>
      <trkpt lat="48.56916" lon="-2.58241">
        <ele>24.1</ele>
        <time>2013-09-28T08:45:02Z</time>
      </trkpt>
      <trkpt lat="48.56911" lon="-2.58249">
        <ele>24.7</ele>
        <time>2013-09-28T08:45:09Z</time>
      </trkpt>
      <trkpt lat="48.56905" lon="-2.5826">
        <ele>24.8</ele>
        <time>2013-09-28T08:45:18Z</time>
      </trkpt>
      <trkpt lat="48.56902" lon="-2.58272">
        <ele>26.6</ele>
        <time>2013-09-28T08:45:27Z</time>
      </trkpt>
      <trkpt lat="48.56898" lon="-2.58283">
        <ele>27.7</ele>
        <time>2013-09-28T08:45:35Z</time>
      </trkpt>
      <trkpt lat="48.56893" lon="-2.58294">
        <ele>29.2</ele>
        <time>2013-09-28T08:45:45Z</time>
      </trkpt>
      <trkpt lat="48.56887" lon="-2.58302">
        <ele>30.8</ele>
        <time>2013-09-28T08:45:54Z</time>
      </trkpt>
      <trkpt lat="48.56886" lon="-2.58303">
        <ele>31</ele>
        <time>2013-09-28T08:45:55Z</time>
      </trkpt>
      <trkpt lat="48.56877" lon="-2.58322">
        <ele>33.4</ele>
        <time>2013-09-28T08:46:12Z</time>
      </trkpt>
      <trkpt lat="48.56874" lon="-2.58335">
        <ele>32.8</ele>
        <time>2013-09-28T08:46:20Z</time>
      </trkpt>
      <trkpt lat="48.56874" lon="-2.58348">
        <ele>32.3</ele>
        <time>2013-09-28T08:46:27Z</time>
      </trkpt>
      <trkpt lat="48.56873" lon="-2.58359">
        <ele>32.3</ele>
        <time>2013-09-28T08:46:33Z</time>
      </trkpt>
      <trkpt lat="48.5687" lon="-2.58371">
        <ele>31.6</ele>
        <time>2013-09-28T08:46:43Z</time>
      </trkpt>
      <trkpt lat="48.5687" lon="-2.58384">
        <ele>32.3</ele>
        <time>2013-09-28T08:46:50Z</time>
      </trkpt>
      <trkpt lat="48.56869" lon="-2.58396">
        <ele>30.9</ele>
        <time>2013-09-28T08:46:57Z</time>
      </trkpt>
      <trkpt lat="48.56869" lon="-2.58397">
        <ele>30.7</ele>
        <time>2013-09-28T08:46:58Z</time>
      </trkpt>
      <trkpt lat="48.56864" lon="-2.58421">
        <ele>29.4</ele>
        <time>2013-09-28T08:47:14Z</time>
      </trkpt>
      <trkpt lat="48.56859" lon="-2.5843">
        <ele>27.6</ele>
        <time>2013-09-28T08:47:22Z</time>
      </trkpt>
      <trkpt lat="48.56852" lon="-2.58437">
        <ele>26.6</ele>
        <time>2013-09-28T08:47:30Z</time>
      </trkpt>
      <trkpt lat="48.56845" lon="-2.58446">
        <ele>25</ele>
        <time>2013-09-28T08:47:38Z</time>
      </trkpt>
      <trkpt lat="48.56838" lon="-2.58449">
        <ele>24.5</ele>
        <time>2013-09-28T08:47:44Z</time>
      </trkpt>
      <trkpt lat="48.56829" lon="-2.58451">
        <ele>24.9</ele>
        <time>2013-09-28T08:47:54Z</time>
      </trkpt>
      <trkpt lat="48.56821" lon="-2.58451">
        <ele>24.8</ele>
        <time>2013-09-28T08:48:01Z</time>
      </trkpt>
      <trkpt lat="48.56819" lon="-2.58451">
        <ele>25.1</ele>
        <time>2013-09-28T08:48:02Z</time>
      </trkpt>
      <trkpt lat="48.56805" lon="-2.58457">
        <ele>25.1</ele>
        <time>2013-09-28T08:48:15Z</time>
      </trkpt>
      <trkpt lat="48.56796" lon="-2.58461">
        <ele>26.8</ele>
        <time>2013-09-28T08:48:23Z</time>
      </trkpt>
      <trkpt lat="48.5679" lon="-2.5847">
        <ele>26.4</ele>
        <time>2013-09-28T08:48:30Z</time>
      </trkpt>
      <trkpt lat="48.56786" lon="-2.5848">
        <ele>26</ele>
        <time>2013-09-28T08:48:36Z</time>
      </trkpt>
      <trkpt lat="48.56781" lon="-2.58489">
        <ele>26.2</ele>
        <time>2013-09-28T08:48:42Z</time>
      </trkpt>
      <trkpt lat="48.56775" lon="-2.58498">
        <ele>25.2</ele>
        <time>2013-09-28T08:48:48Z</time>
      </trkpt>
      <trkpt lat="48.5677" lon="-2.58508">
        <ele>25.1</ele>
        <time>2013-09-28T08:48:55Z</time>
      </trkpt>
      <trkpt lat="48.56766" lon="-2.58519">
        <ele>24.2</ele>
        <time>2013-09-28T08:49:03Z</time>
      </trkpt>
      <trkpt lat="48.56765" lon="-2.58521">
        <ele>24.2</ele>
        <time>2013-09-28T08:49:04Z</time>
      </trkpt>
      <trkpt lat="48.56756" lon="-2.58538">
        <ele>21.9</ele>
        <time>2013-09-28T08:49:15Z</time>
      </trkpt>
      <trkpt lat="48.5675" lon="-2.58548">
        <ele>22.4</ele>
        <time>2013-09-28T08:49:22Z</time>
      </trkpt>
      <trkpt lat="48.56746" lon="-2.5856">
        <ele>23.8</ele>
        <time>2013-09-28T08:49:30Z</time>
      </trkpt>
      <trkpt lat="48.56744" lon="-2.58573">
        <ele>23.7</ele>
        <time>2013-09-28T08:49:38Z</time>
      </trkpt>
      <trkpt lat="48.56741" lon="-2.58585">
        <ele>24.7</ele>
        <time>2013-09-28T08:49:46Z</time>
      </trkpt>
      <trkpt lat="48.56736" lon="-2.58595">
        <ele>26</ele>
        <time>2013-09-28T08:49:59Z</time>
      </trkpt>
      <trkpt lat="48.5673" lon="-2.58605">
        <ele>27.3</ele>
        <time>2013-09-28T08:50:08Z</time>
      </trkpt>
      <trkpt lat="48.56729" lon="-2.58607">
        <ele>27.4</ele>
        <time>2013-09-28T08:50:09Z</time>
      </trkpt>
      <trkpt lat="48.56718" lon="-2.58623">
        <ele>27.9</ele>
        <time>2013-09-28T08:50:22Z</time>
      </trkpt>
      <trkpt lat="48.56713" lon="-2.58633">
        <ele>28.8</ele>
        <time>2013-09-28T08:50:29Z</time>
      </trkpt>
      <trkpt lat="48.56709" lon="-2.58644">
        <ele>29.2</ele>
        <time>2013-09-28T08:50:36Z</time>
      </trkpt>
      <trkpt lat="48.56703" lon="-2.58653">
        <ele>29.3</ele>
        <time>2013-09-28T08:50:43Z</time>
      </trkpt>
      <trkpt lat="48.56696" lon="-2.58659">
        <ele>29.1</ele>
        <time>2013-09-28T08:50:50Z</time>
      </trkpt>
      <trkpt lat="48.56688" lon="-2.58665">
        <ele>30</ele>
        <time>2013-09-28T08:50:57Z</time>
      </trkpt>
      <trkpt lat="48.56679" lon="-2.58667">
        <ele>30.4</ele>
        <time>2013-09-28T08:51:04Z</time>
      </trkpt>
      <trkpt lat="48.56671" lon="-2.5867">
        <ele>29.8</ele>
        <time>2013-09-28T08:51:12Z</time>
      </trkpt>
      <trkpt lat="48.5667" lon="-2.58671">
        <ele>29.7</ele>
        <time>2013-09-28T08:51:13Z</time>
      </trkpt>
      <trkpt lat="48.56656" lon="-2.58683">
        <ele>30.7</ele>
        <time>2013-09-28T08:51:26Z</time>
      </trkpt>
      <trkpt lat="48.56649" lon="-2.5869">
        <ele>29.3</ele>
        <time>2013-09-28T08:51:33Z</time>
      </trkpt>
      <trkpt lat="48.56643" lon="-2.58698">
        <ele>28.8</ele>
        <time>2013-09-28T08:51:40Z</time>
      </trkpt>
      <trkpt lat="48.56637" lon="-2.58707">
        <ele>27.3</ele>
        <time>2013-09-28T08:51:47Z</time>
      </trkpt>
      <trkpt lat="48.56629" lon="-2.58713">
        <ele>26.7</ele>
        <time>2013-09-28T08:51:54Z</time>
      </trkpt>
      <trkpt lat="48.56623" lon="-2.58722">
        <ele>25.6</ele>
        <time>2013-09-28T08:52:03Z</time>
      </trkpt>
      <trkpt lat="48.56617" lon="-2.58731">
        <ele>24.8</ele>
        <time>2013-09-28T08:52:11Z</time>
      </trkpt>
      <trkpt lat="48.56612" lon="-2.58742">
        <ele>21.9</ele>
        <time>2013-09-28T08:52:19Z</time>
      </trkpt>
      <trkpt lat="48.56611" lon="-2.58743">
        <ele>21.9</ele>
        <time>2013-09-28T08:52:20Z</time>
      </trkpt>
      <trkpt lat="48.56599" lon="-2.58758">
        <ele>21</ele>
        <time>2013-09-28T08:52:33Z</time>
      </trkpt>
      <trkpt lat="48.56593" lon="-2.58767">
        <ele>20.1</ele>
        <time>2013-09-28T08:52:41Z</time>
      </trkpt>
      <trkpt lat="48.56589" lon="-2.58778">
        <ele>19.7</ele>
        <time>2013-09-28T08:52:48Z</time>
      </trkpt>
      <trkpt lat="48.56583" lon="-2.58786">
        <ele>18.7</ele>
        <time>2013-09-28T08:52:54Z</time>
      </trkpt>
      <trkpt lat="48.56576" lon="-2.58792">
        <ele>18.7</ele>
        <time>2013-09-28T08:53:01Z</time>
      </trkpt>
      <trkpt lat="48.56569" lon="-2.588">
        <ele>19.1</ele>
        <time>2013-09-28T08:53:09Z</time>
      </trkpt>
      <trkpt lat="48.56563" lon="-2.58809">
        <ele>18.7</ele>
        <time>2013-09-28T08:53:16Z</time>
      </trkpt>
      <trkpt lat="48.56558" lon="-2.5882">
        <ele>17.8</ele>
        <time>2013-09-28T08:53:23Z</time>
      </trkpt>
      <trkpt lat="48.56558" lon="-2.58821">
        <ele>17.5</ele>
        <time>2013-09-28T08:53:24Z</time>
      </trkpt>
      <trkpt lat="48.56547" lon="-2.58836">
        <ele>16.8</ele>
        <time>2013-09-28T08:53:36Z</time>
      </trkpt>
      <trkpt lat="48.56539" lon="-2.58835">
        <ele>16.7</ele>
        <time>2013-09-28T08:53:42Z</time>
      </trkpt>
      <trkpt lat="48.56532" lon="-2.58827">
        <ele>16.2</ele>
        <time>2013-09-28T08:53:49Z</time>
      </trkpt>
      <trkpt lat="48.56528" lon="-2.58817">
        <ele>14.9</ele>
        <time>2013-09-28T08:53:56Z</time>
      </trkpt>
      <trkpt lat="48.56524" lon="-2.58805">
        <ele>14.3</ele>
        <time>2013-09-28T08:54:02Z</time>
      </trkpt>
      <trkpt lat="48.5652" lon="-2.58793">
        <ele>13.4</ele>
        <time>2013-09-28T08:54:09Z</time>
      </trkpt>
      <trkpt lat="48.56517" lon="-2.58782">
        <ele>14.2</ele>
        <time>2013-09-28T08:54:16Z</time>
      </trkpt>
      <trkpt lat="48.56516" lon="-2.58768">
        <ele>13.4</ele>
        <time>2013-09-28T08:54:24Z</time>
      </trkpt>
      <trkpt lat="48.56516" lon="-2.58767">
        <ele>13.3</ele>
        <time>2013-09-28T08:54:25Z</time>
      </trkpt>
      <trkpt lat="48.56508" lon="-2.5879">
        <ele>12.4</ele>
        <time>2013-09-28T08:55:07Z</time>
      </trkpt>
      <trkpt lat="48.56503" lon="-2.58801">
        <ele>12.8</ele>
        <time>2013-09-28T08:55:14Z</time>
      </trkpt>
      <trkpt lat="48.56495" lon="-2.58805">
        <ele>13.4</ele>
        <time>2013-09-28T08:55:20Z</time>
      </trkpt>
      <trkpt lat="48.56487" lon="-2.58805">
        <ele>15.3</ele>
        <time>2013-09-28T08:55:27Z</time>
      </trkpt>
      <trkpt lat="48.56485" lon="-2.58804">
        <ele>15.4</ele>
        <time>2013-09-28T08:55:28Z</time>
      </trkpt>
      <trkpt lat="48.56469" lon="-2.58809">
        <ele>18.4</ele>
        <time>2013-09-28T08:55:46Z</time>
      </trkpt>
      <trkpt lat="48.56462" lon="-2.58813">
        <ele>18.1</ele>
        <time>2013-09-28T08:55:54Z</time>
      </trkpt>
      <trkpt lat="48.56455" lon="-2.5882">
        <ele>17.7</ele>
        <time>2013-09-28T08:56:02Z</time>
      </trkpt>
      <trkpt lat="48.56447" lon="-2.58827">
        <ele>17.9</ele>
        <time>2013-09-28T08:56:09Z</time>
      </trkpt>
      <trkpt lat="48.56439" lon="-2.58829">
        <ele>18.1</ele>
        <time>2013-09-28T08:56:17Z</time>
      </trkpt>
      <trkpt lat="48.56431" lon="-2.5883">
        <ele>19.3</ele>
        <time>2013-09-28T08:56:27Z</time>
      </trkpt>
      <trkpt lat="48.56422" lon="-2.58832">
        <ele>21.1</ele>
        <time>2013-09-28T08:56:37Z</time>
      </trkpt>
      <trkpt lat="48.56421" lon="-2.58832">
        <ele>21.2</ele>
        <time>2013-09-28T08:56:38Z</time>
      </trkpt>
      <trkpt lat="48.56407" lon="-2.58841">
        <ele>22.4</ele>
        <time>2013-09-28T08:56:52Z</time>
      </trkpt>
      <trkpt lat="48.56399" lon="-2.58845">
        <ele>23.4</ele>
        <time>2013-09-28T08:57:00Z</time>
      </trkpt>
      <trkpt lat="48.5639" lon="-2.58847">
        <ele>24.3</ele>
        <time>2013-09-28T08:57:08Z</time>
      </trkpt>
      <trkpt lat="48.56382" lon="-2.58845">
        <ele>24.7</ele>
        <time>2013-09-28T08:57:17Z</time>
      </trkpt>
      <trkpt lat="48.56373" lon="-2.58839">
        <ele>25.9</ele>
        <time>2013-09-28T08:57:26Z</time>
      </trkpt>
      <trkpt lat="48.56366" lon="-2.58832">
        <ele>28.5</ele>
        <time>2013-09-28T08:57:37Z</time>
      </trkpt>
      <trkpt lat="48.56366" lon="-2.5882">
        <ele>30.7</ele>
        <time>2013-09-28T08:57:48Z</time>
      </trkpt>
      <trkpt lat="48.56367" lon="-2.58819">
        <ele>31</ele>
        <time>2013-09-28T08:57:49Z</time>
      </trkpt>
      <trkpt lat="48.5637" lon="-2.588">
        <ele>34.8</ele>
        <time>2013-09-28T08:58:13Z</time>
      </trkpt>
      <trkpt lat="48.56361" lon="-2.58798">
        <ele>38.3</ele>
        <time>2013-09-28T08:58:31Z</time>
      </trkpt>
      <trkpt lat="48.56354" lon="-2.58804">
        <ele>39.7</ele>
        <time>2013-09-28T08:58:39Z</time>
      </trkpt>
      <trkpt lat="48.56346" lon="-2.58809">
        <ele>40.3</ele>
        <time>2013-09-28T08:59:00Z</time>
      </trkpt>
      <trkpt lat="48.56345" lon="-2.5881">
        <ele>40.3</ele>
        <time>2013-09-28T08:59:01Z</time>
      </trkpt>
      <trkpt lat="48.56332" lon="-2.58822">
        <ele>41.1</ele>
        <time>2013-09-28T08:59:18Z</time>
      </trkpt>
      <trkpt lat="48.56325" lon="-2.58829">
        <ele>42</ele>
        <time>2013-09-28T08:59:27Z</time>
      </trkpt>
      <trkpt lat="48.56319" lon="-2.58839">
        <ele>42.6</ele>
        <time>2013-09-28T08:59:35Z</time>
      </trkpt>
      <trkpt lat="48.56315" lon="-2.5885">
        <ele>42</ele>
        <time>2013-09-28T08:59:42Z</time>
      </trkpt>
      <trkpt lat="48.56309" lon="-2.58858">
        <ele>40.9</ele>
        <time>2013-09-28T08:59:52Z</time>
      </trkpt>
      <trkpt lat="48.56302" lon="-2.58865">
        <ele>40.2</ele>
        <time>2013-09-28T08:59:58Z</time>
      </trkpt>
      <trkpt lat="48.56296" lon="-2.58873">
        <ele>38.4</ele>
        <time>2013-09-28T09:00:05Z</time>
      </trkpt>
      <trkpt lat="48.56295" lon="-2.58875">
        <ele>38.5</ele>
        <time>2013-09-28T09:00:06Z</time>
      </trkpt>
      <trkpt lat="48.56284" lon="-2.58892">
        <ele>37.6</ele>
        <time>2013-09-28T09:00:19Z</time>
      </trkpt>
      <trkpt lat="48.5628" lon="-2.58904">
        <ele>36.3</ele>
        <time>2013-09-28T09:00:26Z</time>
      </trkpt>
      <trkpt lat="48.56276" lon="-2.58915">
        <ele>35.9</ele>
        <time>2013-09-28T09:00:33Z</time>
      </trkpt>
      <trkpt lat="48.56272" lon="-2.58927">
        <ele>35.3</ele>
        <time>2013-09-28T09:00:40Z</time>
      </trkpt>
      <trkpt lat="48.56265" lon="-2.58933">
        <ele>34.8</ele>
        <time>2013-09-28T09:00:46Z</time>
      </trkpt>
      <trkpt lat="48.56257" lon="-2.58932">
        <ele>34.4</ele>
        <time>2013-09-28T09:00:53Z</time>
      </trkpt>
      <trkpt lat="48.56255" lon="-2.58919">
        <ele>36.3</ele>
        <time>2013-09-28T09:01:04Z</time>
      </trkpt>
      <trkpt lat="48.56246" lon="-2.5892">
        <ele>37.7</ele>
        <time>2013-09-28T09:01:15Z</time>
      </trkpt>
      <trkpt lat="48.56245" lon="-2.58921">
        <ele>37.7</ele>
        <time>2013-09-28T09:01:16Z</time>
      </trkpt>
      <trkpt lat="48.5623" lon="-2.58925">
        <ele>40.9</ele>
        <time>2013-09-28T09:01:30Z</time>
      </trkpt>
      <trkpt lat="48.56223" lon="-2.58931">
        <ele>41.4</ele>
        <time>2013-09-28T09:01:39Z</time>
      </trkpt>
      <trkpt lat="48.56215" lon="-2.58938">
        <ele>42.4</ele>
        <time>2013-09-28T09:01:48Z</time>
      </trkpt>
      <trkpt lat="48.56208" lon="-2.58946">
        <ele>43.4</ele>
        <time>2013-09-28T09:01:57Z</time>
      </trkpt>
      <trkpt lat="48.56201" lon="-2.58953">
        <ele>41.4</ele>
        <time>2013-09-28T09:02:06Z</time>
      </trkpt>
      <trkpt lat="48.56194" lon="-2.58961">
        <ele>47.8</ele>
        <time>2013-09-28T09:02:16Z</time>
      </trkpt>
      <trkpt lat="48.56194" lon="-2.58962">
        <ele>47.4</ele>
        <time>2013-09-28T09:02:17Z</time>
      </trkpt>
      <trkpt lat="48.56196" lon="-2.58982">
        <ele>47.7</ele>
        <time>2013-09-28T09:02:43Z</time>
      </trkpt>
      <trkpt lat="48.5619" lon="-2.58991">
        <ele>41.1</ele>
        <time>2013-09-28T09:02:53Z</time>
      </trkpt>
      <trkpt lat="48.56187" lon="-2.59004">
        <ele>42.3</ele>
        <time>2013-09-28T09:03:03Z</time>
      </trkpt>
      <trkpt lat="48.56193" lon="-2.59012">
        <ele>40</ele>
        <time>2013-09-28T09:03:13Z</time>
      </trkpt>
      <trkpt lat="48.56198" lon="-2.59023">
        <ele>38</ele>
        <time>2013-09-28T09:03:24Z</time>
      </trkpt>
      <trkpt lat="48.56198" lon="-2.59024">
        <ele>37.7</ele>
        <time>2013-09-28T09:03:25Z</time>
      </trkpt>
      <trkpt lat="48.56193" lon="-2.59048">
        <ele>37.4</ele>
        <time>2013-09-28T09:03:43Z</time>
      </trkpt>
      <trkpt lat="48.56191" lon="-2.59061">
        <ele>36.1</ele>
        <time>2013-09-28T09:03:51Z</time>
      </trkpt>
      <trkpt lat="48.56188" lon="-2.59073">
        <ele>34.9</ele>
        <time>2013-09-28T09:03:58Z</time>
      </trkpt>
      <trkpt lat="48.56186" lon="-2.59086">
        <ele>35.1</ele>
        <time>2013-09-28T09:04:05Z</time>
      </trkpt>
      <trkpt lat="48.56184" lon="-2.59098">
        <ele>34.1</ele>
        <time>2013-09-28T09:04:12Z</time>
      </trkpt>
      <trkpt lat="48.56182" lon="-2.59111">
        <ele>32.6</ele>
        <time>2013-09-28T09:04:20Z</time>
      </trkpt>
      <trkpt lat="48.56183" lon="-2.59124">
        <ele>31.1</ele>
        <time>2013-09-28T09:04:29Z</time>
      </trkpt>
      <trkpt lat="48.56184" lon="-2.59126">
        <ele>30.9</ele>
        <time>2013-09-28T09:04:30Z</time>
      </trkpt>
      <trkpt lat="48.56183" lon="-2.59147">
        <ele>28.6</ele>
        <time>2013-09-28T09:04:43Z</time>
      </trkpt>
      <trkpt lat="48.56177" lon="-2.59155">
        <ele>27.6</ele>
        <time>2013-09-28T09:04:49Z</time>
      </trkpt>
      <trkpt lat="48.56169" lon="-2.59162">
        <ele>27.7</ele>
        <time>2013-09-28T09:04:55Z</time>
      </trkpt>
      <trkpt lat="48.56162" lon="-2.59166">
        <ele>27.6</ele>
        <time>2013-09-28T09:05:00Z</time>
      </trkpt>
      <trkpt lat="48.56154" lon="-2.59169">
        <ele>28.3</ele>
        <time>2013-09-28T09:05:06Z</time>
      </trkpt>
      <trkpt lat="48.56146" lon="-2.59174">
        <ele>28.4</ele>
        <time>2013-09-28T09:05:12Z</time>
      </trkpt>
      <trkpt lat="48.56138" lon="-2.59178">
        <ele>28.4</ele>
        <time>2013-09-28T09:05:18Z</time>
      </trkpt>
      <trkpt lat="48.56131" lon="-2.59181">
        <ele>29.6</ele>
        <time>2013-09-28T09:05:24Z</time>
      </trkpt>
      <trkpt lat="48.56123" lon="-2.59186">
        <ele>30.1</ele>
        <time>2013-09-28T09:05:31Z</time>
      </trkpt>
      <trkpt lat="48.56122" lon="-2.59186">
        <ele>30.1</ele>
        <time>2013-09-28T09:05:32Z</time>
      </trkpt>
      <trkpt lat="48.56106" lon="-2.59193">
        <ele>31.7</ele>
        <time>2013-09-28T09:05:47Z</time>
      </trkpt>
      <trkpt lat="48.56098" lon="-2.59197">
        <ele>32.5</ele>
        <time>2013-09-28T09:05:54Z</time>
      </trkpt>
      <trkpt lat="48.56091" lon="-2.59203">
        <ele>32.9</ele>
        <time>2013-09-28T09:06:01Z</time>
      </trkpt>
      <trkpt lat="48.56083" lon="-2.59208">
        <ele>33.2</ele>
        <time>2013-09-28T09:06:08Z</time>
      </trkpt>
      <trkpt lat="48.56075" lon="-2.59212">
        <ele>34.2</ele>
        <time>2013-09-28T09:06:15Z</time>
      </trkpt>
      <trkpt lat="48.56068" lon="-2.59218">
        <ele>33.3</ele>
        <time>2013-09-28T09:06:23Z</time>
      </trkpt>
      <trkpt lat="48.56061" lon="-2.59226">
        <ele>34.2</ele>
        <time>2013-09-28T09:06:31Z</time>
      </trkpt>
      <trkpt lat="48.56053" lon="-2.59231">
        <ele>35.7</ele>
        <time>2013-09-28T09:06:39Z</time>
      </trkpt>
      <trkpt lat="48.56052" lon="-2.59232">
        <ele>35.6</ele>
        <time>2013-09-28T09:06:40Z</time>
      </trkpt>
      <trkpt lat="48.5604" lon="-2.59246">
        <ele>37.2</ele>
        <time>2013-09-28T09:06:57Z</time>
      </trkpt>
      <trkpt lat="48.56033" lon="-2.59255">
        <ele>39.1</ele>
        <time>2013-09-28T09:07:06Z</time>
      </trkpt>
      <trkpt lat="48.56027" lon="-2.59264">
        <ele>38.9</ele>
        <time>2013-09-28T09:07:13Z</time>
      </trkpt>
      <trkpt lat="48.56021" lon="-2.59272">
        <ele>38.7</ele>
        <time>2013-09-28T09:07:20Z</time>
      </trkpt>
      <trkpt lat="48.56014" lon="-2.59279">
        <ele>37.6</ele>
        <time>2013-09-28T09:07:27Z</time>
      </trkpt>
      <trkpt lat="48.56006" lon="-2.59282">
        <ele>37.9</ele>
        <time>2013-09-28T09:07:34Z</time>
      </trkpt>
      <trkpt lat="48.55998" lon="-2.59281">
        <ele>36.2</ele>
        <time>2013-09-28T09:07:41Z</time>
      </trkpt>
      <trkpt lat="48.55997" lon="-2.59281">
        <ele>36.2</ele>
        <time>2013-09-28T09:07:42Z</time>
      </trkpt>
      <trkpt lat="48.55983" lon="-2.59289">
        <ele>34.1</ele>
        <time>2013-09-28T09:08:01Z</time>
      </trkpt>
      <trkpt lat="48.55982" lon="-2.59302">
        <ele>33.8</ele>
        <time>2013-09-28T09:08:09Z</time>
      </trkpt>
      <trkpt lat="48.55986" lon="-2.59314">
        <ele>32.5</ele>
        <time>2013-09-28T09:08:16Z</time>
      </trkpt>
      <trkpt lat="48.55985" lon="-2.59327">
        <ele>33.3</ele>
        <time>2013-09-28T09:08:28Z</time>
      </trkpt>
      <trkpt lat="48.55987" lon="-2.5934">
        <ele>34.5</ele>
        <time>2013-09-28T09:08:38Z</time>
      </trkpt>
      <trkpt lat="48.55989" lon="-2.59353">
        <ele>33.5</ele>
        <time>2013-09-28T09:08:46Z</time>
      </trkpt>
      <trkpt lat="48.55989" lon="-2.59355">
        <ele>33.3</ele>
        <time>2013-09-28T09:08:47Z</time>
      </trkpt>
      <trkpt lat="48.55996" lon="-2.59374">
        <ele>33</ele>
        <time>2013-09-28T09:09:00Z</time>
      </trkpt>
      <trkpt lat="48.55998" lon="-2.59387">
        <ele>32.2</ele>
        <time>2013-09-28T09:09:07Z</time>
      </trkpt>
      <trkpt lat="48.55998" lon="-2.59399">
        <ele>32.8</ele>
        <time>2013-09-28T09:09:14Z</time>
      </trkpt>
      <trkpt lat="48.56" lon="-2.59411">
        <ele>31.7</ele>
        <time>2013-09-28T09:09:21Z</time>
      </trkpt>
      <trkpt lat="48.56004" lon="-2.59422">
        <ele>32.1</ele>
        <time>2013-09-28T09:09:28Z</time>
      </trkpt>
      <trkpt lat="48.56007" lon="-2.59434">
        <ele>32.7</ele>
        <time>2013-09-28T09:09:36Z</time>
      </trkpt>
      <trkpt lat="48.56011" lon="-2.59447">
        <ele>33.4</ele>
        <time>2013-09-28T09:09:44Z</time>
      </trkpt>
      <trkpt lat="48.56013" lon="-2.59458">
        <ele>33.7</ele>
        <time>2013-09-28T09:09:51Z</time>
      </trkpt>
      <trkpt lat="48.56013" lon="-2.5946">
        <ele>33.9</ele>
        <time>2013-09-28T09:09:52Z</time>
      </trkpt>
      <trkpt lat="48.56012" lon="-2.59485">
        <ele>32.3</ele>
        <time>2013-09-28T09:10:10Z</time>
      </trkpt>
      <trkpt lat="48.56012" lon="-2.59497">
        <ele>30.6</ele>
        <time>2013-09-28T09:10:19Z</time>
      </trkpt>
      <trkpt lat="48.5601" lon="-2.5951">
        <ele>30.3</ele>
        <time>2013-09-28T09:10:27Z</time>
      </trkpt>
      <trkpt lat="48.56009" lon="-2.59523">
        <ele>28.5</ele>
        <time>2013-09-28T09:10:35Z</time>
      </trkpt>
      <trkpt lat="48.56008" lon="-2.59536">
        <ele>27.3</ele>
        <time>2013-09-28T09:10:43Z</time>
      </trkpt>
      <trkpt lat="48.56004" lon="-2.59546">
        <ele>26.8</ele>
        <time>2013-09-28T09:10:50Z</time>
      </trkpt>
      <trkpt lat="48.55998" lon="-2.59556">
        <ele>26.7</ele>
        <time>2013-09-28T09:10:57Z</time>
      </trkpt>
      <trkpt lat="48.55997" lon="-2.59557">
        <ele>26.7</ele>
        <time>2013-09-28T09:10:58Z</time>
      </trkpt>
      <trkpt lat="48.55985" lon="-2.59572">
        <ele>25.8</ele>
        <time>2013-09-28T09:11:11Z</time>
      </trkpt>
      <trkpt lat="48.55978" lon="-2.59579">
        <ele>25.2</ele>
        <time>2013-09-28T09:11:18Z</time>
      </trkpt>
      <trkpt lat="48.55969" lon="-2.59579">
        <ele>25.9</ele>
        <time>2013-09-28T09:11:26Z</time>
      </trkpt>
      <trkpt lat="48.5596" lon="-2.59577">
        <ele>27.3</ele>
        <time>2013-09-28T09:11:35Z</time>
      </trkpt>
      <trkpt lat="48.55952" lon="-2.59578">
        <ele>28.2</ele>
        <time>2013-09-28T09:11:44Z</time>
      </trkpt>
      <trkpt lat="48.55945" lon="-2.59585">
        <ele>27.1</ele>
        <time>2013-09-28T09:11:54Z</time>
      </trkpt>
      <trkpt lat="48.55937" lon="-2.5959">
        <ele>25.7</ele>
        <time>2013-09-28T09:12:05Z</time>
      </trkpt>
      <trkpt lat="48.55936" lon="-2.5959">
        <ele>25.5</ele>
        <time>2013-09-28T09:12:06Z</time>
      </trkpt>
      <trkpt lat="48.55938" lon="-2.59615">
        <ele>15.5</ele>
        <time>2013-09-28T09:13:09Z</time>
      </trkpt>
      <trkpt lat="48.55938" lon="-2.59615">
        <ele>15.6</ele>
        <time>2013-09-28T09:13:10Z</time>
      </trkpt>
      <trkpt lat="48.55922" lon="-2.59625">
        <ele>10.5</ele>
        <time>2013-09-28T09:13:46Z</time>
      </trkpt>
      <trkpt lat="48.55913" lon="-2.59629">
        <ele>9.1</ele>
        <time>2013-09-28T09:13:54Z</time>
      </trkpt>
      <trkpt lat="48.55904" lon="-2.59632">
        <ele>7.9</ele>
        <time>2013-09-28T09:14:02Z</time>
      </trkpt>
      <trkpt lat="48.55897" lon="-2.59639">
        <ele>11.5</ele>
        <time>2013-09-28T09:14:23Z</time>
      </trkpt>
      <trkpt lat="48.55896" lon="-2.59639">
        <ele>11.7</ele>
        <time>2013-09-28T09:14:24Z</time>
      </trkpt>
      <trkpt lat="48.55892" lon="-2.59661">
        <ele>15.5</ele>
        <time>2013-09-28T09:14:54Z</time>
      </trkpt>
      <trkpt lat="48.55891" lon="-2.59675">
        <ele>19.4</ele>
        <time>2013-09-28T09:15:09Z</time>
      </trkpt>
      <trkpt lat="48.5589" lon="-2.59688">
        <ele>20.8</ele>
        <time>2013-09-28T09:15:22Z</time>
      </trkpt>
      <trkpt lat="48.55883" lon="-2.59695">
        <ele>22.6</ele>
        <time>2013-09-28T09:15:33Z</time>
      </trkpt>
      <trkpt lat="48.55882" lon="-2.59696">
        <ele>22.6</ele>
        <time>2013-09-28T09:15:34Z</time>
      </trkpt>
      <trkpt lat="48.55868" lon="-2.59701">
        <ele>23.4</ele>
        <time>2013-09-28T09:15:50Z</time>
      </trkpt>
      <trkpt lat="48.55861" lon="-2.59695">
        <ele>25</ele>
        <time>2013-09-28T09:16:00Z</time>
      </trkpt>
      <trkpt lat="48.55852" lon="-2.59697">
        <ele>27.1</ele>
        <time>2013-09-28T09:16:14Z</time>
      </trkpt>
      <trkpt lat="48.55845" lon="-2.59704">
        <ele>29</ele>
        <time>2013-09-28T09:16:26Z</time>
      </trkpt>
      <trkpt lat="48.55838" lon="-2.59712">
        <ele>30.9</ele>
        <time>2013-09-28T09:16:38Z</time>
      </trkpt>
      <trkpt lat="48.55838" lon="-2.59713">
        <ele>31.3</ele>
        <time>2013-09-28T09:16:39Z</time>
      </trkpt>
      <trkpt lat="48.55825" lon="-2.5973">
        <ele>34.2</ele>
        <time>2013-09-28T09:17:02Z</time>
      </trkpt>
      <trkpt lat="48.55817" lon="-2.59729">
        <ele>37</ele>
        <time>2013-09-28T09:17:16Z</time>
      </trkpt>
      <trkpt lat="48.55811" lon="-2.59739">
        <ele>38.5</ele>
        <time>2013-09-28T09:17:32Z</time>
      </trkpt>
      <trkpt lat="48.55805" lon="-2.59747">
        <ele>39.5</ele>
        <time>2013-09-28T09:17:40Z</time>
      </trkpt>
      <trkpt lat="48.55804" lon="-2.59748">
        <ele>39.7</ele>
        <time>2013-09-28T09:17:41Z</time>
      </trkpt>
      <trkpt lat="48.55795" lon="-2.59769">
        <ele>40.7</ele>
        <time>2013-09-28T09:17:56Z</time>
      </trkpt>
      <trkpt lat="48.5579" lon="-2.59779">
        <ele>41.3</ele>
        <time>2013-09-28T09:18:04Z</time>
      </trkpt>
      <trkpt lat="48.55785" lon="-2.5979">
        <ele>41.5</ele>
        <time>2013-09-28T09:18:12Z</time>
      </trkpt>
      <trkpt lat="48.55779" lon="-2.59798">
        <ele>41.4</ele>
        <time>2013-09-28T09:18:21Z</time>
      </trkpt>
      <trkpt lat="48.55778" lon="-2.5981">
        <ele>41.2</ele>
        <time>2013-09-28T09:18:30Z</time>
      </trkpt>
      <trkpt lat="48.55774" lon="-2.59823">
        <ele>39.3</ele>
        <time>2013-09-28T09:18:52Z</time>
      </trkpt>
      <trkpt lat="48.55774" lon="-2.59823">
        <ele>39.1</ele>
        <time>2013-09-28T09:18:53Z</time>
      </trkpt>
      <trkpt lat="48.55765" lon="-2.59829">
        <ele>39.8</ele>
        <time>2013-09-28T09:29:41Z</time>
      </trkpt>
      <trkpt lat="48.5575" lon="-2.59832">
        <ele>39.5</ele>
        <time>2013-09-28T09:29:54Z</time>
      </trkpt>
      <trkpt lat="48.55742" lon="-2.59833">
        <ele>39.2</ele>
        <time>2013-09-28T09:30:01Z</time>
      </trkpt>
      <trkpt lat="48.55733" lon="-2.59835">
        <ele>38.6</ele>
        <time>2013-09-28T09:30:09Z</time>
      </trkpt>
      <trkpt lat="48.55726" lon="-2.59838">
        <ele>38.3</ele>
        <time>2013-09-28T09:30:17Z</time>
      </trkpt>
      <trkpt lat="48.55718" lon="-2.59843">
        <ele>37.2</ele>
        <time>2013-09-28T09:30:24Z</time>
      </trkpt>
      <trkpt lat="48.55713" lon="-2.59852">
        <ele>36.9</ele>
        <time>2013-09-28T09:30:30Z</time>
      </trkpt>
      <trkpt lat="48.55707" lon="-2.59863">
        <ele>36.1</ele>
        <time>2013-09-28T09:30:51Z</time>
      </trkpt>
      <trkpt lat="48.55707" lon="-2.59863">
        <ele>36.1</ele>
        <time>2013-09-28T09:30:52Z</time>
      </trkpt>
      <trkpt lat="48.55695" lon="-2.59882">
        <ele>35.8</ele>
        <time>2013-09-28T09:31:09Z</time>
      </trkpt>
      <trkpt lat="48.55688" lon="-2.59889">
        <ele>34.9</ele>
        <time>2013-09-28T09:31:17Z</time>
      </trkpt>
      <trkpt lat="48.5568" lon="-2.59893">
        <ele>34.3</ele>
        <time>2013-09-28T09:31:25Z</time>
      </trkpt>
      <trkpt lat="48.55673" lon="-2.599">
        <ele>33.6</ele>
        <time>2013-09-28T09:31:34Z</time>
      </trkpt>
      <trkpt lat="48.55666" lon="-2.59908">
        <ele>32.2</ele>
        <time>2013-09-28T09:31:43Z</time>
      </trkpt>
      <trkpt lat="48.55658" lon="-2.59911">
        <ele>27.5</ele>
        <time>2013-09-28T09:32:03Z</time>
      </trkpt>
      <trkpt lat="48.55657" lon="-2.59912">
        <ele>27.6</ele>
        <time>2013-09-28T09:32:04Z</time>
      </trkpt>
      <trkpt lat="48.55641" lon="-2.59917">
        <ele>24.6</ele>
        <time>2013-09-28T09:32:20Z</time>
      </trkpt>
      <trkpt lat="48.55633" lon="-2.5992">
        <ele>25</ele>
        <time>2013-09-28T09:32:27Z</time>
      </trkpt>
      <trkpt lat="48.55625" lon="-2.59922">
        <ele>24.7</ele>
        <time>2013-09-28T09:32:34Z</time>
      </trkpt>
      <trkpt lat="48.55616" lon="-2.5992">
        <ele>25.4</ele>
        <time>2013-09-28T09:32:44Z</time>
      </trkpt>
      <trkpt lat="48.55608" lon="-2.59917">
        <ele>27.9</ele>
        <time>2013-09-28T09:32:58Z</time>
      </trkpt>
      <trkpt lat="48.556" lon="-2.59913">
        <ele>30.8</ele>
        <time>2013-09-28T09:33:15Z</time>
      </trkpt>
      <trkpt lat="48.55599" lon="-2.59912">
        <ele>31.3</ele>
        <time>2013-09-28T09:33:16Z</time>
      </trkpt>
      <trkpt lat="48.55584" lon="-2.59916">
        <ele>33.1</ele>
        <time>2013-09-28T09:33:32Z</time>
      </trkpt>
      <trkpt lat="48.55575" lon="-2.59915">
        <ele>33.9</ele>
        <time>2013-09-28T09:33:40Z</time>
      </trkpt>
      <trkpt lat="48.55567" lon="-2.59919">
        <ele>35.9</ele>
        <time>2013-09-28T09:34:01Z</time>
      </trkpt>
      <trkpt lat="48.55561" lon="-2.59928">
        <ele>36</ele>
        <time>2013-09-28T09:34:09Z</time>
      </trkpt>
      <trkpt lat="48.55554" lon="-2.59938">
        <ele>35.1</ele>
        <time>2013-09-28T09:34:18Z</time>
      </trkpt>
      <trkpt lat="48.55554" lon="-2.59939">
        <ele>35.3</ele>
        <time>2013-09-28T09:34:19Z</time>
      </trkpt>
      <trkpt lat="48.55547" lon="-2.59958">
        <ele>34.1</ele>
        <time>2013-09-28T09:34:33Z</time>
      </trkpt>
      <trkpt lat="48.5554" lon="-2.59965">
        <ele>33.9</ele>
        <time>2013-09-28T09:34:40Z</time>
      </trkpt>
      <trkpt lat="48.55532" lon="-2.59969">
        <ele>32.9</ele>
        <time>2013-09-28T09:34:48Z</time>
      </trkpt>
      <trkpt lat="48.55524" lon="-2.59974">
        <ele>33.8</ele>
        <time>2013-09-28T09:34:56Z</time>
      </trkpt>
      <trkpt lat="48.55517" lon="-2.59979">
        <ele>34</ele>
        <time>2013-09-28T09:35:03Z</time>
      </trkpt>
      <trkpt lat="48.5551" lon="-2.59985">
        <ele>35</ele>
        <time>2013-09-28T09:35:10Z</time>
      </trkpt>
      <trkpt lat="48.55502" lon="-2.59992">
        <ele>36.1</ele>
        <time>2013-09-28T09:35:18Z</time>
      </trkpt>
      <trkpt lat="48.55495" lon="-2.59999">
        <ele>36.6</ele>
        <time>2013-09-28T09:35:26Z</time>
      </trkpt>
      <trkpt lat="48.55494" lon="-2.6">
        <ele>36.4</ele>
        <time>2013-09-28T09:35:27Z</time>
      </trkpt>
      <trkpt lat="48.55485" lon="-2.60019">
        <ele>36.6</ele>
        <time>2013-09-28T09:35:40Z</time>
      </trkpt>
      <trkpt lat="48.55481" lon="-2.60031">
        <ele>35.6</ele>
        <time>2013-09-28T09:35:47Z</time>
      </trkpt>
      <trkpt lat="48.55475" lon="-2.60041">
        <ele>37</ele>
        <time>2013-09-28T09:35:55Z</time>
      </trkpt>
      <trkpt lat="48.5547" lon="-2.60052">
        <ele>36.1</ele>
        <time>2013-09-28T09:36:03Z</time>
      </trkpt>
      <trkpt lat="48.55465" lon="-2.60063">
        <ele>34.6</ele>
        <time>2013-09-28T09:36:13Z</time>
      </trkpt>
      <trkpt lat="48.55457" lon="-2.60068">
        <ele>33.2</ele>
        <time>2013-09-28T09:36:23Z</time>
      </trkpt>
      <trkpt lat="48.55449" lon="-2.6007">
        <ele>31.8</ele>
        <time>2013-09-28T09:36:31Z</time>
      </trkpt>
      <trkpt lat="48.55448" lon="-2.6007">
        <ele>31.6</ele>
        <time>2013-09-28T09:36:32Z</time>
      </trkpt>
      <trkpt lat="48.55433" lon="-2.60079">
        <ele>30.3</ele>
        <time>2013-09-28T09:36:45Z</time>
      </trkpt>
      <trkpt lat="48.55424" lon="-2.60082">
        <ele>28.9</ele>
        <time>2013-09-28T09:36:53Z</time>
      </trkpt>
      <trkpt lat="48.55418" lon="-2.6009">
        <ele>29.5</ele>
        <time>2013-09-28T09:37:03Z</time>
      </trkpt>
      <trkpt lat="48.55409" lon="-2.60092">
        <ele>27.4</ele>
        <time>2013-09-28T09:37:13Z</time>
      </trkpt>
      <trkpt lat="48.55401" lon="-2.60098">
        <ele>26.4</ele>
        <time>2013-09-28T09:37:20Z</time>
      </trkpt>
      <trkpt lat="48.55394" lon="-2.60105">
        <ele>26</ele>
        <time>2013-09-28T09:37:27Z</time>
      </trkpt>
      <trkpt lat="48.55387" lon="-2.60112">
        <ele>27.5</ele>
        <time>2013-09-28T09:37:37Z</time>
      </trkpt>
      <trkpt lat="48.55387" lon="-2.60113">
        <ele>27.3</ele>
        <time>2013-09-28T09:37:38Z</time>
      </trkpt>
      <trkpt lat="48.55373" lon="-2.60125">
        <ele>32.7</ele>
        <time>2013-09-28T09:38:07Z</time>
      </trkpt>
      <trkpt lat="48.55364" lon="-2.60128">
        <ele>35</ele>
        <time>2013-09-28T09:38:18Z</time>
      </trkpt>
      <trkpt lat="48.55358" lon="-2.60137">
        <ele>35.8</ele>
        <time>2013-09-28T09:38:26Z</time>
      </trkpt>
      <trkpt lat="48.55354" lon="-2.60148">
        <ele>36.7</ele>
        <time>2013-09-28T09:38:33Z</time>
      </trkpt>
      <trkpt lat="48.5535" lon="-2.60159">
        <ele>35.9</ele>
        <time>2013-09-28T09:38:40Z</time>
      </trkpt>
      <trkpt lat="48.55349" lon="-2.60161">
        <ele>35.7</ele>
        <time>2013-09-28T09:38:41Z</time>
      </trkpt>
      <trkpt lat="48.55343" lon="-2.60181">
        <ele>35.3</ele>
        <time>2013-09-28T09:38:54Z</time>
      </trkpt>
      <trkpt lat="48.55336" lon="-2.6019">
        <ele>36.1</ele>
        <time>2013-09-28T09:39:01Z</time>
      </trkpt>
      <trkpt lat="48.55333" lon="-2.60201">
        <ele>35.4</ele>
        <time>2013-09-28T09:39:09Z</time>
      </trkpt>
      <trkpt lat="48.55332" lon="-2.60213">
        <ele>34.3</ele>
        <time>2013-09-28T09:39:17Z</time>
      </trkpt>
      <trkpt lat="48.55329" lon="-2.60225">
        <ele>33.2</ele>
        <time>2013-09-28T09:39:25Z</time>
      </trkpt>
      <trkpt lat="48.55327" lon="-2.60238">
        <ele>32.7</ele>
        <time>2013-09-28T09:39:32Z</time>
      </trkpt>
      <trkpt lat="48.55324" lon="-2.6025">
        <ele>31.8</ele>
        <time>2013-09-28T09:39:39Z</time>
      </trkpt>
      <trkpt lat="48.55322" lon="-2.60263">
        <ele>32</ele>
        <time>2013-09-28T09:39:46Z</time>
      </trkpt>
      <trkpt lat="48.55322" lon="-2.60265">
        <ele>32</ele>
        <time>2013-09-28T09:39:47Z</time>
      </trkpt>
      <trkpt lat="48.5532" lon="-2.60288">
        <ele>31.5</ele>
        <time>2013-09-28T09:40:00Z</time>
      </trkpt>
      <trkpt lat="48.55318" lon="-2.60299">
        <ele>30.6</ele>
        <time>2013-09-28T09:40:07Z</time>
      </trkpt>
      <trkpt lat="48.55314" lon="-2.6031">
        <ele>31.6</ele>
        <time>2013-09-28T09:40:14Z</time>
      </trkpt>
      <trkpt lat="48.55309" lon="-2.6032">
        <ele>32.5</ele>
        <time>2013-09-28T09:40:21Z</time>
      </trkpt>
      <trkpt lat="48.55304" lon="-2.60331">
        <ele>31.9</ele>
        <time>2013-09-28T09:40:29Z</time>
      </trkpt>
      <trkpt lat="48.55301" lon="-2.60344">
        <ele>31</ele>
        <time>2013-09-28T09:40:37Z</time>
      </trkpt>
      <trkpt lat="48.55299" lon="-2.60356">
        <ele>30.9</ele>
        <time>2013-09-28T09:40:45Z</time>
      </trkpt>
      <trkpt lat="48.55298" lon="-2.60369">
        <ele>31</ele>
        <time>2013-09-28T09:40:53Z</time>
      </trkpt>
      <trkpt lat="48.55299" lon="-2.6037">
        <ele>31</ele>
        <time>2013-09-28T09:40:54Z</time>
      </trkpt>
      <trkpt lat="48.55301" lon="-2.60394">
        <ele>27.7</ele>
        <time>2013-09-28T09:41:10Z</time>
      </trkpt>
      <trkpt lat="48.55297" lon="-2.60406">
        <ele>27.9</ele>
        <time>2013-09-28T09:41:17Z</time>
      </trkpt>
      <trkpt lat="48.55291" lon="-2.60414">
        <ele>25.3</ele>
        <time>2013-09-28T09:41:24Z</time>
      </trkpt>
      <trkpt lat="48.55283" lon="-2.60417">
        <ele>27</ele>
        <time>2013-09-28T09:41:32Z</time>
      </trkpt>
      <trkpt lat="48.55275" lon="-2.60422">
        <ele>27.6</ele>
        <time>2013-09-28T09:41:41Z</time>
      </trkpt>
      <trkpt lat="48.55267" lon="-2.60427">
        <ele>29</ele>
        <time>2013-09-28T09:41:50Z</time>
      </trkpt>
      <trkpt lat="48.55261" lon="-2.60435">
        <ele>29.9</ele>
        <time>2013-09-28T09:42:01Z</time>
      </trkpt>
      <trkpt lat="48.5526" lon="-2.60436">
        <ele>30</ele>
        <time>2013-09-28T09:42:02Z</time>
      </trkpt>
      <trkpt lat="48.55247" lon="-2.60449">
        <ele>29.4</ele>
        <time>2013-09-28T09:42:21Z</time>
      </trkpt>
      <trkpt lat="48.55239" lon="-2.60453">
        <ele>29.2</ele>
        <time>2013-09-28T09:42:32Z</time>
      </trkpt>
      <trkpt lat="48.5523" lon="-2.60453">
        <ele>28.3</ele>
        <time>2013-09-28T09:42:41Z</time>
      </trkpt>
      <trkpt lat="48.55223" lon="-2.60458">
        <ele>27.5</ele>
        <time>2013-09-28T09:42:49Z</time>
      </trkpt>
      <trkpt lat="48.55215" lon="-2.60464">
        <ele>27.5</ele>
        <time>2013-09-28T09:42:57Z</time>
      </trkpt>
      <trkpt lat="48.5521" lon="-2.60474">
        <ele>28</ele>
        <time>2013-09-28T09:43:06Z</time>
      </trkpt>
      <trkpt lat="48.5521" lon="-2.60476">
        <ele>27.9</ele>
        <time>2013-09-28T09:43:07Z</time>
      </trkpt>
      <trkpt lat="48.55201" lon="-2.60497">
        <ele>27.1</ele>
        <time>2013-09-28T09:43:23Z</time>
      </trkpt>
      <trkpt lat="48.55199" lon="-2.60509">
        <ele>26</ele>
        <time>2013-09-28T09:43:33Z</time>
      </trkpt>
      <trkpt lat="48.55195" lon="-2.6052">
        <ele>25.1</ele>
        <time>2013-09-28T09:43:42Z</time>
      </trkpt>
      <trkpt lat="48.55187" lon="-2.60525">
        <ele>24.7</ele>
        <time>2013-09-28T09:43:53Z</time>
      </trkpt>
      <trkpt lat="48.55179" lon="-2.60527">
        <ele>23.6</ele>
        <time>2013-09-28T09:44:01Z</time>
      </trkpt>
      <trkpt lat="48.5517" lon="-2.60527">
        <ele>24.2</ele>
        <time>2013-09-28T09:44:09Z</time>
      </trkpt>
      <trkpt lat="48.55169" lon="-2.60527">
        <ele>24.4</ele>
        <time>2013-09-28T09:44:10Z</time>
      </trkpt>
      <trkpt lat="48.55153" lon="-2.60531">
        <ele>25.5</ele>
        <time>2013-09-28T09:44:27Z</time>
      </trkpt>
      <trkpt lat="48.55144" lon="-2.60527">
        <ele>25.1</ele>
        <time>2013-09-28T09:44:36Z</time>
      </trkpt>
      <trkpt lat="48.55138" lon="-2.6052">
        <ele>26.4</ele>
        <time>2013-09-28T09:44:48Z</time>
      </trkpt>
      <trkpt lat="48.5513" lon="-2.60513">
        <ele>28.7</ele>
        <time>2013-09-28T09:44:59Z</time>
      </trkpt>
      <trkpt lat="48.55125" lon="-2.60502">
        <ele>29.6</ele>
        <time>2013-09-28T09:45:10Z</time>
      </trkpt>
      <trkpt lat="48.55125" lon="-2.60501">
        <ele>29.5</ele>
        <time>2013-09-28T09:45:11Z</time>
      </trkpt>
      <trkpt lat="48.55115" lon="-2.60482">
        <ele>29.6</ele>
        <time>2013-09-28T09:45:28Z</time>
      </trkpt>
      <trkpt lat="48.5511" lon="-2.6047">
        <ele>27.8</ele>
        <time>2013-09-28T09:45:37Z</time>
      </trkpt>
      <trkpt lat="48.55107" lon="-2.60458">
        <ele>25.8</ele>
        <time>2013-09-28T09:45:47Z</time>
      </trkpt>
      <trkpt lat="48.55105" lon="-2.60445">
        <ele>24.2</ele>
        <time>2013-09-28T09:45:54Z</time>
      </trkpt>
      <trkpt lat="48.55104" lon="-2.60432">
        <ele>24</ele>
        <time>2013-09-28T09:46:02Z</time>
      </trkpt>
      <trkpt lat="48.55104" lon="-2.60419">
        <ele>25.6</ele>
        <time>2013-09-28T09:46:14Z</time>
      </trkpt>
      <trkpt lat="48.55104" lon="-2.60418">
        <ele>25.7</ele>
        <time>2013-09-28T09:46:15Z</time>
      </trkpt>
      <trkpt lat="48.55102" lon="-2.60393">
        <ele>29.6</ele>
        <time>2013-09-28T09:46:40Z</time>
      </trkpt>
      <trkpt lat="48.55099" lon="-2.60381">
        <ele>29.2</ele>
        <time>2013-09-28T09:46:50Z</time>
      </trkpt>
      <trkpt lat="48.55095" lon="-2.60369">
        <ele>27.8</ele>
        <time>2013-09-28T09:46:59Z</time>
      </trkpt>
      <trkpt lat="48.5509" lon="-2.6036">
        <ele>25.8</ele>
        <time>2013-09-28T09:47:08Z</time>
      </trkpt>
      <trkpt lat="48.55088" lon="-2.60347">
        <ele>24.2</ele>
        <time>2013-09-28T09:47:16Z</time>
      </trkpt>
      <trkpt lat="48.55088" lon="-2.60346">
        <ele>24.2</ele>
        <time>2013-09-28T09:47:17Z</time>
      </trkpt>
      <trkpt lat="48.5508" lon="-2.60332">
        <ele>21.6</ele>
        <time>2013-09-28T09:47:39Z</time>
      </trkpt>
      <trkpt lat="48.55075" lon="-2.60344">
        <ele>19.4</ele>
        <time>2013-09-28T09:47:48Z</time>
      </trkpt>
      <trkpt lat="48.55072" lon="-2.60356">
        <ele>18.2</ele>
        <time>2013-09-28T09:47:58Z</time>
      </trkpt>
      <trkpt lat="48.5507" lon="-2.60369">
        <ele>16.4</ele>
        <time>2013-09-28T09:48:08Z</time>
      </trkpt>
      <trkpt lat="48.55067" lon="-2.60382">
        <ele>15.2</ele>
        <time>2013-09-28T09:48:17Z</time>
      </trkpt>
      <trkpt lat="48.55067" lon="-2.60383">
        <ele>15.1</ele>
        <time>2013-09-28T09:48:18Z</time>
      </trkpt>
      <trkpt lat="48.55057" lon="-2.60402">
        <ele>13</ele>
        <time>2013-09-28T09:48:33Z</time>
      </trkpt>
      <trkpt lat="48.5505" lon="-2.6041">
        <ele>11.3</ele>
        <time>2013-09-28T09:48:42Z</time>
      </trkpt>
      <trkpt lat="48.55044" lon="-2.60419">
        <ele>12.1</ele>
        <time>2013-09-28T09:48:51Z</time>
      </trkpt>
      <trkpt lat="48.55037" lon="-2.60427">
        <ele>10.9</ele>
        <time>2013-09-28T09:49:00Z</time>
      </trkpt>
      <trkpt lat="48.55031" lon="-2.60434">
        <ele>10.4</ele>
        <time>2013-09-28T09:49:07Z</time>
      </trkpt>
      <trkpt lat="48.55024" lon="-2.60441">
        <ele>10.8</ele>
        <time>2013-09-28T09:49:35Z</time>
      </trkpt>
      <trkpt lat="48.55023" lon="-2.60441">
        <ele>11</ele>
        <time>2013-09-28T09:49:36Z</time>
      </trkpt>
      <trkpt lat="48.55019" lon="-2.60452">
        <ele>12.8</ele>
        <time>2013-09-28T09:50:44Z</time>
      </trkpt>
      <trkpt lat="48.5503" lon="-2.60469">
        <ele>14.1</ele>
        <time>2013-09-28T09:50:56Z</time>
      </trkpt>
      <trkpt lat="48.55035" lon="-2.60478">
        <ele>13.5</ele>
        <time>2013-09-28T09:51:02Z</time>
      </trkpt>
      <trkpt lat="48.55037" lon="-2.60491">
        <ele>13.5</ele>
        <time>2013-09-28T09:51:09Z</time>
      </trkpt>
      <trkpt lat="48.55039" lon="-2.60504">
        <ele>13.8</ele>
        <time>2013-09-28T09:51:18Z</time>
      </trkpt>
      <trkpt lat="48.55039" lon="-2.60517">
        <ele>14.3</ele>
        <time>2013-09-28T09:51:28Z</time>
      </trkpt>
      <trkpt lat="48.55039" lon="-2.6053">
        <ele>15.8</ele>
        <time>2013-09-28T09:51:36Z</time>
      </trkpt>
      <trkpt lat="48.5504" lon="-2.60542">
        <ele>16.4</ele>
        <time>2013-09-28T09:51:43Z</time>
      </trkpt>
      <trkpt lat="48.55041" lon="-2.60555">
        <ele>16.6</ele>
        <time>2013-09-28T09:51:51Z</time>
      </trkpt>
      <trkpt lat="48.55041" lon="-2.60556">
        <ele>16.8</ele>
        <time>2013-09-28T09:51:52Z</time>
      </trkpt>
      <trkpt lat="48.55044" lon="-2.60579">
        <ele>17.9</ele>
        <time>2013-09-28T09:52:07Z</time>
      </trkpt>
      <trkpt lat="48.55045" lon="-2.60591">
        <ele>18.9</ele>
        <time>2013-09-28T09:52:15Z</time>
      </trkpt>
      <trkpt lat="48.55048" lon="-2.60603">
        <ele>17.7</ele>
        <time>2013-09-28T09:52:22Z</time>
      </trkpt>
      <trkpt lat="48.5505" lon="-2.60615">
        <ele>17.2</ele>
        <time>2013-09-28T09:52:28Z</time>
      </trkpt>
      <trkpt lat="48.55053" lon="-2.60627">
        <ele>16.8</ele>
        <time>2013-09-28T09:52:35Z</time>
      </trkpt>
      <trkpt lat="48.55054" lon="-2.6064">
        <ele>17.6</ele>
        <time>2013-09-28T09:52:44Z</time>
      </trkpt>
      <trkpt lat="48.55056" lon="-2.60652">
        <ele>18.8</ele>
        <time>2013-09-28T09:52:52Z</time>
      </trkpt>
      <trkpt lat="48.55056" lon="-2.60653">
        <ele>18.7</ele>
        <time>2013-09-28T09:52:53Z</time>
      </trkpt>
      <trkpt lat="48.55061" lon="-2.60677">
        <ele>21.8</ele>
        <time>2013-09-28T09:53:11Z</time>
      </trkpt>
      <trkpt lat="48.55061" lon="-2.60689">
        <ele>23.3</ele>
        <time>2013-09-28T09:53:22Z</time>
      </trkpt>
      <trkpt lat="48.55058" lon="-2.60702">
        <ele>24.9</ele>
        <time>2013-09-28T09:53:32Z</time>
      </trkpt>
      <trkpt lat="48.55057" lon="-2.60714">
        <ele>25.5</ele>
        <time>2013-09-28T09:53:39Z</time>
      </trkpt>
      <trkpt lat="48.55053" lon="-2.60725">
        <ele>25.8</ele>
        <time>2013-09-28T09:53:46Z</time>
      </trkpt>
      <trkpt lat="48.55048" lon="-2.60734">
        <ele>27.1</ele>
        <time>2013-09-28T09:53:54Z</time>
      </trkpt>
      <trkpt lat="48.55047" lon="-2.60735">
        <ele>27.6</ele>
        <time>2013-09-28T09:53:55Z</time>
      </trkpt>
      <trkpt lat="48.55037" lon="-2.60753">
        <ele>29.4</ele>
        <time>2013-09-28T09:54:10Z</time>
      </trkpt>
      <trkpt lat="48.55033" lon="-2.60764">
        <ele>29.4</ele>
        <time>2013-09-28T09:54:17Z</time>
      </trkpt>
      <trkpt lat="48.55029" lon="-2.60775">
        <ele>30</ele>
        <time>2013-09-28T09:54:24Z</time>
      </trkpt>
      <trkpt lat="48.55025" lon="-2.60786">
        <ele>30.7</ele>
        <time>2013-09-28T09:54:31Z</time>
      </trkpt>
      <trkpt lat="48.55022" lon="-2.60797">
        <ele>30.3</ele>
        <time>2013-09-28T09:54:38Z</time>
      </trkpt>
      <trkpt lat="48.55019" lon="-2.6081">
        <ele>30.7</ele>
        <time>2013-09-28T09:54:45Z</time>
      </trkpt>
      <trkpt lat="48.55015" lon="-2.6082">
        <ele>29.8</ele>
        <time>2013-09-28T09:54:52Z</time>
      </trkpt>
      <trkpt lat="48.55011" lon="-2.60833">
        <ele>30</ele>
        <time>2013-09-28T09:55:00Z</time>
      </trkpt>
      <trkpt lat="48.5501" lon="-2.60834">
        <ele>30.3</ele>
        <time>2013-09-28T09:55:01Z</time>
      </trkpt>
      <trkpt lat="48.55004" lon="-2.60853">
        <ele>31</ele>
        <time>2013-09-28T09:55:12Z</time>
      </trkpt>
      <trkpt lat="48.54996" lon="-2.6086">
        <ele>31.2</ele>
        <time>2013-09-28T09:55:21Z</time>
      </trkpt>
      <trkpt lat="48.54988" lon="-2.60865">
        <ele>31.5</ele>
        <time>2013-09-28T09:55:29Z</time>
      </trkpt>
      <trkpt lat="48.54982" lon="-2.60874">
        <ele>32.1</ele>
        <time>2013-09-28T09:55:36Z</time>
      </trkpt>
      <trkpt lat="48.54977" lon="-2.60883">
        <ele>32.1</ele>
        <time>2013-09-28T09:55:43Z</time>
      </trkpt>
      <trkpt lat="48.54975" lon="-2.60896">
        <ele>33</ele>
        <time>2013-09-28T09:55:50Z</time>
      </trkpt>
      <trkpt lat="48.54974" lon="-2.60909">
        <ele>31.8</ele>
        <time>2013-09-28T09:55:57Z</time>
      </trkpt>
      <trkpt lat="48.54973" lon="-2.60922">
        <ele>31.2</ele>
        <time>2013-09-28T09:56:06Z</time>
      </trkpt>
      <trkpt lat="48.54973" lon="-2.60924">
        <ele>30.9</ele>
        <time>2013-09-28T09:56:07Z</time>
      </trkpt>
      <trkpt lat="48.54975" lon="-2.60947">
        <ele>27.8</ele>
        <time>2013-09-28T09:56:20Z</time>
      </trkpt>
      <trkpt lat="48.54981" lon="-2.60955">
        <ele>28.1</ele>
        <time>2013-09-28T09:56:27Z</time>
      </trkpt>
      <trkpt lat="48.54989" lon="-2.6096">
        <ele>26</ele>
        <time>2013-09-28T09:56:33Z</time>
      </trkpt>
      <trkpt lat="48.54996" lon="-2.60969">
        <ele>25.4</ele>
        <time>2013-09-28T09:56:41Z</time>
      </trkpt>
      <trkpt lat="48.55002" lon="-2.60979">
        <ele>25.1</ele>
        <time>2013-09-28T09:56:48Z</time>
      </trkpt>
      <trkpt lat="48.55001" lon="-2.60992">
        <ele>24.2</ele>
        <time>2013-09-28T09:57:11Z</time>
      </trkpt>
      <trkpt lat="48.55" lon="-2.60993">
        <ele>24.2</ele>
        <time>2013-09-28T09:57:12Z</time>
      </trkpt>
      <trkpt lat="48.54985" lon="-2.61004">
        <ele>24.7</ele>
        <time>2013-09-28T09:57:28Z</time>
      </trkpt>
      <trkpt lat="48.5498" lon="-2.61014">
        <ele>24.7</ele>
        <time>2013-09-28T09:57:35Z</time>
      </trkpt>
      <trkpt lat="48.54974" lon="-2.61023">
        <ele>25.2</ele>
        <time>2013-09-28T09:57:42Z</time>
      </trkpt>
      <trkpt lat="48.54968" lon="-2.61031">
        <ele>25.1</ele>
        <time>2013-09-28T09:57:49Z</time>
      </trkpt>
      <trkpt lat="48.5496" lon="-2.61037">
        <ele>25.4</ele>
        <time>2013-09-28T09:57:56Z</time>
      </trkpt>
      <trkpt lat="48.54952" lon="-2.6104">
        <ele>24.2</ele>
        <time>2013-09-28T09:58:03Z</time>
      </trkpt>
      <trkpt lat="48.54944" lon="-2.61042">
        <ele>25.6</ele>
        <time>2013-09-28T09:58:11Z</time>
      </trkpt>
      <trkpt lat="48.54935" lon="-2.61046">
        <ele>26.3</ele>
        <time>2013-09-28T09:58:20Z</time>
      </trkpt>
      <trkpt lat="48.54934" lon="-2.61046">
        <ele>26.4</ele>
        <time>2013-09-28T09:58:21Z</time>
      </trkpt>
      <trkpt lat="48.54918" lon="-2.61053">
        <ele>26.8</ele>
        <time>2013-09-28T09:58:35Z</time>
      </trkpt>
      <trkpt lat="48.5491" lon="-2.61053">
        <ele>26.8</ele>
        <time>2013-09-28T09:58:41Z</time>
      </trkpt>
      <trkpt lat="48.54903" lon="-2.61055">
        <ele>27.3</ele>
        <time>2013-09-28T09:58:48Z</time>
      </trkpt>
      <trkpt lat="48.54895" lon="-2.61056">
        <ele>27.8</ele>
        <time>2013-09-28T09:58:54Z</time>
      </trkpt>
      <trkpt lat="48.54886" lon="-2.61057">
        <ele>27.1</ele>
        <time>2013-09-28T09:59:00Z</time>
      </trkpt>
      <trkpt lat="48.54878" lon="-2.61058">
        <ele>27.8</ele>
        <time>2013-09-28T09:59:06Z</time>
      </trkpt>
      <trkpt lat="48.54869" lon="-2.61058">
        <ele>28</ele>
        <time>2013-09-28T09:59:13Z</time>
      </trkpt>
      <trkpt lat="48.54861" lon="-2.61058">
        <ele>28.8</ele>
        <time>2013-09-28T09:59:22Z</time>
      </trkpt>
      <trkpt lat="48.5486" lon="-2.61058">
        <ele>28.9</ele>
        <time>2013-09-28T09:59:23Z</time>
      </trkpt>
      <trkpt lat="48.54849" lon="-2.61075">
        <ele>28.9</ele>
        <time>2013-09-28T09:59:38Z</time>
      </trkpt>
      <trkpt lat="48.54844" lon="-2.61084">
        <ele>28.7</ele>
        <time>2013-09-28T09:59:45Z</time>
      </trkpt>
      <trkpt lat="48.54838" lon="-2.61092">
        <ele>28.5</ele>
        <time>2013-09-28T09:59:52Z</time>
      </trkpt>
      <trkpt lat="48.54831" lon="-2.611">
        <ele>30.4</ele>
        <time>2013-09-28T10:00:00Z</time>
      </trkpt>
      <trkpt lat="48.54825" lon="-2.6111">
        <ele>31.1</ele>
        <time>2013-09-28T10:00:08Z</time>
      </trkpt>
      <trkpt lat="48.54823" lon="-2.61122">
        <ele>30.4</ele>
        <time>2013-09-28T10:00:16Z</time>
      </trkpt>
      <trkpt lat="48.54822" lon="-2.61135">
        <ele>28.3</ele>
        <time>2013-09-28T10:00:23Z</time>
      </trkpt>
      <trkpt lat="48.54822" lon="-2.61137">
        <ele>27.9</ele>
        <time>2013-09-28T10:00:24Z</time>
      </trkpt>
      <trkpt lat="48.54822" lon="-2.61161">
        <ele>29.1</ele>
        <time>2013-09-28T10:00:37Z</time>
      </trkpt>
      <trkpt lat="48.54822" lon="-2.61174">
        <ele>29.1</ele>
        <time>2013-09-28T10:00:45Z</time>
      </trkpt>
      <trkpt lat="48.54819" lon="-2.61186">
        <ele>30.1</ele>
        <time>2013-09-28T10:00:55Z</time>
      </trkpt>
      <trkpt lat="48.54815" lon="-2.61197">
        <ele>31.4</ele>
        <time>2013-09-28T10:01:06Z</time>
      </trkpt>
      <trkpt lat="48.54807" lon="-2.61204">
        <ele>33.4</ele>
        <time>2013-09-28T10:01:24Z</time>
      </trkpt>
      <trkpt lat="48.54807" lon="-2.61204">
        <ele>33.6</ele>
        <time>2013-09-28T10:01:25Z</time>
      </trkpt>
      <trkpt lat="48.54794" lon="-2.61218">
        <ele>33.5</ele>
        <time>2013-09-28T10:01:44Z</time>
      </trkpt>
      <trkpt lat="48.54787" lon="-2.61226">
        <ele>33.1</ele>
        <time>2013-09-28T10:01:52Z</time>
      </trkpt>
      <trkpt lat="48.54781" lon="-2.61236">
        <ele>32.4</ele>
        <time>2013-09-28T10:01:59Z</time>
      </trkpt>
      <trkpt lat="48.54774" lon="-2.61242">
        <ele>31.5</ele>
        <time>2013-09-28T10:02:06Z</time>
      </trkpt>
      <trkpt lat="48.54766" lon="-2.61247">
        <ele>31.7</ele>
        <time>2013-09-28T10:02:14Z</time>
      </trkpt>
      <trkpt lat="48.54759" lon="-2.61255">
        <ele>32</ele>
        <time>2013-09-28T10:02:21Z</time>
      </trkpt>
      <trkpt lat="48.54754" lon="-2.61266">
        <ele>30.8</ele>
        <time>2013-09-28T10:02:29Z</time>
      </trkpt>
      <trkpt lat="48.54753" lon="-2.61267">
        <ele>30.9</ele>
        <time>2013-09-28T10:02:30Z</time>
      </trkpt>
      <trkpt lat="48.54742" lon="-2.61284">
        <ele>27.8</ele>
        <time>2013-09-28T10:02:45Z</time>
      </trkpt>
      <trkpt lat="48.54734" lon="-2.61287">
        <ele>27.9</ele>
        <time>2013-09-28T10:02:52Z</time>
      </trkpt>
      <trkpt lat="48.54727" lon="-2.61294">
        <ele>26.9</ele>
        <time>2013-09-28T10:03:00Z</time>
      </trkpt>
      <trkpt lat="48.54725" lon="-2.61305">
        <ele>23.9</ele>
        <time>2013-09-28T10:03:08Z</time>
      </trkpt>
      <trkpt lat="48.54725" lon="-2.61318">
        <ele>24.1</ele>
        <time>2013-09-28T10:03:15Z</time>
      </trkpt>
      <trkpt lat="48.54721" lon="-2.61329">
        <ele>23.5</ele>
        <time>2013-09-28T10:03:22Z</time>
      </trkpt>
      <trkpt lat="48.54721" lon="-2.61342">
        <ele>23.6</ele>
        <time>2013-09-28T10:03:30Z</time>
      </trkpt>
      <trkpt lat="48.54721" lon="-2.61343">
        <ele>24</ele>
        <time>2013-09-28T10:03:31Z</time>
      </trkpt>
      <trkpt lat="48.54705" lon="-2.61343">
        <ele>25.9</ele>
        <time>2013-09-28T10:03:50Z</time>
      </trkpt>
      <trkpt lat="48.54697" lon="-2.61345">
        <ele>27.6</ele>
        <time>2013-09-28T10:03:58Z</time>
      </trkpt>
      <trkpt lat="48.5469" lon="-2.61354">
        <ele>26.1</ele>
        <time>2013-09-28T10:04:12Z</time>
      </trkpt>
      <trkpt lat="48.54686" lon="-2.61366">
        <ele>27.2</ele>
        <time>2013-09-28T10:04:23Z</time>
      </trkpt>
      <trkpt lat="48.54678" lon="-2.61371">
        <ele>26.2</ele>
        <time>2013-09-28T10:04:34Z</time>
      </trkpt>
      <trkpt lat="48.54677" lon="-2.61371">
        <ele>26.1</ele>
        <time>2013-09-28T10:04:35Z</time>
      </trkpt>
      <trkpt lat="48.54661" lon="-2.61371">
        <ele>26.6</ele>
        <time>2013-09-28T10:04:50Z</time>
      </trkpt>
      <trkpt lat="48.54653" lon="-2.61372">
        <ele>27.3</ele>
        <time>2013-09-28T10:04:59Z</time>
      </trkpt>
      <trkpt lat="48.54646" lon="-2.61379">
        <ele>26.9</ele>
        <time>2013-09-28T10:05:06Z</time>
      </trkpt>
      <trkpt lat="48.54639" lon="-2.61388">
        <ele>27.6</ele>
        <time>2013-09-28T10:05:15Z</time>
      </trkpt>
      <trkpt lat="48.54631" lon="-2.61394">
        <ele>29.4</ele>
        <time>2013-09-28T10:05:26Z</time>
      </trkpt>
      <trkpt lat="48.54624" lon="-2.61402">
        <ele>31.9</ele>
        <time>2013-09-28T10:05:36Z</time>
      </trkpt>
      <trkpt lat="48.54624" lon="-2.61403">
        <ele>31.9</ele>
        <time>2013-09-28T10:05:37Z</time>
      </trkpt>
      <trkpt lat="48.54618" lon="-2.61425">
        <ele>32.1</ele>
        <time>2013-09-28T10:05:51Z</time>
      </trkpt>
      <trkpt lat="48.54616" lon="-2.61437">
        <ele>32.3</ele>
        <time>2013-09-28T10:05:58Z</time>
      </trkpt>
      <trkpt lat="48.54615" lon="-2.6145">
        <ele>31</ele>
        <time>2013-09-28T10:06:05Z</time>
      </trkpt>
      <trkpt lat="48.54616" lon="-2.61462">
        <ele>31.5</ele>
        <time>2013-09-28T10:06:11Z</time>
      </trkpt>
      <trkpt lat="48.54616" lon="-2.61474">
        <ele>30.1</ele>
        <time>2013-09-28T10:06:17Z</time>
      </trkpt>
      <trkpt lat="48.54614" lon="-2.61487">
        <ele>29.4</ele>
        <time>2013-09-28T10:06:24Z</time>
      </trkpt>
      <trkpt lat="48.54611" lon="-2.61497">
        <ele>30</ele>
        <time>2013-09-28T10:06:30Z</time>
      </trkpt>
      <trkpt lat="48.54608" lon="-2.6151">
        <ele>29.4</ele>
        <time>2013-09-28T10:06:37Z</time>
      </trkpt>
      <trkpt lat="48.54607" lon="-2.61511">
        <ele>29.4</ele>
        <time>2013-09-28T10:06:38Z</time>
      </trkpt>
      <trkpt lat="48.54599" lon="-2.61531">
        <ele>30.4</ele>
        <time>2013-09-28T10:06:51Z</time>
      </trkpt>
      <trkpt lat="48.54591" lon="-2.61535">
        <ele>30.3</ele>
        <time>2013-09-28T10:06:59Z</time>
      </trkpt>
      <trkpt lat="48.54584" lon="-2.6154">
        <ele>30.1</ele>
        <time>2013-09-28T10:07:07Z</time>
      </trkpt>
      <trkpt lat="48.54575" lon="-2.61544">
        <ele>31</ele>
        <time>2013-09-28T10:07:21Z</time>
      </trkpt>
      <trkpt lat="48.54567" lon="-2.6155">
        <ele>32.4</ele>
        <time>2013-09-28T10:08:01Z</time>
      </trkpt>
      <trkpt lat="48.54566" lon="-2.61551">
        <ele>32.2</ele>
        <time>2013-09-28T10:08:02Z</time>
      </trkpt>
      <trkpt lat="48.54554" lon="-2.61563">
        <ele>29.4</ele>
        <time>2013-09-28T10:08:15Z</time>
      </trkpt>
      <trkpt lat="48.54547" lon="-2.61571">
        <ele>32.8</ele>
        <time>2013-09-28T10:08:22Z</time>
      </trkpt>
      <trkpt lat="48.5454" lon="-2.61578">
        <ele>32.4</ele>
        <time>2013-09-28T10:08:31Z</time>
      </trkpt>
      <trkpt lat="48.54533" lon="-2.61585">
        <ele>33.6</ele>
        <time>2013-09-28T10:08:40Z</time>
      </trkpt>
      <trkpt lat="48.54526" lon="-2.61591">
        <ele>34.9</ele>
        <time>2013-09-28T10:08:47Z</time>
      </trkpt>
      <trkpt lat="48.54519" lon="-2.616">
        <ele>34.8</ele>
        <time>2013-09-28T10:08:55Z</time>
      </trkpt>
      <trkpt lat="48.54513" lon="-2.61607">
        <ele>33.9</ele>
        <time>2013-09-28T10:09:03Z</time>
      </trkpt>
      <trkpt lat="48.54512" lon="-2.61608">
        <ele>34</ele>
        <time>2013-09-28T10:09:04Z</time>
      </trkpt>
      <trkpt lat="48.54504" lon="-2.61627">
        <ele>34</ele>
        <time>2013-09-28T10:09:18Z</time>
      </trkpt>
      <trkpt lat="48.54497" lon="-2.61636">
        <ele>33.7</ele>
        <time>2013-09-28T10:09:26Z</time>
      </trkpt>
      <trkpt lat="48.5449" lon="-2.61642">
        <ele>34.7</ele>
        <time>2013-09-28T10:09:34Z</time>
      </trkpt>
      <trkpt lat="48.54482" lon="-2.61647">
        <ele>34.5</ele>
        <time>2013-09-28T10:09:44Z</time>
      </trkpt>
      <trkpt lat="48.54474" lon="-2.61654">
        <ele>32</ele>
        <time>2013-09-28T10:10:29Z</time>
      </trkpt>
      <trkpt lat="48.54474" lon="-2.61654">
        <ele>31.8</ele>
        <time>2013-09-28T10:10:30Z</time>
      </trkpt>
      <trkpt lat="48.54474" lon="-2.61667">
        <ele>26</ele>
        <time>2013-09-28T10:11:18Z</time>
      </trkpt>
      <trkpt lat="48.54473" lon="-2.6168">
        <ele>22.6</ele>
        <time>2013-09-28T10:11:44Z</time>
      </trkpt>
      <trkpt lat="48.54473" lon="-2.61681">
        <ele>22.6</ele>
        <time>2013-09-28T10:11:45Z</time>
      </trkpt>
      <trkpt lat="48.54486" lon="-2.61695">
        <ele>17.2</ele>
        <time>2013-09-28T10:12:11Z</time>
      </trkpt>
      <trkpt lat="48.54481" lon="-2.61706">
        <ele>13.7</ele>
        <time>2013-09-28T10:12:36Z</time>
      </trkpt>
      <trkpt lat="48.54482" lon="-2.61719">
        <ele>11.7</ele>
        <time>2013-09-28T10:12:49Z</time>
      </trkpt>
      <trkpt lat="48.54483" lon="-2.61719">
        <ele>11.7</ele>
        <time>2013-09-28T10:12:50Z</time>
      </trkpt>
      <trkpt lat="48.5449" lon="-2.61742">
        <ele>4.5</ele>
        <time>2013-09-28T10:13:41Z</time>
      </trkpt>
      <trkpt lat="48.54482" lon="-2.61749">
        <ele>6.5</ele>
        <time>2013-09-28T10:14:00Z</time>
      </trkpt>
      <trkpt lat="48.54482" lon="-2.61749">
        <ele>6.3</ele>
        <time>2013-09-28T10:14:01Z</time>
      </trkpt>
      <trkpt lat="48.54465" lon="-2.61751">
        <ele>10.5</ele>
        <time>2013-09-28T10:14:44Z</time>
      </trkpt>
      <trkpt lat="48.54456" lon="-2.61754">
        <ele>12.3</ele>
        <time>2013-09-28T10:14:54Z</time>
      </trkpt>
      <trkpt lat="48.5446" lon="-2.61766">
        <ele>14.6</ele>
        <time>2013-09-28T10:15:12Z</time>
      </trkpt>
      <trkpt lat="48.5446" lon="-2.61767">
        <ele>14.7</ele>
        <time>2013-09-28T10:15:13Z</time>
      </trkpt>
      <trkpt lat="48.54459" lon="-2.61783">
        <ele>20.4</ele>
        <time>2013-09-28T10:15:45Z</time>
      </trkpt>
      <trkpt lat="48.5445" lon="-2.61785">
        <ele>22.5</ele>
        <time>2013-09-28T10:15:57Z</time>
      </trkpt>
      <trkpt lat="48.54442" lon="-2.61785">
        <ele>24.4</ele>
        <time>2013-09-28T10:16:07Z</time>
      </trkpt>
      <trkpt lat="48.54447" lon="-2.61795">
        <ele>28.1</ele>
        <time>2013-09-28T10:16:26Z</time>
      </trkpt>
      <trkpt lat="48.54447" lon="-2.61796">
        <ele>28.2</ele>
        <time>2013-09-28T10:16:27Z</time>
      </trkpt>
      <trkpt lat="48.54462" lon="-2.61809">
        <ele>31.4</ele>
        <time>2013-09-28T10:16:50Z</time>
      </trkpt>
      <trkpt lat="48.54466" lon="-2.6182">
        <ele>35.1</ele>
        <time>2013-09-28T10:17:06Z</time>
      </trkpt>
      <trkpt lat="48.54462" lon="-2.61831">
        <ele>36.8</ele>
        <time>2013-09-28T10:17:19Z</time>
      </trkpt>
      <trkpt lat="48.54457" lon="-2.61841">
        <ele>38.3</ele>
        <time>2013-09-28T10:17:31Z</time>
      </trkpt>
      <trkpt lat="48.54457" lon="-2.61842">
        <ele>38.4</ele>
        <time>2013-09-28T10:17:32Z</time>
      </trkpt>
      <trkpt lat="48.54454" lon="-2.61866">
        <ele>43</ele>
        <time>2013-09-28T10:17:58Z</time>
      </trkpt>
      <trkpt lat="48.54449" lon="-2.61875">
        <ele>43</ele>
        <time>2013-09-28T10:18:05Z</time>
      </trkpt>
      <trkpt lat="48.54443" lon="-2.61882">
        <ele>42.9</ele>
        <time>2013-09-28T10:18:11Z</time>
      </trkpt>
      <trkpt lat="48.54437" lon="-2.61891">
        <ele>43.1</ele>
        <time>2013-09-28T10:18:18Z</time>
      </trkpt>
      <trkpt lat="48.5443" lon="-2.61899">
        <ele>42.9</ele>
        <time>2013-09-28T10:18:25Z</time>
      </trkpt>
      <trkpt lat="48.54425" lon="-2.6191">
        <ele>41.2</ele>
        <time>2013-09-28T10:18:33Z</time>
      </trkpt>
      <trkpt lat="48.54424" lon="-2.61911">
        <ele>41.2</ele>
        <time>2013-09-28T10:18:34Z</time>
      </trkpt>
      <trkpt lat="48.54413" lon="-2.61929">
        <ele>39.9</ele>
        <time>2013-09-28T10:18:47Z</time>
      </trkpt>
      <trkpt lat="48.54407" lon="-2.61939">
        <ele>40.1</ele>
        <time>2013-09-28T10:18:55Z</time>
      </trkpt>
      <trkpt lat="48.54402" lon="-2.61948">
        <ele>39.6</ele>
        <time>2013-09-28T10:19:02Z</time>
      </trkpt>
      <trkpt lat="48.54396" lon="-2.61958">
        <ele>40.2</ele>
        <time>2013-09-28T10:19:10Z</time>
      </trkpt>
      <trkpt lat="48.5439" lon="-2.61966">
        <ele>41.7</ele>
        <time>2013-09-28T10:19:18Z</time>
      </trkpt>
      <trkpt lat="48.54385" lon="-2.61977">
        <ele>42.7</ele>
        <time>2013-09-28T10:19:26Z</time>
      </trkpt>
      <trkpt lat="48.54379" lon="-2.61987">
        <ele>42.4</ele>
        <time>2013-09-28T10:19:34Z</time>
      </trkpt>
      <trkpt lat="48.54378" lon="-2.61988">
        <ele>42.3</ele>
        <time>2013-09-28T10:19:35Z</time>
      </trkpt>
      <trkpt lat="48.54371" lon="-2.62009">
        <ele>42</ele>
        <time>2013-09-28T10:19:48Z</time>
      </trkpt>
      <trkpt lat="48.54369" lon="-2.62022">
        <ele>42.5</ele>
        <time>2013-09-28T10:19:57Z</time>
      </trkpt>
      <trkpt lat="48.54369" lon="-2.62035">
        <ele>43.5</ele>
        <time>2013-09-28T10:20:05Z</time>
      </trkpt>
      <trkpt lat="48.54369" lon="-2.62049">
        <ele>43.5</ele>
        <time>2013-09-28T10:20:13Z</time>
      </trkpt>
      <trkpt lat="48.54368" lon="-2.6206">
        <ele>43.7</ele>
        <time>2013-09-28T10:20:20Z</time>
      </trkpt>
      <trkpt lat="48.54366" lon="-2.62073">
        <ele>44.4</ele>
        <time>2013-09-28T10:20:27Z</time>
      </trkpt>
      <trkpt lat="48.54365" lon="-2.62085">
        <ele>43.9</ele>
        <time>2013-09-28T10:20:34Z</time>
      </trkpt>
      <trkpt lat="48.54366" lon="-2.62098">
        <ele>43.5</ele>
        <time>2013-09-28T10:20:41Z</time>
      </trkpt>
      <trkpt lat="48.54366" lon="-2.62099">
        <ele>43.3</ele>
        <time>2013-09-28T10:20:42Z</time>
      </trkpt>
      <trkpt lat="48.54368" lon="-2.62122">
        <ele>42.9</ele>
        <time>2013-09-28T10:21:10Z</time>
      </trkpt>
      <trkpt lat="48.54361" lon="-2.6213">
        <ele>43.8</ele>
        <time>2013-09-28T10:21:18Z</time>
      </trkpt>
      <trkpt lat="48.54353" lon="-2.62135">
        <ele>44.2</ele>
        <time>2013-09-28T10:21:27Z</time>
      </trkpt>
      <trkpt lat="48.54344" lon="-2.62135">
        <ele>45</ele>
        <time>2013-09-28T10:21:36Z</time>
      </trkpt>
      <trkpt lat="48.54337" lon="-2.62142">
        <ele>46.9</ele>
        <time>2013-09-28T10:21:46Z</time>
      </trkpt>
      <trkpt lat="48.54337" lon="-2.62144">
        <ele>46.9</ele>
        <time>2013-09-28T10:21:47Z</time>
      </trkpt>
      <trkpt lat="48.54325" lon="-2.62159">
        <ele>48</ele>
        <time>2013-09-28T10:22:03Z</time>
      </trkpt>
      <trkpt lat="48.54317" lon="-2.62163">
        <ele>46.4</ele>
        <time>2013-09-28T10:22:10Z</time>
      </trkpt>
      <trkpt lat="48.5431" lon="-2.62169">
        <ele>46.2</ele>
        <time>2013-09-28T10:22:17Z</time>
      </trkpt>
      <trkpt lat="48.54304" lon="-2.62176">
        <ele>46.2</ele>
        <time>2013-09-28T10:22:24Z</time>
      </trkpt>
      <trkpt lat="48.54298" lon="-2.62186">
        <ele>44.9</ele>
        <time>2013-09-28T10:22:31Z</time>
      </trkpt>
      <trkpt lat="48.54292" lon="-2.62196">
        <ele>44.5</ele>
        <time>2013-09-28T10:22:38Z</time>
      </trkpt>
      <trkpt lat="48.54288" lon="-2.62206">
        <ele>45</ele>
        <time>2013-09-28T10:22:45Z</time>
      </trkpt>
      <trkpt lat="48.54284" lon="-2.62217">
        <ele>44.5</ele>
        <time>2013-09-28T10:22:52Z</time>
      </trkpt>
      <trkpt lat="48.54284" lon="-2.62219">
        <ele>44.9</ele>
        <time>2013-09-28T10:22:53Z</time>
      </trkpt>
      <trkpt lat="48.54274" lon="-2.62239">
        <ele>47.6</ele>
        <time>2013-09-28T10:23:12Z</time>
      </trkpt>
      <trkpt lat="48.5427" lon="-2.62251">
        <ele>49.2</ele>
        <time>2013-09-28T10:23:22Z</time>
      </trkpt>
      <trkpt lat="48.54263" lon="-2.62259">
        <ele>50.3</ele>
        <time>2013-09-28T10:23:32Z</time>
      </trkpt>
      <trkpt lat="48.54259" lon="-2.62271">
        <ele>50.3</ele>
        <time>2013-09-28T10:23:41Z</time>
      </trkpt>
      <trkpt lat="48.54255" lon="-2.62283">
        <ele>50</ele>
        <time>2013-09-28T10:23:49Z</time>
      </trkpt>
      <trkpt lat="48.54252" lon="-2.62295">
        <ele>50.1</ele>
        <time>2013-09-28T10:23:57Z</time>
      </trkpt>
      <trkpt lat="48.54251" lon="-2.62297">
        <ele>49.8</ele>
        <time>2013-09-28T10:23:58Z</time>
      </trkpt>
      <trkpt lat="48.54241" lon="-2.62314">
        <ele>49.3</ele>
        <time>2013-09-28T10:24:10Z</time>
      </trkpt>
      <trkpt lat="48.54236" lon="-2.62323">
        <ele>49</ele>
        <time>2013-09-28T10:24:17Z</time>
      </trkpt>
      <trkpt lat="48.54231" lon="-2.62334">
        <ele>49.6</ele>
        <time>2013-09-28T10:24:25Z</time>
      </trkpt>
      <trkpt lat="48.54227" lon="-2.62345">
        <ele>49.8</ele>
        <time>2013-09-28T10:24:32Z</time>
      </trkpt>
      <trkpt lat="48.54224" lon="-2.62356">
        <ele>50.7</ele>
        <time>2013-09-28T10:24:39Z</time>
      </trkpt>
      <trkpt lat="48.54219" lon="-2.62367">
        <ele>48.3</ele>
        <time>2013-09-28T10:24:47Z</time>
      </trkpt>
      <trkpt lat="48.54213" lon="-2.62376">
        <ele>48.5</ele>
        <time>2013-09-28T10:24:55Z</time>
      </trkpt>
      <trkpt lat="48.54206" lon="-2.62383">
        <ele>48.6</ele>
        <time>2013-09-28T10:25:02Z</time>
      </trkpt>
      <trkpt lat="48.54206" lon="-2.62385">
        <ele>49.1</ele>
        <time>2013-09-28T10:25:03Z</time>
      </trkpt>
      <trkpt lat="48.54197" lon="-2.62403">
        <ele>47.9</ele>
        <time>2013-09-28T10:25:16Z</time>
      </trkpt>
      <trkpt lat="48.54193" lon="-2.62414">
        <ele>49.1</ele>
        <time>2013-09-28T10:25:23Z</time>
      </trkpt>
      <trkpt lat="48.54189" lon="-2.62425">
        <ele>49.8</ele>
        <time>2013-09-28T10:25:30Z</time>
      </trkpt>
      <trkpt lat="48.54185" lon="-2.62436">
        <ele>48.7</ele>
        <time>2013-09-28T10:25:37Z</time>
      </trkpt>
      <trkpt lat="48.54183" lon="-2.62448">
        <ele>49.7</ele>
        <time>2013-09-28T10:25:44Z</time>
      </trkpt>
      <trkpt lat="48.54184" lon="-2.62461">
        <ele>49.4</ele>
        <time>2013-09-28T10:25:51Z</time>
      </trkpt>
      <trkpt lat="48.54185" lon="-2.62474">
        <ele>48.9</ele>
        <time>2013-09-28T10:25:58Z</time>
      </trkpt>
      <trkpt lat="48.54184" lon="-2.62487">
        <ele>48.4</ele>
        <time>2013-09-28T10:26:05Z</time>
      </trkpt>
      <trkpt lat="48.54183" lon="-2.62489">
        <ele>48.7</ele>
        <time>2013-09-28T10:26:06Z</time>
      </trkpt>
      <trkpt lat="48.54178" lon="-2.62512">
        <ele>50.4</ele>
        <time>2013-09-28T10:26:20Z</time>
      </trkpt>
      <trkpt lat="48.54177" lon="-2.62525">
        <ele>49.9</ele>
        <time>2013-09-28T10:26:29Z</time>
      </trkpt>
      <trkpt lat="48.54172" lon="-2.62536">
        <ele>52.9</ele>
        <time>2013-09-28T10:26:37Z</time>
      </trkpt>
      <trkpt lat="48.54165" lon="-2.62544">
        <ele>52</ele>
        <time>2013-09-28T10:26:45Z</time>
      </trkpt>
      <trkpt lat="48.54159" lon="-2.62552">
        <ele>52.3</ele>
        <time>2013-09-28T10:26:53Z</time>
      </trkpt>
      <trkpt lat="48.54153" lon="-2.62562">
        <ele>52.4</ele>
        <time>2013-09-28T10:27:01Z</time>
      </trkpt>
      <trkpt lat="48.54147" lon="-2.6257">
        <ele>52.4</ele>
        <time>2013-09-28T10:27:09Z</time>
      </trkpt>
      <trkpt lat="48.54146" lon="-2.62571">
        <ele>52.3</ele>
        <time>2013-09-28T10:27:10Z</time>
      </trkpt>
      <trkpt lat="48.54134" lon="-2.62584">
        <ele>51.5</ele>
        <time>2013-09-28T10:27:23Z</time>
      </trkpt>
      <trkpt lat="48.54129" lon="-2.62595">
        <ele>52</ele>
        <time>2013-09-28T10:27:31Z</time>
      </trkpt>
      <trkpt lat="48.54124" lon="-2.62605">
        <ele>52.5</ele>
        <time>2013-09-28T10:27:40Z</time>
      </trkpt>
      <trkpt lat="48.5412" lon="-2.62616">
        <ele>53</ele>
        <time>2013-09-28T10:27:49Z</time>
      </trkpt>
      <trkpt lat="48.54114" lon="-2.62626">
        <ele>53.9</ele>
        <time>2013-09-28T10:27:58Z</time>
      </trkpt>
      <trkpt lat="48.5411" lon="-2.62636">
        <ele>53.6</ele>
        <time>2013-09-28T10:28:07Z</time>
      </trkpt>
      <trkpt lat="48.54105" lon="-2.62648">
        <ele>53.2</ele>
        <time>2013-09-28T10:28:15Z</time>
      </trkpt>
      <trkpt lat="48.54104" lon="-2.62649">
        <ele>53.3</ele>
        <time>2013-09-28T10:28:16Z</time>
      </trkpt>
      <trkpt lat="48.54092" lon="-2.62661">
        <ele>53.6</ele>
        <time>2013-09-28T10:28:29Z</time>
      </trkpt>
      <trkpt lat="48.54085" lon="-2.62669">
        <ele>53.4</ele>
        <time>2013-09-28T10:28:37Z</time>
      </trkpt>
      <trkpt lat="48.54079" lon="-2.62678">
        <ele>53</ele>
        <time>2013-09-28T10:28:45Z</time>
      </trkpt>
      <trkpt lat="48.54072" lon="-2.62683">
        <ele>52.6</ele>
        <time>2013-09-28T10:28:52Z</time>
      </trkpt>
      <trkpt lat="48.54063" lon="-2.62684">
        <ele>51.5</ele>
        <time>2013-09-28T10:28:59Z</time>
      </trkpt>
      <trkpt lat="48.54055" lon="-2.62684">
        <ele>51.1</ele>
        <time>2013-09-28T10:29:06Z</time>
      </trkpt>
      <trkpt lat="48.54047" lon="-2.62685">
        <ele>50.9</ele>
        <time>2013-09-28T10:29:14Z</time>
      </trkpt>
      <trkpt lat="48.54039" lon="-2.6269">
        <ele>50.1</ele>
        <time>2013-09-28T10:29:23Z</time>
      </trkpt>
      <trkpt lat="48.54038" lon="-2.62691">
        <ele>50.1</ele>
        <time>2013-09-28T10:29:24Z</time>
      </trkpt>
      <trkpt lat="48.54022" lon="-2.62691">
        <ele>49.1</ele>
        <time>2013-09-28T10:29:37Z</time>
      </trkpt>
      <trkpt lat="48.54014" lon="-2.62691">
        <ele>48.4</ele>
        <time>2013-09-28T10:29:44Z</time>
      </trkpt>
      <trkpt lat="48.54006" lon="-2.62694">
        <ele>46.8</ele>
        <time>2013-09-28T10:29:52Z</time>
      </trkpt>
      <trkpt lat="48.53998" lon="-2.62699">
        <ele>47.9</ele>
        <time>2013-09-28T10:30:00Z</time>
      </trkpt>
      <trkpt lat="48.53993" lon="-2.62708">
        <ele>46.6</ele>
        <time>2013-09-28T10:30:07Z</time>
      </trkpt>
      <trkpt lat="48.53989" lon="-2.6272">
        <ele>46.9</ele>
        <time>2013-09-28T10:30:15Z</time>
      </trkpt>
      <trkpt lat="48.53985" lon="-2.62732">
        <ele>47.5</ele>
        <time>2013-09-28T10:30:22Z</time>
      </trkpt>
      <trkpt lat="48.53981" lon="-2.62743">
        <ele>47.4</ele>
        <time>2013-09-28T10:30:29Z</time>
      </trkpt>
      <trkpt lat="48.53981" lon="-2.62745">
        <ele>47.3</ele>
        <time>2013-09-28T10:30:30Z</time>
      </trkpt>
      <trkpt lat="48.53971" lon="-2.62763">
        <ele>47.4</ele>
        <time>2013-09-28T10:30:43Z</time>
      </trkpt>
      <trkpt lat="48.53965" lon="-2.62771">
        <ele>47.2</ele>
        <time>2013-09-28T10:30:50Z</time>
      </trkpt>
      <trkpt lat="48.53958" lon="-2.6278">
        <ele>48</ele>
        <time>2013-09-28T10:30:58Z</time>
      </trkpt>
      <trkpt lat="48.53951" lon="-2.62786">
        <ele>48</ele>
        <time>2013-09-28T10:31:05Z</time>
      </trkpt>
      <trkpt lat="48.53944" lon="-2.62792">
        <ele>47.7</ele>
        <time>2013-09-28T10:31:13Z</time>
      </trkpt>
      <trkpt lat="48.53936" lon="-2.62797">
        <ele>47.9</ele>
        <time>2013-09-28T10:31:21Z</time>
      </trkpt>
      <trkpt lat="48.53929" lon="-2.62803">
        <ele>46.8</ele>
        <time>2013-09-28T10:31:30Z</time>
      </trkpt>
      <trkpt lat="48.53928" lon="-2.62804">
        <ele>46.7</ele>
        <time>2013-09-28T10:31:31Z</time>
      </trkpt>
      <trkpt lat="48.53916" lon="-2.62819">
        <ele>46.2</ele>
        <time>2013-09-28T10:31:46Z</time>
      </trkpt>
      <trkpt lat="48.53909" lon="-2.62826">
        <ele>45.9</ele>
        <time>2013-09-28T10:32:08Z</time>
      </trkpt>
      <trkpt lat="48.539" lon="-2.62827">
        <ele>44.4</ele>
        <time>2013-09-28T10:32:18Z</time>
      </trkpt>
      <trkpt lat="48.53891" lon="-2.62828">
        <ele>44.4</ele>
        <time>2013-09-28T10:32:27Z</time>
      </trkpt>
      <trkpt lat="48.53883" lon="-2.6283">
        <ele>44.9</ele>
        <time>2013-09-28T10:32:36Z</time>
      </trkpt>
      <trkpt lat="48.53882" lon="-2.62831">
        <ele>44.6</ele>
        <time>2013-09-28T10:32:37Z</time>
      </trkpt>
      <trkpt lat="48.53868" lon="-2.62844">
        <ele>45.6</ele>
        <time>2013-09-28T10:32:54Z</time>
      </trkpt>
      <trkpt lat="48.53863" lon="-2.62853">
        <ele>46.5</ele>
        <time>2013-09-28T10:33:02Z</time>
      </trkpt>
      <trkpt lat="48.53856" lon="-2.62861">
        <ele>46</ele>
        <time>2013-09-28T10:33:10Z</time>
      </trkpt>
      <trkpt lat="48.5385" lon="-2.6287">
        <ele>45.1</ele>
        <time>2013-09-28T10:33:19Z</time>
      </trkpt>
      <trkpt lat="48.53844" lon="-2.6288">
        <ele>42.9</ele>
        <time>2013-09-28T10:33:28Z</time>
      </trkpt>
      <trkpt lat="48.53838" lon="-2.62889">
        <ele>42.1</ele>
        <time>2013-09-28T10:33:36Z</time>
      </trkpt>
      <trkpt lat="48.53832" lon="-2.62898">
        <ele>41.9</ele>
        <time>2013-09-28T10:33:44Z</time>
      </trkpt>
      <trkpt lat="48.53831" lon="-2.62899">
        <ele>41.9</ele>
        <time>2013-09-28T10:33:45Z</time>
      </trkpt>
      <trkpt lat="48.5382" lon="-2.62916">
        <ele>41.5</ele>
        <time>2013-09-28T10:34:01Z</time>
      </trkpt>
      <trkpt lat="48.53814" lon="-2.62924">
        <ele>41.4</ele>
        <time>2013-09-28T10:34:09Z</time>
      </trkpt>
      <trkpt lat="48.53808" lon="-2.62933">
        <ele>39.7</ele>
        <time>2013-09-28T10:34:17Z</time>
      </trkpt>
      <trkpt lat="48.538" lon="-2.6294">
        <ele>39.1</ele>
        <time>2013-09-28T10:34:25Z</time>
      </trkpt>
      <trkpt lat="48.53793" lon="-2.62946">
        <ele>40.1</ele>
        <time>2013-09-28T10:34:33Z</time>
      </trkpt>
      <trkpt lat="48.53785" lon="-2.62952">
        <ele>39.9</ele>
        <time>2013-09-28T10:34:41Z</time>
      </trkpt>
      <trkpt lat="48.53779" lon="-2.62959">
        <ele>40.2</ele>
        <time>2013-09-28T10:34:48Z</time>
      </trkpt>
      <trkpt lat="48.53778" lon="-2.6296">
        <ele>40.2</ele>
        <time>2013-09-28T10:34:49Z</time>
      </trkpt>
      <trkpt lat="48.53766" lon="-2.62976">
        <ele>38.7</ele>
        <time>2013-09-28T10:35:05Z</time>
      </trkpt>
      <trkpt lat="48.53762" lon="-2.62988">
        <ele>37.4</ele>
        <time>2013-09-28T10:35:16Z</time>
      </trkpt>
      <trkpt lat="48.5376" lon="-2.63001">
        <ele>34.8</ele>
        <time>2013-09-28T10:35:27Z</time>
      </trkpt>
      <trkpt lat="48.53761" lon="-2.63014">
        <ele>33.4</ele>
        <time>2013-09-28T10:35:40Z</time>
      </trkpt>
      <trkpt lat="48.5376" lon="-2.63027">
        <ele>31</ele>
        <time>2013-09-28T10:36:08Z</time>
      </trkpt>
      <trkpt lat="48.5376" lon="-2.63028">
        <ele>31</ele>
        <time>2013-09-28T10:36:09Z</time>
      </trkpt>
      <trkpt lat="48.53762" lon="-2.63053">
        <ele>29.8</ele>
        <time>2013-09-28T10:36:30Z</time>
      </trkpt>
      <trkpt lat="48.53764" lon="-2.63065">
        <ele>31.5</ele>
        <time>2013-09-28T10:36:43Z</time>
      </trkpt>
      <trkpt lat="48.53769" lon="-2.63075">
        <ele>31.8</ele>
        <time>2013-09-28T10:36:51Z</time>
      </trkpt>
      <trkpt lat="48.53773" lon="-2.63087">
        <ele>33.1</ele>
        <time>2013-09-28T10:36:59Z</time>
      </trkpt>
      <trkpt lat="48.53776" lon="-2.63099">
        <ele>33</ele>
        <time>2013-09-28T10:37:07Z</time>
      </trkpt>
      <trkpt lat="48.53777" lon="-2.63112">
        <ele>33.5</ele>
        <time>2013-09-28T10:37:18Z</time>
      </trkpt>
      <trkpt lat="48.53777" lon="-2.63113">
        <ele>33.7</ele>
        <time>2013-09-28T10:37:19Z</time>
      </trkpt>
      <trkpt lat="48.53765" lon="-2.63129">
        <ele>33.3</ele>
        <time>2013-09-28T10:37:37Z</time>
      </trkpt>
      <trkpt lat="48.53756" lon="-2.63131">
        <ele>33.5</ele>
        <time>2013-09-28T10:37:44Z</time>
      </trkpt>
      <trkpt lat="48.53748" lon="-2.63133">
        <ele>32.6</ele>
        <time>2013-09-28T10:37:51Z</time>
      </trkpt>
      <trkpt lat="48.53741" lon="-2.63137">
        <ele>32.3</ele>
        <time>2013-09-28T10:37:58Z</time>
      </trkpt>
      <trkpt lat="48.53734" lon="-2.63145">
        <ele>31.6</ele>
        <time>2013-09-28T10:38:06Z</time>
      </trkpt>
      <trkpt lat="48.53727" lon="-2.63151">
        <ele>31.4</ele>
        <time>2013-09-28T10:38:14Z</time>
      </trkpt>
      <trkpt lat="48.53719" lon="-2.63156">
        <ele>30.8</ele>
        <time>2013-09-28T10:38:21Z</time>
      </trkpt>
      <trkpt lat="48.53718" lon="-2.63156">
        <ele>30.8</ele>
        <time>2013-09-28T10:38:22Z</time>
      </trkpt>
      <trkpt lat="48.53703" lon="-2.63163">
        <ele>30.5</ele>
        <time>2013-09-28T10:38:37Z</time>
      </trkpt>
      <trkpt lat="48.53697" lon="-2.63172">
        <ele>28.6</ele>
        <time>2013-09-28T10:38:47Z</time>
      </trkpt>
      <trkpt lat="48.53689" lon="-2.6318">
        <ele>27</ele>
        <time>2013-09-28T10:38:58Z</time>
      </trkpt>
      <trkpt lat="48.53681" lon="-2.63183">
        <ele>25.4</ele>
        <time>2013-09-28T10:39:09Z</time>
      </trkpt>
      <trkpt lat="48.53673" lon="-2.63183">
        <ele>23.5</ele>
        <time>2013-09-28T10:39:25Z</time>
      </trkpt>
      <trkpt lat="48.53672" lon="-2.63183">
        <ele>23.4</ele>
        <time>2013-09-28T10:39:26Z</time>
      </trkpt>
      <trkpt lat="48.53661" lon="-2.63167">
        <ele>22.1</ele>
        <time>2013-09-28T10:39:42Z</time>
      </trkpt>
      <trkpt lat="48.53655" lon="-2.63159">
        <ele>20.3</ele>
        <time>2013-09-28T10:39:59Z</time>
      </trkpt>
      <trkpt lat="48.53646" lon="-2.63159">
        <ele>17.8</ele>
        <time>2013-09-28T10:40:14Z</time>
      </trkpt>
      <trkpt lat="48.53637" lon="-2.63158">
        <ele>14.6</ele>
        <time>2013-09-28T10:40:35Z</time>
      </trkpt>
      <trkpt lat="48.53637" lon="-2.63158">
        <ele>14.5</ele>
        <time>2013-09-28T10:40:36Z</time>
      </trkpt>
      <trkpt lat="48.53621" lon="-2.63158">
        <ele>12.5</ele>
        <time>2013-09-28T10:40:56Z</time>
      </trkpt>
      <trkpt lat="48.53614" lon="-2.63166">
        <ele>12.3</ele>
        <time>2013-09-28T10:41:12Z</time>
      </trkpt>
      <trkpt lat="48.53606" lon="-2.63172">
        <ele>11.8</ele>
        <time>2013-09-28T10:41:22Z</time>
      </trkpt>
      <trkpt lat="48.53597" lon="-2.63172">
        <ele>12.3</ele>
        <time>2013-09-28T10:41:32Z</time>
      </trkpt>
      <trkpt lat="48.53589" lon="-2.63176">
        <ele>12.4</ele>
        <time>2013-09-28T10:41:40Z</time>
      </trkpt>
      <trkpt lat="48.53588" lon="-2.63176">
        <ele>12.4</ele>
        <time>2013-09-28T10:41:41Z</time>
      </trkpt>
      <trkpt lat="48.53573" lon="-2.63182">
        <ele>13.7</ele>
        <time>2013-09-28T10:41:58Z</time>
      </trkpt>
      <trkpt lat="48.53565" lon="-2.6318">
        <ele>13.7</ele>
        <time>2013-09-28T10:42:06Z</time>
      </trkpt>
      <trkpt lat="48.53557" lon="-2.63177">
        <ele>14.7</ele>
        <time>2013-09-28T10:42:15Z</time>
      </trkpt>
      <trkpt lat="48.53548" lon="-2.63172">
        <ele>13.8</ele>
        <time>2013-09-28T10:42:24Z</time>
      </trkpt>
      <trkpt lat="48.53541" lon="-2.63165">
        <ele>14.2</ele>
        <time>2013-09-28T10:42:33Z</time>
      </trkpt>
      <trkpt lat="48.53533" lon="-2.6316">
        <ele>14.6</ele>
        <time>2013-09-28T10:42:42Z</time>
      </trkpt>
      <trkpt lat="48.53532" lon="-2.6316">
        <ele>14.7</ele>
        <time>2013-09-28T10:42:43Z</time>
      </trkpt>
      <trkpt lat="48.53516" lon="-2.63161">
        <ele>12.8</ele>
        <time>2013-09-28T10:43:06Z</time>
      </trkpt>
      <trkpt lat="48.53507" lon="-2.6316">
        <ele>10.6</ele>
        <time>2013-09-28T10:43:20Z</time>
      </trkpt>
      <trkpt lat="48.53501" lon="-2.63169">
        <ele>10.8</ele>
        <time>2013-09-28T10:43:35Z</time>
      </trkpt>
      <trkpt lat="48.53493" lon="-2.63165">
        <ele>12.4</ele>
        <time>2013-09-28T10:43:44Z</time>
      </trkpt>
      <trkpt lat="48.53492" lon="-2.63165">
        <ele>12.4</ele>
        <time>2013-09-28T10:43:45Z</time>
      </trkpt>
      <trkpt lat="48.53477" lon="-2.63158">
        <ele>14.7</ele>
        <time>2013-09-28T10:44:02Z</time>
      </trkpt>
      <trkpt lat="48.53469" lon="-2.63154">
        <ele>16.7</ele>
        <time>2013-09-28T10:44:17Z</time>
      </trkpt>
      <trkpt lat="48.5346" lon="-2.63151">
        <ele>19</ele>
        <time>2013-09-28T10:44:28Z</time>
      </trkpt>
      <trkpt lat="48.53451" lon="-2.63152">
        <ele>20.2</ele>
        <time>2013-09-28T10:44:39Z</time>
      </trkpt>
      <trkpt lat="48.53449" lon="-2.63139">
        <ele>24.7</ele>
        <time>2013-09-28T10:45:03Z</time>
      </trkpt>
      <trkpt lat="48.5345" lon="-2.63138">
        <ele>24.8</ele>
        <time>2013-09-28T10:45:04Z</time>
      </trkpt>
      <trkpt lat="48.53433" lon="-2.6313">
        <ele>28.9</ele>
        <time>2013-09-28T10:45:33Z</time>
      </trkpt>
      <trkpt lat="48.53426" lon="-2.63123">
        <ele>29.9</ele>
        <time>2013-09-28T10:45:44Z</time>
      </trkpt>
      <trkpt lat="48.53418" lon="-2.63121">
        <ele>30.9</ele>
        <time>2013-09-28T10:45:53Z</time>
      </trkpt>
      <trkpt lat="48.53409" lon="-2.63122">
        <ele>30.8</ele>
        <time>2013-09-28T10:46:01Z</time>
      </trkpt>
      <trkpt lat="48.53401" lon="-2.63123">
        <ele>31.6</ele>
        <time>2013-09-28T10:46:09Z</time>
      </trkpt>
      <trkpt lat="48.534" lon="-2.63123">
        <ele>31.7</ele>
        <time>2013-09-28T10:46:10Z</time>
      </trkpt>
      <trkpt lat="48.53384" lon="-2.63128">
        <ele>32</ele>
        <time>2013-09-28T10:46:25Z</time>
      </trkpt>
      <trkpt lat="48.53376" lon="-2.63131">
        <ele>32.1</ele>
        <time>2013-09-28T10:46:33Z</time>
      </trkpt>
      <trkpt lat="48.53368" lon="-2.63136">
        <ele>32.3</ele>
        <time>2013-09-28T10:46:43Z</time>
      </trkpt>
      <trkpt lat="48.5336" lon="-2.63137">
        <ele>32.2</ele>
        <time>2013-09-28T10:46:50Z</time>
      </trkpt>
      <trkpt lat="48.53351" lon="-2.63137">
        <ele>31.7</ele>
        <time>2013-09-28T10:46:58Z</time>
      </trkpt>
      <trkpt lat="48.53343" lon="-2.63137">
        <ele>31.9</ele>
        <time>2013-09-28T10:47:05Z</time>
      </trkpt>
      <trkpt lat="48.53334" lon="-2.63137">
        <ele>31.3</ele>
        <time>2013-09-28T10:47:13Z</time>
      </trkpt>
      <trkpt lat="48.53333" lon="-2.63137">
        <ele>31.2</ele>
        <time>2013-09-28T10:47:14Z</time>
      </trkpt>
      <trkpt lat="48.53318" lon="-2.63136">
        <ele>29.9</ele>
        <time>2013-09-28T10:47:28Z</time>
      </trkpt>
      <trkpt lat="48.53309" lon="-2.63139">
        <ele>29.9</ele>
        <time>2013-09-28T10:47:36Z</time>
      </trkpt>
      <trkpt lat="48.53301" lon="-2.63139">
        <ele>28.7</ele>
        <time>2013-09-28T10:47:42Z</time>
      </trkpt>
      <trkpt lat="48.53293" lon="-2.6314">
        <ele>28.9</ele>
        <time>2013-09-28T10:47:50Z</time>
      </trkpt>
      <trkpt lat="48.53285" lon="-2.63137">
        <ele>30.2</ele>
        <time>2013-09-28T10:48:02Z</time>
      </trkpt>
      <trkpt lat="48.53276" lon="-2.63139">
        <ele>30.2</ele>
        <time>2013-09-28T10:48:12Z</time>
      </trkpt>
      <trkpt lat="48.5327" lon="-2.63148">
        <ele>30.6</ele>
        <time>2013-09-28T10:48:21Z</time>
      </trkpt>
      <trkpt lat="48.53269" lon="-2.63149">
        <ele>30.7</ele>
        <time>2013-09-28T10:48:22Z</time>
      </trkpt>
      <trkpt lat="48.53266" lon="-2.63172">
        <ele>31</ele>
        <time>2013-09-28T10:48:37Z</time>
      </trkpt>
      <trkpt lat="48.53263" lon="-2.63184">
        <ele>30.1</ele>
        <time>2013-09-28T10:48:45Z</time>
      </trkpt>
      <trkpt lat="48.53258" lon="-2.63193">
        <ele>30.1</ele>
        <time>2013-09-28T10:48:52Z</time>
      </trkpt>
      <trkpt lat="48.53251" lon="-2.63201">
        <ele>29.5</ele>
        <time>2013-09-28T10:48:59Z</time>
      </trkpt>
      <trkpt lat="48.53244" lon="-2.63208">
        <ele>28.8</ele>
        <time>2013-09-28T10:49:06Z</time>
      </trkpt>
      <trkpt lat="48.53236" lon="-2.63212">
        <ele>29.6</ele>
        <time>2013-09-28T10:49:13Z</time>
      </trkpt>
      <trkpt lat="48.53228" lon="-2.63216">
        <ele>29.8</ele>
        <time>2013-09-28T10:49:20Z</time>
      </trkpt>
      <trkpt lat="48.53219" lon="-2.63218">
        <ele>29.3</ele>
        <time>2013-09-28T10:49:27Z</time>
      </trkpt>
      <trkpt lat="48.53218" lon="-2.63218">
        <ele>29.3</ele>
        <time>2013-09-28T10:49:28Z</time>
      </trkpt>
      <trkpt lat="48.53203" lon="-2.63222">
        <ele>28.1</ele>
        <time>2013-09-28T10:49:41Z</time>
      </trkpt>
      <trkpt lat="48.53195" lon="-2.63223">
        <ele>28.9</ele>
        <time>2013-09-28T10:49:48Z</time>
      </trkpt>
      <trkpt lat="48.53187" lon="-2.63229">
        <ele>28.6</ele>
        <time>2013-09-28T10:49:57Z</time>
      </trkpt>
      <trkpt lat="48.5318" lon="-2.63236">
        <ele>27.2</ele>
        <time>2013-09-28T10:50:05Z</time>
      </trkpt>
      <trkpt lat="48.53173" lon="-2.63241">
        <ele>26.8</ele>
        <time>2013-09-28T10:50:12Z</time>
      </trkpt>
      <trkpt lat="48.53165" lon="-2.63246">
        <ele>25.4</ele>
        <time>2013-09-28T10:50:19Z</time>
      </trkpt>
      <trkpt lat="48.53158" lon="-2.63251">
        <ele>24.8</ele>
        <time>2013-09-28T10:50:26Z</time>
      </trkpt>
      <trkpt lat="48.5315" lon="-2.63256">
        <ele>25</ele>
        <time>2013-09-28T10:50:33Z</time>
      </trkpt>
      <trkpt lat="48.53149" lon="-2.63257">
        <ele>24.8</ele>
        <time>2013-09-28T10:50:34Z</time>
      </trkpt>
      <trkpt lat="48.53135" lon="-2.63265">
        <ele>22.9</ele>
        <time>2013-09-28T10:50:47Z</time>
      </trkpt>
      <trkpt lat="48.53126" lon="-2.63269">
        <ele>22.8</ele>
        <time>2013-09-28T10:50:55Z</time>
      </trkpt>
      <trkpt lat="48.53118" lon="-2.63274">
        <ele>23.6</ele>
        <time>2013-09-28T10:51:03Z</time>
      </trkpt>
      <trkpt lat="48.53111" lon="-2.6328">
        <ele>23.4</ele>
        <time>2013-09-28T10:51:10Z</time>
      </trkpt>
      <trkpt lat="48.53103" lon="-2.63285">
        <ele>22.8</ele>
        <time>2013-09-28T10:51:18Z</time>
      </trkpt>
      <trkpt lat="48.53095" lon="-2.63291">
        <ele>24.5</ele>
        <time>2013-09-28T10:51:26Z</time>
      </trkpt>
      <trkpt lat="48.53088" lon="-2.63297">
        <ele>25.2</ele>
        <time>2013-09-28T10:51:34Z</time>
      </trkpt>
      <trkpt lat="48.53087" lon="-2.63297">
        <ele>25.4</ele>
        <time>2013-09-28T10:51:35Z</time>
      </trkpt>
      <trkpt lat="48.53073" lon="-2.63308">
        <ele>25.1</ele>
        <time>2013-09-28T10:51:49Z</time>
      </trkpt>
      <trkpt lat="48.53065" lon="-2.63308">
        <ele>26.1</ele>
        <time>2013-09-28T10:51:57Z</time>
      </trkpt>
      <trkpt lat="48.53057" lon="-2.63304">
        <ele>26.7</ele>
        <time>2013-09-28T10:52:05Z</time>
      </trkpt>
      <trkpt lat="48.53051" lon="-2.63296">
        <ele>26.6</ele>
        <time>2013-09-28T10:52:12Z</time>
      </trkpt>
      <trkpt lat="48.53042" lon="-2.63294">
        <ele>26</ele>
        <time>2013-09-28T10:52:26Z</time>
      </trkpt>
      <trkpt lat="48.53033" lon="-2.63297">
        <ele>22.4</ele>
        <time>2013-09-28T10:52:44Z</time>
      </trkpt>
      <trkpt lat="48.53033" lon="-2.63298">
        <ele>22.2</ele>
        <time>2013-09-28T10:52:45Z</time>
      </trkpt>
      <trkpt lat="48.53019" lon="-2.63312">
        <ele>19.1</ele>
        <time>2013-09-28T10:53:48Z</time>
      </trkpt>
      <trkpt lat="48.53018" lon="-2.63312">
        <ele>18.9</ele>
        <time>2013-09-28T10:53:49Z</time>
      </trkpt>
      <trkpt lat="48.53003" lon="-2.63316">
        <ele>16.9</ele>
        <time>2013-09-28T10:54:03Z</time>
      </trkpt>
      <trkpt lat="48.52995" lon="-2.63319">
        <ele>17</ele>
        <time>2013-09-28T10:54:10Z</time>
      </trkpt>
      <trkpt lat="48.52987" lon="-2.6332">
        <ele>16.5</ele>
        <time>2013-09-28T10:54:18Z</time>
      </trkpt>
      <trkpt lat="48.52979" lon="-2.63323">
        <ele>17.8</ele>
        <time>2013-09-28T10:54:28Z</time>
      </trkpt>
      <trkpt lat="48.52984" lon="-2.63333">
        <ele>17.9</ele>
        <time>2013-09-28T10:54:49Z</time>
      </trkpt>
      <trkpt lat="48.52984" lon="-2.63334">
        <ele>18</ele>
        <time>2013-09-28T10:54:50Z</time>
      </trkpt>
      <trkpt lat="48.52975" lon="-2.63346">
        <ele>18.1</ele>
        <time>2013-09-28T10:55:07Z</time>
      </trkpt>
      <trkpt lat="48.52971" lon="-2.63334">
        <ele>18.5</ele>
        <time>2013-09-28T10:55:15Z</time>
      </trkpt>
      <trkpt lat="48.52977" lon="-2.63325">
        <ele>21</ele>
        <time>2013-09-28T11:05:20Z</time>
      </trkpt>
      <trkpt lat="48.52977" lon="-2.63324">
        <ele>21.2</ele>
        <time>2013-09-28T11:05:21Z</time>
      </trkpt>
      <trkpt lat="48.52985" lon="-2.63303">
        <ele>18.1</ele>
        <time>2013-09-28T11:05:42Z</time>
      </trkpt>
      <trkpt lat="48.52982" lon="-2.63291">
        <ele>16.3</ele>
        <time>2013-09-28T11:05:51Z</time>
      </trkpt>
      <trkpt lat="48.5298" lon="-2.63278">
        <ele>14.6</ele>
        <time>2013-09-28T11:06:00Z</time>
      </trkpt>
      <trkpt lat="48.52981" lon="-2.63266">
        <ele>15.1</ele>
        <time>2013-09-28T11:06:10Z</time>
      </trkpt>
      <trkpt lat="48.52981" lon="-2.63253">
        <ele>12.9</ele>
        <time>2013-09-28T11:06:21Z</time>
      </trkpt>
      <trkpt lat="48.5298" lon="-2.63251">
        <ele>12.6</ele>
        <time>2013-09-28T11:06:22Z</time>
      </trkpt>
      <trkpt lat="48.5297" lon="-2.63233">
        <ele>12.4</ele>
        <time>2013-09-28T11:06:45Z</time>
      </trkpt>
      <trkpt lat="48.52963" lon="-2.63226">
        <ele>12.4</ele>
        <time>2013-09-28T11:06:55Z</time>
      </trkpt>
      <trkpt lat="48.52954" lon="-2.6322">
        <ele>12.6</ele>
        <time>2013-09-28T11:07:04Z</time>
      </trkpt>
      <trkpt lat="48.52946" lon="-2.63216">
        <ele>12.9</ele>
        <time>2013-09-28T11:07:12Z</time>
      </trkpt>
      <trkpt lat="48.52938" lon="-2.63211">
        <ele>13.5</ele>
        <time>2013-09-28T11:07:20Z</time>
      </trkpt>
      <trkpt lat="48.5293" lon="-2.63206">
        <ele>12.6</ele>
        <time>2013-09-28T11:07:29Z</time>
      </trkpt>
      <trkpt lat="48.52929" lon="-2.63205">
        <ele>12.5</ele>
        <time>2013-09-28T11:07:30Z</time>
      </trkpt>
      <trkpt lat="48.52914" lon="-2.63199">
        <ele>14.6</ele>
        <time>2013-09-28T11:07:45Z</time>
      </trkpt>
      <trkpt lat="48.52907" lon="-2.63194">
        <ele>14.2</ele>
        <time>2013-09-28T11:07:53Z</time>
      </trkpt>
      <trkpt lat="48.52898" lon="-2.63189">
        <ele>13.4</ele>
        <time>2013-09-28T11:08:01Z</time>
      </trkpt>
      <trkpt lat="48.52891" lon="-2.63183">
        <ele>12.8</ele>
        <time>2013-09-28T11:08:09Z</time>
      </trkpt>
      <trkpt lat="48.52883" lon="-2.63178">
        <ele>14.3</ele>
        <time>2013-09-28T11:08:17Z</time>
      </trkpt>
      <trkpt lat="48.52875" lon="-2.63175">
        <ele>13.8</ele>
        <time>2013-09-28T11:08:24Z</time>
      </trkpt>
      <trkpt lat="48.52867" lon="-2.63171">
        <ele>14.4</ele>
        <time>2013-09-28T11:08:31Z</time>
      </trkpt>
      <trkpt lat="48.52866" lon="-2.63171">
        <ele>14.4</ele>
        <time>2013-09-28T11:08:32Z</time>
      </trkpt>
      <trkpt lat="48.52851" lon="-2.63163">
        <ele>14.6</ele>
        <time>2013-09-28T11:08:45Z</time>
      </trkpt>
      <trkpt lat="48.52843" lon="-2.63159">
        <ele>14</ele>
        <time>2013-09-28T11:08:52Z</time>
      </trkpt>
      <trkpt lat="48.52835" lon="-2.63156">
        <ele>14.9</ele>
        <time>2013-09-28T11:09:00Z</time>
      </trkpt>
      <trkpt lat="48.52828" lon="-2.63152">
        <ele>14.8</ele>
        <time>2013-09-28T11:09:07Z</time>
      </trkpt>
      <trkpt lat="48.5282" lon="-2.63149">
        <ele>14.2</ele>
        <time>2013-09-28T11:09:14Z</time>
      </trkpt>
      <trkpt lat="48.52812" lon="-2.63146">
        <ele>15</ele>
        <time>2013-09-28T11:09:22Z</time>
      </trkpt>
      <trkpt lat="48.52803" lon="-2.63143">
        <ele>14.7</ele>
        <time>2013-09-28T11:09:30Z</time>
      </trkpt>
      <trkpt lat="48.52795" lon="-2.6314">
        <ele>15.4</ele>
        <time>2013-09-28T11:09:37Z</time>
      </trkpt>
      <trkpt lat="48.52794" lon="-2.6314">
        <ele>15.5</ele>
        <time>2013-09-28T11:09:38Z</time>
      </trkpt>
      <trkpt lat="48.52779" lon="-2.63137">
        <ele>15.3</ele>
        <time>2013-09-28T11:09:51Z</time>
      </trkpt>
      <trkpt lat="48.52771" lon="-2.63134">
        <ele>15.5</ele>
        <time>2013-09-28T11:09:58Z</time>
      </trkpt>
      <trkpt lat="48.52763" lon="-2.6313">
        <ele>14.8</ele>
        <time>2013-09-28T11:10:05Z</time>
      </trkpt>
      <trkpt lat="48.52755" lon="-2.63125">
        <ele>15.4</ele>
        <time>2013-09-28T11:10:13Z</time>
      </trkpt>
      <trkpt lat="48.52747" lon="-2.63123">
        <ele>15.3</ele>
        <time>2013-09-28T11:10:20Z</time>
      </trkpt>
      <trkpt lat="48.52739" lon="-2.63119">
        <ele>15.4</ele>
        <time>2013-09-28T11:10:27Z</time>
      </trkpt>
      <trkpt lat="48.52731" lon="-2.63114">
        <ele>15.2</ele>
        <time>2013-09-28T11:10:35Z</time>
      </trkpt>
      <trkpt lat="48.52723" lon="-2.63111">
        <ele>16.2</ele>
        <time>2013-09-28T11:10:43Z</time>
      </trkpt>
      <trkpt lat="48.52722" lon="-2.6311">
        <ele>16.3</ele>
        <time>2013-09-28T11:10:44Z</time>
      </trkpt>
      <trkpt lat="48.52708" lon="-2.63097">
        <ele>15.2</ele>
        <time>2013-09-28T11:11:01Z</time>
      </trkpt>
      <trkpt lat="48.52704" lon="-2.63085">
        <ele>15.8</ele>
        <time>2013-09-28T11:11:26Z</time>
      </trkpt>
      <trkpt lat="48.52701" lon="-2.63073">
        <ele>15.8</ele>
        <time>2013-09-28T11:11:36Z</time>
      </trkpt>
      <trkpt lat="48.52701" lon="-2.6306">
        <ele>16.7</ele>
        <time>2013-09-28T11:11:53Z</time>
      </trkpt>
      <trkpt lat="48.52701" lon="-2.63059">
        <ele>17.3</ele>
        <time>2013-09-28T11:11:54Z</time>
      </trkpt>
      <trkpt lat="48.52702" lon="-2.63034">
        <ele>19.8</ele>
        <time>2013-09-28T11:12:14Z</time>
      </trkpt>
      <trkpt lat="48.52703" lon="-2.63021">
        <ele>21.1</ele>
        <time>2013-09-28T11:12:25Z</time>
      </trkpt>
      <trkpt lat="48.52704" lon="-2.63008">
        <ele>23.7</ele>
        <time>2013-09-28T11:12:40Z</time>
      </trkpt>
      <trkpt lat="48.52705" lon="-2.62995">
        <ele>25.2</ele>
        <time>2013-09-28T11:12:54Z</time>
      </trkpt>
      <trkpt lat="48.52705" lon="-2.62994">
        <ele>26.1</ele>
        <time>2013-09-28T11:12:55Z</time>
      </trkpt>
      <trkpt lat="48.52705" lon="-2.62969">
        <ele>29.3</ele>
        <time>2013-09-28T11:13:29Z</time>
      </trkpt>
      <trkpt lat="48.52704" lon="-2.62957">
        <ele>31.8</ele>
        <time>2013-09-28T11:13:41Z</time>
      </trkpt>
      <trkpt lat="48.52702" lon="-2.62944">
        <ele>32.4</ele>
        <time>2013-09-28T11:13:50Z</time>
      </trkpt>
      <trkpt lat="48.527" lon="-2.62932">
        <ele>32.4</ele>
        <time>2013-09-28T11:13:58Z</time>
      </trkpt>
      <trkpt lat="48.527" lon="-2.62931">
        <ele>32.4</ele>
        <time>2013-09-28T11:13:59Z</time>
      </trkpt>
      <trkpt lat="48.52691" lon="-2.6291">
        <ele>31</ele>
        <time>2013-09-28T11:14:20Z</time>
      </trkpt>
      <trkpt lat="48.52685" lon="-2.629">
        <ele>34.7</ele>
        <time>2013-09-28T11:14:29Z</time>
      </trkpt>
      <trkpt lat="48.52681" lon="-2.62891">
        <ele>33.6</ele>
        <time>2013-09-28T11:14:36Z</time>
      </trkpt>
      <trkpt lat="48.52675" lon="-2.62881">
        <ele>32.6</ele>
        <time>2013-09-28T11:14:43Z</time>
      </trkpt>
      <trkpt lat="48.52671" lon="-2.6287">
        <ele>31.8</ele>
        <time>2013-09-28T11:14:51Z</time>
      </trkpt>
      <trkpt lat="48.52669" lon="-2.62856">
        <ele>32.9</ele>
        <time>2013-09-28T11:15:02Z</time>
      </trkpt>
      <trkpt lat="48.52669" lon="-2.62855">
        <ele>33.3</ele>
        <time>2013-09-28T11:15:03Z</time>
      </trkpt>
      <trkpt lat="48.52667" lon="-2.6283">
        <ele>36.3</ele>
        <time>2013-09-28T11:15:26Z</time>
      </trkpt>
      <trkpt lat="48.52663" lon="-2.62819">
        <ele>39.2</ele>
        <time>2013-09-28T11:16:22Z</time>
      </trkpt>
      <trkpt lat="48.52663" lon="-2.62818">
        <ele>39</ele>
        <time>2013-09-28T11:16:23Z</time>
      </trkpt>
      <trkpt lat="48.52649" lon="-2.62805">
        <ele>34.1</ele>
        <time>2013-09-28T11:16:44Z</time>
      </trkpt>
      <trkpt lat="48.52642" lon="-2.62797">
        <ele>33.6</ele>
        <time>2013-09-28T11:16:53Z</time>
      </trkpt>
      <trkpt lat="48.52634" lon="-2.62792">
        <ele>32.6</ele>
        <time>2013-09-28T11:17:04Z</time>
      </trkpt>
      <trkpt lat="48.52626" lon="-2.62786">
        <ele>31.4</ele>
        <time>2013-09-28T11:17:12Z</time>
      </trkpt>
      <trkpt lat="48.5262" lon="-2.62776">
        <ele>33</ele>
        <time>2013-09-28T11:17:24Z</time>
      </trkpt>
      <trkpt lat="48.5262" lon="-2.62775">
        <ele>33.1</ele>
        <time>2013-09-28T11:17:25Z</time>
      </trkpt>
      <trkpt lat="48.52609" lon="-2.62755">
        <ele>38.5</ele>
        <time>2013-09-28T11:17:55Z</time>
      </trkpt>
      <trkpt lat="48.52602" lon="-2.62747">
        <ele>39.9</ele>
        <time>2013-09-28T11:18:09Z</time>
      </trkpt>
      <trkpt lat="48.52593" lon="-2.62744">
        <ele>40</ele>
        <time>2013-09-28T11:18:18Z</time>
      </trkpt>
      <trkpt lat="48.52585" lon="-2.62739">
        <ele>40.8</ele>
        <time>2013-09-28T11:18:28Z</time>
      </trkpt>
      <trkpt lat="48.52585" lon="-2.62739">
        <ele>40.9</ele>
        <time>2013-09-28T11:18:29Z</time>
      </trkpt>
      <trkpt lat="48.52573" lon="-2.62722">
        <ele>42.3</ele>
        <time>2013-09-28T11:18:55Z</time>
      </trkpt>
      <trkpt lat="48.52565" lon="-2.62716">
        <ele>44.6</ele>
        <time>2013-09-28T11:19:05Z</time>
      </trkpt>
      <trkpt lat="48.52558" lon="-2.62709">
        <ele>45.6</ele>
        <time>2013-09-28T11:19:14Z</time>
      </trkpt>
      <trkpt lat="48.52552" lon="-2.62699">
        <ele>45.7</ele>
        <time>2013-09-28T11:19:24Z</time>
      </trkpt>
      <trkpt lat="48.52548" lon="-2.62687">
        <ele>44.5</ele>
        <time>2013-09-28T11:20:15Z</time>
      </trkpt>
      <trkpt lat="48.52548" lon="-2.62686">
        <ele>44.5</ele>
        <time>2013-09-28T11:20:16Z</time>
      </trkpt>
      <trkpt lat="48.52539" lon="-2.62667">
        <ele>40.3</ele>
        <time>2013-09-28T11:20:36Z</time>
      </trkpt>
      <trkpt lat="48.52534" lon="-2.62655">
        <ele>39.7</ele>
        <time>2013-09-28T11:20:45Z</time>
      </trkpt>
      <trkpt lat="48.52531" lon="-2.62644">
        <ele>40.6</ele>
        <time>2013-09-28T11:20:54Z</time>
      </trkpt>
      <trkpt lat="48.52527" lon="-2.62632">
        <ele>41.6</ele>
        <time>2013-09-28T11:21:05Z</time>
      </trkpt>
      <trkpt lat="48.52521" lon="-2.62624">
        <ele>41.6</ele>
        <time>2013-09-28T11:21:15Z</time>
      </trkpt>
      <trkpt lat="48.52514" lon="-2.62618">
        <ele>42.2</ele>
        <time>2013-09-28T11:21:22Z</time>
      </trkpt>
      <trkpt lat="48.52514" lon="-2.62616">
        <ele>42.1</ele>
        <time>2013-09-28T11:21:23Z</time>
      </trkpt>
      <trkpt lat="48.52505" lon="-2.62596">
        <ele>42.9</ele>
        <time>2013-09-28T11:21:39Z</time>
      </trkpt>
      <trkpt lat="48.525" lon="-2.62585">
        <ele>41.9</ele>
        <time>2013-09-28T11:21:51Z</time>
      </trkpt>
      <trkpt lat="48.52493" lon="-2.62577">
        <ele>39.5</ele>
        <time>2013-09-28T11:22:03Z</time>
      </trkpt>
      <trkpt lat="48.52485" lon="-2.62573">
        <ele>37.9</ele>
        <time>2013-09-28T11:22:14Z</time>
      </trkpt>
      <trkpt lat="48.5248" lon="-2.62563">
        <ele>37</ele>
        <time>2013-09-28T11:22:22Z</time>
      </trkpt>
      <trkpt lat="48.5248" lon="-2.6255">
        <ele>39.4</ele>
        <time>2013-09-28T11:22:36Z</time>
      </trkpt>
      <trkpt lat="48.52479" lon="-2.62549">
        <ele>39.4</ele>
        <time>2013-09-28T11:22:37Z</time>
      </trkpt>
      <trkpt lat="48.52469" lon="-2.6253">
        <ele>44.4</ele>
        <time>2013-09-28T11:23:13Z</time>
      </trkpt>
      <trkpt lat="48.52461" lon="-2.62526">
        <ele>48</ele>
        <time>2013-09-28T11:23:36Z</time>
      </trkpt>
      <trkpt lat="48.52452" lon="-2.62523">
        <ele>49</ele>
        <time>2013-09-28T11:23:43Z</time>
      </trkpt>
      <trkpt lat="48.52451" lon="-2.62522">
        <ele>49.2</ele>
        <time>2013-09-28T11:23:44Z</time>
      </trkpt>
      <trkpt lat="48.52435" lon="-2.62517">
        <ele>49.8</ele>
        <time>2013-09-28T11:24:05Z</time>
      </trkpt>
      <trkpt lat="48.52428" lon="-2.6251">
        <ele>51.7</ele>
        <time>2013-09-28T11:24:18Z</time>
      </trkpt>
      <trkpt lat="48.5242" lon="-2.62504">
        <ele>53.4</ele>
        <time>2013-09-28T11:24:30Z</time>
      </trkpt>
      <trkpt lat="48.52413" lon="-2.62498">
        <ele>54.7</ele>
        <time>2013-09-28T11:24:42Z</time>
      </trkpt>
      <trkpt lat="48.52405" lon="-2.62491">
        <ele>58.3</ele>
        <time>2013-09-28T11:24:59Z</time>
      </trkpt>
      <trkpt lat="48.52405" lon="-2.62491">
        <ele>58.4</ele>
        <time>2013-09-28T11:25:00Z</time>
      </trkpt>
      <trkpt lat="48.5239" lon="-2.62482">
        <ele>61.1</ele>
        <time>2013-09-28T11:25:36Z</time>
      </trkpt>
      <trkpt lat="48.52383" lon="-2.62487">
        <ele>60.9</ele>
        <time>2013-09-28T11:25:43Z</time>
      </trkpt>
      <trkpt lat="48.52375" lon="-2.62494">
        <ele>61</ele>
        <time>2013-09-28T11:25:51Z</time>
      </trkpt>
      <trkpt lat="48.52368" lon="-2.625">
        <ele>60.6</ele>
        <time>2013-09-28T11:25:59Z</time>
      </trkpt>
      <trkpt lat="48.52361" lon="-2.62506">
        <ele>59.1</ele>
        <time>2013-09-28T11:26:06Z</time>
      </trkpt>
      <trkpt lat="48.5236" lon="-2.62507">
        <ele>58.8</ele>
        <time>2013-09-28T11:26:07Z</time>
      </trkpt>
      <trkpt lat="48.52348" lon="-2.6252">
        <ele>57.9</ele>
        <time>2013-09-28T11:26:20Z</time>
      </trkpt>
      <trkpt lat="48.52342" lon="-2.62529">
        <ele>57.4</ele>
        <time>2013-09-28T11:26:27Z</time>
      </trkpt>
      <trkpt lat="48.52335" lon="-2.62538">
        <ele>56.8</ele>
        <time>2013-09-28T11:26:34Z</time>
      </trkpt>
      <trkpt lat="48.52329" lon="-2.62547">
        <ele>55.7</ele>
        <time>2013-09-28T11:26:41Z</time>
      </trkpt>
      <trkpt lat="48.52324" lon="-2.62557">
        <ele>54.6</ele>
        <time>2013-09-28T11:26:48Z</time>
      </trkpt>
      <trkpt lat="48.52317" lon="-2.62565">
        <ele>55.3</ele>
        <time>2013-09-28T11:26:57Z</time>
      </trkpt>
      <trkpt lat="48.52311" lon="-2.62573">
        <ele>55</ele>
        <time>2013-09-28T11:27:07Z</time>
      </trkpt>
      <trkpt lat="48.5231" lon="-2.62574">
        <ele>54.9</ele>
        <time>2013-09-28T11:27:08Z</time>
      </trkpt>
      <trkpt lat="48.52298" lon="-2.62589">
        <ele>54.2</ele>
        <time>2013-09-28T11:27:25Z</time>
      </trkpt>
      <trkpt lat="48.52291" lon="-2.62597">
        <ele>52.7</ele>
        <time>2013-09-28T11:27:34Z</time>
      </trkpt>
      <trkpt lat="48.52285" lon="-2.62604">
        <ele>51.7</ele>
        <time>2013-09-28T11:27:42Z</time>
      </trkpt>
      <trkpt lat="48.52279" lon="-2.62613">
        <ele>50.5</ele>
        <time>2013-09-28T11:27:50Z</time>
      </trkpt>
      <trkpt lat="48.52273" lon="-2.62622">
        <ele>49.9</ele>
        <time>2013-09-28T11:27:59Z</time>
      </trkpt>
      <trkpt lat="48.52266" lon="-2.62631">
        <ele>48.4</ele>
        <time>2013-09-28T11:28:10Z</time>
      </trkpt>
      <trkpt lat="48.52266" lon="-2.62631">
        <ele>48.3</ele>
        <time>2013-09-28T11:28:11Z</time>
      </trkpt>
      <trkpt lat="48.52255" lon="-2.62649">
        <ele>45</ele>
        <time>2013-09-28T11:28:32Z</time>
      </trkpt>
      <trkpt lat="48.52248" lon="-2.62657">
        <ele>43.6</ele>
        <time>2013-09-28T11:28:41Z</time>
      </trkpt>
      <trkpt lat="48.52242" lon="-2.62666">
        <ele>42.8</ele>
        <time>2013-09-28T11:28:52Z</time>
      </trkpt>
      <trkpt lat="48.52235" lon="-2.62672">
        <ele>41.7</ele>
        <time>2013-09-28T11:29:01Z</time>
      </trkpt>
      <trkpt lat="48.52226" lon="-2.62668">
        <ele>41.1</ele>
        <time>2013-09-28T11:29:10Z</time>
      </trkpt>
      <trkpt lat="48.52225" lon="-2.62655">
        <ele>38</ele>
        <time>2013-09-28T11:29:19Z</time>
      </trkpt>
      <trkpt lat="48.52226" lon="-2.62654">
        <ele>37.7</ele>
        <time>2013-09-28T11:29:20Z</time>
      </trkpt>
      <trkpt lat="48.52238" lon="-2.62637">
        <ele>39.2</ele>
        <time>2013-09-28T11:29:37Z</time>
      </trkpt>
      <trkpt lat="48.52244" lon="-2.62629">
        <ele>40.8</ele>
        <time>2013-09-28T11:29:47Z</time>
      </trkpt>
      <trkpt lat="48.52248" lon="-2.62617">
        <ele>41.9</ele>
        <time>2013-09-28T11:29:57Z</time>
      </trkpt>
      <trkpt lat="48.52251" lon="-2.62606">
        <ele>42.1</ele>
        <time>2013-09-28T11:30:06Z</time>
      </trkpt>
      <trkpt lat="48.52257" lon="-2.62596">
        <ele>42.4</ele>
        <time>2013-09-28T11:30:15Z</time>
      </trkpt>
      <trkpt lat="48.52263" lon="-2.62586">
        <ele>42.4</ele>
        <time>2013-09-28T11:30:23Z</time>
      </trkpt>
      <trkpt lat="48.52264" lon="-2.62585">
        <ele>42.5</ele>
        <time>2013-09-28T11:30:24Z</time>
      </trkpt>
      <trkpt lat="48.52273" lon="-2.62566">
        <ele>42.5</ele>
        <time>2013-09-28T11:30:38Z</time>
      </trkpt>
      <trkpt lat="48.52278" lon="-2.62556">
        <ele>43.5</ele>
        <time>2013-09-28T11:30:45Z</time>
      </trkpt>
      <trkpt lat="48.52284" lon="-2.62546">
        <ele>42.4</ele>
        <time>2013-09-28T11:30:54Z</time>
      </trkpt>
      <trkpt lat="48.52288" lon="-2.62534">
        <ele>43.8</ele>
        <time>2013-09-28T11:31:02Z</time>
      </trkpt>
      <trkpt lat="48.52294" lon="-2.62525">
        <ele>45.4</ele>
        <time>2013-09-28T11:31:14Z</time>
      </trkpt>
      <trkpt lat="48.52297" lon="-2.62513">
        <ele>45.8</ele>
        <time>2013-09-28T11:31:23Z</time>
      </trkpt>
      <trkpt lat="48.523" lon="-2.62501">
        <ele>46.3</ele>
        <time>2013-09-28T11:31:31Z</time>
      </trkpt>
      <trkpt lat="48.523" lon="-2.62499">
        <ele>46</ele>
        <time>2013-09-28T11:31:32Z</time>
      </trkpt>
      <trkpt lat="48.52308" lon="-2.62478">
        <ele>47.9</ele>
        <time>2013-09-28T11:31:50Z</time>
      </trkpt>
      <trkpt lat="48.52312" lon="-2.62467">
        <ele>49.2</ele>
        <time>2013-09-28T11:31:59Z</time>
      </trkpt>
      <trkpt lat="48.52315" lon="-2.62455">
        <ele>50</ele>
        <time>2013-09-28T11:32:08Z</time>
      </trkpt>
      <trkpt lat="48.52315" lon="-2.62442">
        <ele>52.2</ele>
        <time>2013-09-28T11:32:16Z</time>
      </trkpt>
      <trkpt lat="48.52316" lon="-2.62429">
        <ele>52</ele>
        <time>2013-09-28T11:32:26Z</time>
      </trkpt>
      <trkpt lat="48.52318" lon="-2.62416">
        <ele>50</ele>
        <time>2013-09-28T11:32:35Z</time>
      </trkpt>
      <trkpt lat="48.52318" lon="-2.62415">
        <ele>50.5</ele>
        <time>2013-09-28T11:32:36Z</time>
      </trkpt>
      <trkpt lat="48.52322" lon="-2.62393">
        <ele>53</ele>
        <time>2013-09-28T11:32:51Z</time>
      </trkpt>
      <trkpt lat="48.52322" lon="-2.62381">
        <ele>54.3</ele>
        <time>2013-09-28T11:32:58Z</time>
      </trkpt>
      <trkpt lat="48.5232" lon="-2.62368">
        <ele>53.4</ele>
        <time>2013-09-28T11:33:06Z</time>
      </trkpt>
      <trkpt lat="48.52318" lon="-2.62355">
        <ele>54.7</ele>
        <time>2013-09-28T11:33:14Z</time>
      </trkpt>
      <trkpt lat="48.52317" lon="-2.62343">
        <ele>54.5</ele>
        <time>2013-09-28T11:33:21Z</time>
      </trkpt>
      <trkpt lat="48.52315" lon="-2.62331">
        <ele>53.8</ele>
        <time>2013-09-28T11:33:29Z</time>
      </trkpt>
      <trkpt lat="48.52313" lon="-2.62319">
        <ele>53.3</ele>
        <time>2013-09-28T11:33:36Z</time>
      </trkpt>
      <trkpt lat="48.52312" lon="-2.62318">
        <ele>53.5</ele>
        <time>2013-09-28T11:33:37Z</time>
      </trkpt>
      <trkpt lat="48.52306" lon="-2.62296">
        <ele>53.3</ele>
        <time>2013-09-28T11:34:28Z</time>
      </trkpt>
      <trkpt lat="48.52308" lon="-2.62284">
        <ele>54.5</ele>
        <time>2013-09-28T11:34:45Z</time>
      </trkpt>
      <trkpt lat="48.52308" lon="-2.62283">
        <ele>54.5</ele>
        <time>2013-09-28T11:34:46Z</time>
      </trkpt>
      <trkpt lat="48.52302" lon="-2.62268">
        <ele>54.2</ele>
        <time>2013-09-28T11:35:06Z</time>
      </trkpt>
      <trkpt lat="48.52293" lon="-2.62265">
        <ele>52.5</ele>
        <time>2013-09-28T11:35:17Z</time>
      </trkpt>
      <trkpt lat="48.52285" lon="-2.62266">
        <ele>52.4</ele>
        <time>2013-09-28T11:35:27Z</time>
      </trkpt>
      <trkpt lat="48.52276" lon="-2.62264">
        <ele>52.4</ele>
        <time>2013-09-28T11:35:37Z</time>
      </trkpt>
      <trkpt lat="48.52268" lon="-2.62261">
        <ele>50.2</ele>
        <time>2013-09-28T11:35:46Z</time>
      </trkpt>
      <trkpt lat="48.52267" lon="-2.62261">
        <ele>50.3</ele>
        <time>2013-09-28T11:35:47Z</time>
      </trkpt>
      <trkpt lat="48.52252" lon="-2.62256">
        <ele>48.7</ele>
        <time>2013-09-28T11:36:03Z</time>
      </trkpt>
      <trkpt lat="48.52244" lon="-2.62251">
        <ele>48.3</ele>
        <time>2013-09-28T11:36:10Z</time>
      </trkpt>
      <trkpt lat="48.52236" lon="-2.62248">
        <ele>47.6</ele>
        <time>2013-09-28T11:36:18Z</time>
      </trkpt>
      <trkpt lat="48.52229" lon="-2.62242">
        <ele>48.2</ele>
        <time>2013-09-28T11:36:26Z</time>
      </trkpt>
      <trkpt lat="48.52221" lon="-2.62237">
        <ele>47.1</ele>
        <time>2013-09-28T11:36:34Z</time>
      </trkpt>
      <trkpt lat="48.52213" lon="-2.62233">
        <ele>47.5</ele>
        <time>2013-09-28T11:36:42Z</time>
      </trkpt>
      <trkpt lat="48.52213" lon="-2.6222">
        <ele>47</ele>
        <time>2013-09-28T11:36:52Z</time>
      </trkpt>
      <trkpt lat="48.52213" lon="-2.62219">
        <ele>47.3</ele>
        <time>2013-09-28T11:36:53Z</time>
      </trkpt>
      <trkpt lat="48.5221" lon="-2.62195">
        <ele>46.9</ele>
        <time>2013-09-28T11:37:11Z</time>
      </trkpt>
      <trkpt lat="48.52203" lon="-2.62188">
        <ele>43.9</ele>
        <time>2013-09-28T11:37:26Z</time>
      </trkpt>
      <trkpt lat="48.52195" lon="-2.62185">
        <ele>42.7</ele>
        <time>2013-09-28T11:37:36Z</time>
      </trkpt>
      <trkpt lat="48.52186" lon="-2.6219">
        <ele>42</ele>
        <time>2013-09-28T11:37:45Z</time>
      </trkpt>
      <trkpt lat="48.52178" lon="-2.62196">
        <ele>39</ele>
        <time>2013-09-28T11:37:53Z</time>
      </trkpt>
      <trkpt lat="48.52177" lon="-2.62196">
        <ele>38.9</ele>
        <time>2013-09-28T11:37:54Z</time>
      </trkpt>
      <trkpt lat="48.52162" lon="-2.62191">
        <ele>34.8</ele>
        <time>2013-09-28T11:38:17Z</time>
      </trkpt>
      <trkpt lat="48.52154" lon="-2.62187">
        <ele>32.5</ele>
        <time>2013-09-28T11:38:31Z</time>
      </trkpt>
      <trkpt lat="48.52145" lon="-2.62184">
        <ele>27.7</ele>
        <time>2013-09-28T11:38:49Z</time>
      </trkpt>
      <trkpt lat="48.52137" lon="-2.62184">
        <ele>24.5</ele>
        <time>2013-09-28T11:39:05Z</time>
      </trkpt>
      <trkpt lat="48.52136" lon="-2.62184">
        <ele>24.2</ele>
        <time>2013-09-28T11:39:06Z</time>
      </trkpt>
      <trkpt lat="48.5212" lon="-2.62188">
        <ele>20</ele>
        <time>2013-09-28T11:39:28Z</time>
      </trkpt>
      <trkpt lat="48.52113" lon="-2.62196">
        <ele>17</ele>
        <time>2013-09-28T11:39:45Z</time>
      </trkpt>
      <trkpt lat="48.52113" lon="-2.62209">
        <ele>14.5</ele>
        <time>2013-09-28T11:39:56Z</time>
      </trkpt>
      <trkpt lat="48.52111" lon="-2.6222">
        <ele>13.3</ele>
        <time>2013-09-28T11:40:03Z</time>
      </trkpt>
      <trkpt lat="48.52105" lon="-2.62228">
        <ele>12.1</ele>
        <time>2013-09-28T11:40:09Z</time>
      </trkpt>
      <trkpt lat="48.52103" lon="-2.62229">
        <ele>12</ele>
        <time>2013-09-28T11:40:10Z</time>
      </trkpt>
      <trkpt lat="48.52091" lon="-2.62237">
        <ele>10.1</ele>
        <time>2013-09-28T11:40:20Z</time>
      </trkpt>
      <trkpt lat="48.52084" lon="-2.62246">
        <ele>8.5</ele>
        <time>2013-09-28T11:40:27Z</time>
      </trkpt>
      <trkpt lat="48.52077" lon="-2.62254">
        <ele>7.5</ele>
        <time>2013-09-28T11:40:44Z</time>
      </trkpt>
      <trkpt lat="48.52069" lon="-2.62261">
        <ele>6.7</ele>
        <time>2013-09-28T11:41:09Z</time>
      </trkpt>
      <trkpt lat="48.52063" lon="-2.6227">
        <ele>8.1</ele>
        <time>2013-09-28T11:41:28Z</time>
      </trkpt>
      <trkpt lat="48.52062" lon="-2.6227">
        <ele>8.1</ele>
        <time>2013-09-28T11:41:29Z</time>
      </trkpt>
      <trkpt lat="48.52046" lon="-2.6226">
        <ele>12.8</ele>
        <time>2013-09-28T11:42:03Z</time>
      </trkpt>
      <trkpt lat="48.52038" lon="-2.62254">
        <ele>12.1</ele>
        <time>2013-09-28T11:42:20Z</time>
      </trkpt>
      <trkpt lat="48.5203" lon="-2.6225">
        <ele>9.1</ele>
        <time>2013-09-28T11:42:42Z</time>
      </trkpt>
      <trkpt lat="48.52029" lon="-2.6225">
        <ele>8.6</ele>
        <time>2013-09-28T11:42:43Z</time>
      </trkpt>
      <trkpt lat="48.52015" lon="-2.62241">
        <ele>7.8</ele>
        <time>2013-09-28T11:43:00Z</time>
      </trkpt>
      <trkpt lat="48.52013" lon="-2.62229">
        <ele>9.9</ele>
        <time>2013-09-28T11:43:19Z</time>
      </trkpt>
      <trkpt lat="48.5201" lon="-2.62217">
        <ele>9.9</ele>
        <time>2013-09-28T11:43:27Z</time>
      </trkpt>
      <trkpt lat="48.52006" lon="-2.62205">
        <ele>10.7</ele>
        <time>2013-09-28T11:43:36Z</time>
      </trkpt>
      <trkpt lat="48.51999" lon="-2.62197">
        <ele>11.5</ele>
        <time>2013-09-28T11:43:45Z</time>
      </trkpt>
      <trkpt lat="48.51999" lon="-2.62196">
        <ele>11.8</ele>
        <time>2013-09-28T11:43:46Z</time>
      </trkpt>
      <trkpt lat="48.51985" lon="-2.62183">
        <ele>13.2</ele>
        <time>2013-09-28T11:43:59Z</time>
      </trkpt>
      <trkpt lat="48.51979" lon="-2.62173">
        <ele>13.1</ele>
        <time>2013-09-28T11:44:05Z</time>
      </trkpt>
      <trkpt lat="48.51973" lon="-2.62164">
        <ele>12.1</ele>
        <time>2013-09-28T11:44:11Z</time>
      </trkpt>
      <trkpt lat="48.51965" lon="-2.62156">
        <ele>12.2</ele>
        <time>2013-09-28T11:44:18Z</time>
      </trkpt>
      <trkpt lat="48.51959" lon="-2.6215">
        <ele>12.2</ele>
        <time>2013-09-28T11:44:25Z</time>
      </trkpt>
      <trkpt lat="48.51953" lon="-2.62139">
        <ele>9.4</ele>
        <time>2013-09-28T11:44:34Z</time>
      </trkpt>
      <trkpt lat="48.5195" lon="-2.62127">
        <ele>10.1</ele>
        <time>2013-09-28T11:44:43Z</time>
      </trkpt>
      <trkpt lat="48.51948" lon="-2.62115">
        <ele>10.2</ele>
        <time>2013-09-28T11:44:53Z</time>
      </trkpt>
      <trkpt lat="48.51948" lon="-2.62114">
        <ele>10.1</ele>
        <time>2013-09-28T11:44:54Z</time>
      </trkpt>
      <trkpt lat="48.5195" lon="-2.6209">
        <ele>11.5</ele>
        <time>2013-09-28T11:45:15Z</time>
      </trkpt>
      <trkpt lat="48.51947" lon="-2.62078">
        <ele>11.4</ele>
        <time>2013-09-28T11:45:23Z</time>
      </trkpt>
      <trkpt lat="48.51943" lon="-2.62067">
        <ele>10.3</ele>
        <time>2013-09-28T11:45:32Z</time>
      </trkpt>
      <trkpt lat="48.51938" lon="-2.62057">
        <ele>9.2</ele>
        <time>2013-09-28T11:45:40Z</time>
      </trkpt>
      <trkpt lat="48.51933" lon="-2.62047">
        <ele>8.2</ele>
        <time>2013-09-28T11:45:48Z</time>
      </trkpt>
      <trkpt lat="48.51925" lon="-2.62041">
        <ele>6.3</ele>
        <time>2013-09-28T11:46:04Z</time>
      </trkpt>
      <trkpt lat="48.51924" lon="-2.62041">
        <ele>6.2</ele>
        <time>2013-09-28T11:46:05Z</time>
      </trkpt>
      <trkpt lat="48.5193" lon="-2.6202">
        <ele>7.3</ele>
        <time>2013-09-28T11:47:03Z</time>
      </trkpt>
      <trkpt lat="48.51931" lon="-2.62007">
        <ele>7.4</ele>
        <time>2013-09-28T11:47:12Z</time>
      </trkpt>
      <trkpt lat="48.51931" lon="-2.62005">
        <ele>7.4</ele>
        <time>2013-09-28T11:47:13Z</time>
      </trkpt>
      <trkpt lat="48.5193" lon="-2.6198">
        <ele>10.5</ele>
        <time>2013-09-28T11:47:37Z</time>
      </trkpt>
      <trkpt lat="48.51931" lon="-2.61966">
        <ele>10.3</ele>
        <time>2013-09-28T11:47:55Z</time>
      </trkpt>
      <trkpt lat="48.51922" lon="-2.61969">
        <ele>14</ele>
        <time>2013-09-28T11:48:06Z</time>
      </trkpt>
      <trkpt lat="48.51914" lon="-2.61975">
        <ele>13.3</ele>
        <time>2013-09-28T11:48:11Z</time>
      </trkpt>
      <trkpt lat="48.51907" lon="-2.61983">
        <ele>13.5</ele>
        <time>2013-09-28T11:48:16Z</time>
      </trkpt>
      <trkpt lat="48.51907" lon="-2.61985">
        <ele>13.5</ele>
        <time>2013-09-28T11:48:17Z</time>
      </trkpt>
      <trkpt lat="48.51901" lon="-2.62006">
        <ele>12.3</ele>
        <time>2013-09-28T11:48:30Z</time>
      </trkpt>
      <trkpt lat="48.51898" lon="-2.62018">
        <ele>10.8</ele>
        <time>2013-09-28T11:48:58Z</time>
      </trkpt>
      <trkpt lat="48.51895" lon="-2.6203">
        <ele>12.7</ele>
        <time>2013-09-28T11:49:10Z</time>
      </trkpt>
      <trkpt lat="48.51893" lon="-2.62044">
        <ele>12.7</ele>
        <time>2013-09-28T11:49:20Z</time>
      </trkpt>
      <trkpt lat="48.51893" lon="-2.62045">
        <ele>12.7</ele>
        <time>2013-09-28T11:49:21Z</time>
      </trkpt>
      <trkpt lat="48.51891" lon="-2.62068">
        <ele>15.2</ele>
        <time>2013-09-28T11:49:39Z</time>
      </trkpt>
      <trkpt lat="48.51891" lon="-2.62073">
        <ele>14.8</ele>
        <time>2013-09-28T11:49:44Z</time>
      </trkpt>
      <trkpt lat="48.51891" lon="-2.62073">
        <ele>14.8</ele>
        <time>2013-09-28T11:49:44Z</time>
      </trkpt>
    </trkseg>
  </trk>
</gpx>